<?xml version='1.0' encoding='UTF-8'?>
<gpx version="1.1" creator="https://www.komoot.de" xmlns="http://www.topografix.com/GPX/1/1" xmlns:xsi="http://www.w3.org/2001/XMLSchema-instance" xsi:schemaLocation="http://www.topografix.com/GPX/1/1 http://www.topografix.com/GPX/1/1/gpx.xsd">
  <metadata>
    <name>45_740HottingenEgg</name>
    <author>
      <link href="https://www.komoot.de">
        <text>komoot</text>
        <type>text/html</type>
      </link>
    </author>
  </metadata>
  <trk>
    <name>45_740HottingenEgg</name>
    <trkseg>
      <trkpt lat="47.541576" lon="7.870664">
        <ele>341.421376</ele>
        <time>2021-11-07T14:57:44.653Z</time>
      </trkpt>
      <trkpt lat="47.541796" lon="7.871042">
        <ele>341.421376</ele>
        <time>2021-11-07T14:57:52.186Z</time>
      </trkpt>
      <trkpt lat="47.541953" lon="7.871286">
        <ele>341.421376</ele>
        <time>2021-11-07T14:57:57.116Z</time>
      </trkpt>
      <trkpt lat="47.542039" lon="7.871556">
        <ele>341.421376</ele>
        <time>2021-11-07T14:58:01.882Z</time>
      </trkpt>
      <trkpt lat="47.542067" lon="7.871664">
        <ele>341.421376</ele>
        <time>2021-11-07T14:58:03.494Z</time>
      </trkpt>
      <trkpt lat="47.542091" lon="7.871721">
        <ele>341.421376</ele>
        <time>2021-11-07T14:58:04.107Z</time>
      </trkpt>
      <trkpt lat="47.542218" lon="7.871866">
        <ele>342.070939</ele>
        <time>2021-11-07T14:58:09.587Z</time>
      </trkpt>
      <trkpt lat="47.542394" lon="7.872341">
        <ele>343.649972</ele>
        <time>2021-11-07T14:58:20.049Z</time>
      </trkpt>
      <trkpt lat="47.542436" lon="7.872494">
        <ele>344.131292</ele>
        <time>2021-11-07T14:58:23.435Z</time>
      </trkpt>
      <trkpt lat="47.542537" lon="7.872430">
        <ele>344.605519</ele>
        <time>2021-11-07T14:58:25.503Z</time>
      </trkpt>
      <trkpt lat="47.542714" lon="7.872334">
        <ele>345.419226</ele>
        <time>2021-11-07T14:58:32.656Z</time>
      </trkpt>
      <trkpt lat="47.542814" lon="7.872280">
        <ele>345.878709</ele>
        <time>2021-11-07T14:58:35.534Z</time>
      </trkpt>
      <trkpt lat="47.542919" lon="7.872226">
        <ele>346.358529</ele>
        <time>2021-11-07T14:58:39.374Z</time>
      </trkpt>
      <trkpt lat="47.543013" lon="7.872182">
        <ele>346.784099</ele>
        <time>2021-11-07T14:58:43.004Z</time>
      </trkpt>
      <trkpt lat="47.543233" lon="7.872082">
        <ele>347.777534</ele>
        <time>2021-11-07T14:58:50.102Z</time>
      </trkpt>
      <trkpt lat="47.543251" lon="7.872152">
        <ele>347.995820</ele>
        <time>2021-11-07T14:58:53.516Z</time>
      </trkpt>
      <trkpt lat="47.543332" lon="7.872237">
        <ele>348.424337</ele>
        <time>2021-11-07T14:58:56.926Z</time>
      </trkpt>
      <trkpt lat="47.544390" lon="7.872423">
        <ele>355.035776</ele>
        <time>2021-11-07T14:59:38.558Z</time>
      </trkpt>
      <trkpt lat="47.544883" lon="7.872555">
        <ele>358.332418</ele>
        <time>2021-11-07T15:00:00.901Z</time>
      </trkpt>
      <trkpt lat="47.545131" lon="7.872664">
        <ele>360.034634</ele>
        <time>2021-11-07T15:00:11.905Z</time>
      </trkpt>
      <trkpt lat="47.545375" lon="7.872836">
        <ele>361.785257</ele>
        <time>2021-11-07T15:00:22.846Z</time>
      </trkpt>
      <trkpt lat="47.545478" lon="7.872968">
        <ele>362.650320</ele>
        <time>2021-11-07T15:00:29.653Z</time>
      </trkpt>
      <trkpt lat="47.545515" lon="7.873015">
        <ele>362.959903</ele>
        <time>2021-11-07T15:00:31.610Z</time>
      </trkpt>
      <trkpt lat="47.545746" lon="7.873302">
        <ele>364.874863</ele>
        <time>2021-11-07T15:00:44.809Z</time>
      </trkpt>
      <trkpt lat="47.545934" lon="7.873549">
        <ele>366.470949</ele>
        <time>2021-11-07T15:00:54.909Z</time>
      </trkpt>
      <trkpt lat="47.546077" lon="7.873763">
        <ele>367.762026</ele>
        <time>2021-11-07T15:01:04.106Z</time>
      </trkpt>
      <trkpt lat="47.546135" lon="7.873859">
        <ele>368.314418</ele>
        <time>2021-11-07T15:01:07.345Z</time>
      </trkpt>
      <trkpt lat="47.546309" lon="7.874154">
        <ele>369.994072</ele>
        <time>2021-11-07T15:01:18.459Z</time>
      </trkpt>
      <trkpt lat="47.547126" lon="7.875801">
        <ele>375.730568</ele>
        <time>2021-11-07T15:02:04.220Z</time>
      </trkpt>
      <trkpt lat="47.547574" lon="7.876801">
        <ele>378.384585</ele>
        <time>2021-11-07T15:02:23.216Z</time>
      </trkpt>
      <trkpt lat="47.547992" lon="7.877974">
        <ele>377.103640</ele>
        <time>2021-11-07T15:02:36.017Z</time>
      </trkpt>
      <trkpt lat="47.548234" lon="7.878638">
        <ele>376.374912</ele>
        <time>2021-11-07T15:02:41.329Z</time>
      </trkpt>
      <trkpt lat="47.548422" lon="7.878959">
        <ele>375.964497</ele>
        <time>2021-11-07T15:02:44.172Z</time>
      </trkpt>
      <trkpt lat="47.548718" lon="7.879258">
        <ele>374.730488</ele>
        <time>2021-11-07T15:02:47.710Z</time>
      </trkpt>
      <trkpt lat="47.549140" lon="7.879391">
        <ele>372.898104</ele>
        <time>2021-11-07T15:02:51.897Z</time>
      </trkpt>
      <trkpt lat="47.549318" lon="7.879398">
        <ele>372.141852</ele>
        <time>2021-11-07T15:02:53.524Z</time>
      </trkpt>
      <trkpt lat="47.549327" lon="7.879547">
        <ele>371.713020</ele>
        <time>2021-11-07T15:02:54.510Z</time>
      </trkpt>
      <trkpt lat="47.549726" lon="7.880786">
        <ele>367.845712</ele>
        <time>2021-11-07T15:03:03.445Z</time>
      </trkpt>
      <trkpt lat="47.549927" lon="7.881490">
        <ele>366.025283</ele>
        <time>2021-11-07T15:03:08.477Z</time>
      </trkpt>
      <trkpt lat="47.550234" lon="7.883221">
        <ele>361.743842</ele>
        <time>2021-11-07T15:03:20.877Z</time>
      </trkpt>
      <trkpt lat="47.550332" lon="7.884727">
        <ele>357.158149</ele>
        <time>2021-11-07T15:03:30.722Z</time>
      </trkpt>
      <trkpt lat="47.550391" lon="7.885109">
        <ele>355.970421</ele>
        <time>2021-11-07T15:03:33.254Z</time>
      </trkpt>
      <trkpt lat="47.550548" lon="7.885799">
        <ele>353.763470</ele>
        <time>2021-11-07T15:03:37.859Z</time>
      </trkpt>
      <trkpt lat="47.550677" lon="7.886476">
        <ele>351.017820</ele>
        <time>2021-11-07T15:03:42.289Z</time>
      </trkpt>
      <trkpt lat="47.550758" lon="7.887295">
        <ele>347.784548</ele>
        <time>2021-11-07T15:03:47.431Z</time>
      </trkpt>
      <trkpt lat="47.550789" lon="7.887816">
        <ele>345.741571</ele>
        <time>2021-11-07T15:03:50.663Z</time>
      </trkpt>
      <trkpt lat="47.550831" lon="7.888611">
        <ele>342.574524</ele>
        <time>2021-11-07T15:03:55.619Z</time>
      </trkpt>
      <trkpt lat="47.550833" lon="7.889069">
        <ele>340.655777</ele>
        <time>2021-11-07T15:03:58.429Z</time>
      </trkpt>
      <trkpt lat="47.550915" lon="7.890600">
        <ele>334.221775</ele>
        <time>2021-11-07T15:04:07.822Z</time>
      </trkpt>
      <trkpt lat="47.550904" lon="7.891725">
        <ele>330.584767</ele>
        <time>2021-11-07T15:04:14.826Z</time>
      </trkpt>
      <trkpt lat="47.550892" lon="7.893176">
        <ele>326.952782</ele>
        <time>2021-11-07T15:04:24.438Z</time>
      </trkpt>
      <trkpt lat="47.550908" lon="7.894308">
        <ele>325.052625</ele>
        <time>2021-11-07T15:04:33.643Z</time>
      </trkpt>
      <trkpt lat="47.550878" lon="7.895158">
        <ele>324.349747</ele>
        <time>2021-11-07T15:04:40.828Z</time>
      </trkpt>
      <trkpt lat="47.550838" lon="7.895509">
        <ele>324.055793</ele>
        <time>2021-11-07T15:04:43.992Z</time>
      </trkpt>
      <trkpt lat="47.550660" lon="7.896255">
        <ele>323.402392</ele>
        <time>2021-11-07T15:04:50.480Z</time>
      </trkpt>
      <trkpt lat="47.550639" lon="7.896345">
        <ele>323.323755</ele>
        <time>2021-11-07T15:04:51.668Z</time>
      </trkpt>
      <trkpt lat="47.550648" lon="7.896481">
        <ele>323.066996</ele>
        <time>2021-11-07T15:04:52.623Z</time>
      </trkpt>
      <trkpt lat="47.550819" lon="7.898109">
        <ele>319.764545</ele>
        <time>2021-11-07T15:05:04.371Z</time>
      </trkpt>
      <trkpt lat="47.550801" lon="7.900244">
        <ele>314.419126</ele>
        <time>2021-11-07T15:05:18.208Z</time>
      </trkpt>
      <trkpt lat="47.550769" lon="7.901362">
        <ele>311.214457</ele>
        <time>2021-11-07T15:05:25.480Z</time>
      </trkpt>
      <trkpt lat="47.550757" lon="7.901591">
        <ele>310.556659</ele>
        <time>2021-11-07T15:05:27.616Z</time>
      </trkpt>
      <trkpt lat="47.550688" lon="7.902451">
        <ele>308.386086</ele>
        <time>2021-11-07T15:05:36.050Z</time>
      </trkpt>
      <trkpt lat="47.550498" lon="7.903445">
        <ele>305.832530</ele>
        <time>2021-11-07T15:05:46.300Z</time>
      </trkpt>
      <trkpt lat="47.550302" lon="7.904164">
        <ele>303.915849</ele>
        <time>2021-11-07T15:05:53.560Z</time>
      </trkpt>
      <trkpt lat="47.550025" lon="7.904774">
        <ele>302.140233</ele>
        <time>2021-11-07T15:06:00.485Z</time>
      </trkpt>
      <trkpt lat="47.549868" lon="7.905010">
        <ele>301.341810</ele>
        <time>2021-11-07T15:06:03.616Z</time>
      </trkpt>
      <trkpt lat="47.549867" lon="7.905155">
        <ele>300.992416</ele>
        <time>2021-11-07T15:06:05.013Z</time>
      </trkpt>
      <trkpt lat="47.550067" lon="7.905245">
        <ele>300.246232</ele>
        <time>2021-11-07T15:06:07.938Z</time>
      </trkpt>
      <trkpt lat="47.550283" lon="7.905413">
        <ele>299.375344</ele>
        <time>2021-11-07T15:06:11.388Z</time>
      </trkpt>
      <trkpt lat="47.550497" lon="7.905558">
        <ele>298.535290</ele>
        <time>2021-11-07T15:06:14.747Z</time>
      </trkpt>
      <trkpt lat="47.549539" lon="7.908625">
        <ele>293.057088</ele>
        <time>2021-11-07T15:06:39.182Z</time>
      </trkpt>
      <trkpt lat="47.549520" lon="7.908678">
        <ele>293.003296</ele>
        <time>2021-11-07T15:06:39.689Z</time>
      </trkpt>
      <trkpt lat="47.549411" lon="7.909039">
        <ele>292.648808</ele>
        <time>2021-11-07T15:06:42.904Z</time>
      </trkpt>
      <trkpt lat="47.549290" lon="7.909440">
        <ele>292.255083</ele>
        <time>2021-11-07T15:06:46.492Z</time>
      </trkpt>
      <trkpt lat="47.549195" lon="7.909756">
        <ele>291.945006</ele>
        <time>2021-11-07T15:06:49.328Z</time>
      </trkpt>
      <trkpt lat="47.549102" lon="7.910058">
        <ele>291.647460</ele>
        <time>2021-11-07T15:06:52.023Z</time>
      </trkpt>
      <trkpt lat="47.549012" lon="7.910340">
        <ele>291.367852</ele>
        <time>2021-11-07T15:06:54.543Z</time>
      </trkpt>
      <trkpt lat="47.548412" lon="7.912168">
        <ele>289.835117</ele>
        <time>2021-11-07T15:07:10.884Z</time>
      </trkpt>
      <trkpt lat="47.548027" lon="7.913334">
        <ele>288.984309</ele>
        <time>2021-11-07T15:07:21.645Z</time>
      </trkpt>
      <trkpt lat="47.547994" lon="7.913433">
        <ele>288.969626</ele>
        <time>2021-11-07T15:07:22.566Z</time>
      </trkpt>
      <trkpt lat="47.547423" lon="7.915080">
        <ele>288.723400</ele>
        <time>2021-11-07T15:07:40.055Z</time>
      </trkpt>
      <trkpt lat="47.547113" lon="7.915971">
        <ele>288.791433</ele>
        <time>2021-11-07T15:07:50.692Z</time>
      </trkpt>
      <trkpt lat="47.547091" lon="7.916039">
        <ele>288.819377</ele>
        <time>2021-11-07T15:07:51.743Z</time>
      </trkpt>
      <trkpt lat="47.547032" lon="7.916218">
        <ele>288.893195</ele>
        <time>2021-11-07T15:07:54.013Z</time>
      </trkpt>
      <trkpt lat="47.546821" lon="7.916867">
        <ele>289.160142</ele>
        <time>2021-11-07T15:08:02.428Z</time>
      </trkpt>
      <trkpt lat="47.546262" lon="7.919081">
        <ele>289.851373</ele>
        <time>2021-11-07T15:08:30.090Z</time>
      </trkpt>
      <trkpt lat="47.546128" lon="7.919617">
        <ele>289.966658</ele>
        <time>2021-11-07T15:08:35.518Z</time>
      </trkpt>
      <trkpt lat="47.545973" lon="7.920313">
        <ele>290.114481</ele>
        <time>2021-11-07T15:08:42.937Z</time>
      </trkpt>
      <trkpt lat="47.545913" lon="7.920765">
        <ele>290.350608</ele>
        <time>2021-11-07T15:08:47.695Z</time>
      </trkpt>
      <trkpt lat="47.545881" lon="7.921096">
        <ele>290.664415</ele>
        <time>2021-11-07T15:08:51.661Z</time>
      </trkpt>
      <trkpt lat="47.545810" lon="7.921755">
        <ele>291.290703</ele>
        <time>2021-11-07T15:09:00.272Z</time>
      </trkpt>
      <trkpt lat="47.545778" lon="7.921947">
        <ele>291.476302</ele>
        <time>2021-11-07T15:09:03.225Z</time>
      </trkpt>
      <trkpt lat="47.545714" lon="7.922249">
        <ele>291.773364</ele>
        <time>2021-11-07T15:09:07.079Z</time>
      </trkpt>
      <trkpt lat="47.545699" lon="7.922325">
        <ele>291.847675</ele>
        <time>2021-11-07T15:09:08.276Z</time>
      </trkpt>
      <trkpt lat="47.545690" lon="7.922369">
        <ele>291.890823</ele>
        <time>2021-11-07T15:09:09.348Z</time>
      </trkpt>
      <trkpt lat="47.545641" lon="7.922610">
        <ele>292.127035</ele>
        <time>2021-11-07T15:09:12.703Z</time>
      </trkpt>
      <trkpt lat="47.545587" lon="7.922895">
        <ele>292.404841</ele>
        <time>2021-11-07T15:09:17.535Z</time>
      </trkpt>
      <trkpt lat="47.545553" lon="7.923142">
        <ele>292.641418</ele>
        <time>2021-11-07T15:09:21.145Z</time>
      </trkpt>
      <trkpt lat="47.545536" lon="7.923407">
        <ele>293.266448</ele>
        <time>2021-11-07T15:09:26.021Z</time>
      </trkpt>
      <trkpt lat="47.545521" lon="7.923709">
        <ele>294.030266</ele>
        <time>2021-11-07T15:09:31.188Z</time>
      </trkpt>
      <trkpt lat="47.545481" lon="7.924396">
        <ele>295.769574</ele>
        <time>2021-11-07T15:09:45.791Z</time>
      </trkpt>
      <trkpt lat="47.545466" lon="7.924880">
        <ele>296.991691</ele>
        <time>2021-11-07T15:09:57.098Z</time>
      </trkpt>
      <trkpt lat="47.545446" lon="7.925350">
        <ele>298.179563</ele>
        <time>2021-11-07T15:10:07.473Z</time>
      </trkpt>
      <trkpt lat="47.545417" lon="7.925848">
        <ele>299.416077</ele>
        <time>2021-11-07T15:10:17.952Z</time>
      </trkpt>
      <trkpt lat="47.545409" lon="7.926773">
        <ele>300.620792</ele>
        <time>2021-11-07T15:10:35.153Z</time>
      </trkpt>
      <trkpt lat="47.545407" lon="7.927001">
        <ele>300.917739</ele>
        <time>2021-11-07T15:10:38.962Z</time>
      </trkpt>
      <trkpt lat="47.545406" lon="7.927306">
        <ele>301.314941</ele>
        <time>2021-11-07T15:10:43.566Z</time>
      </trkpt>
      <trkpt lat="47.545421" lon="7.927686">
        <ele>301.810656</ele>
        <time>2021-11-07T15:10:49.102Z</time>
      </trkpt>
      <trkpt lat="47.545475" lon="7.928419">
        <ele>302.770901</ele>
        <time>2021-11-07T15:10:58.419Z</time>
      </trkpt>
      <trkpt lat="47.545563" lon="7.929641">
        <ele>301.598718</ele>
        <time>2021-11-07T15:11:08.299Z</time>
      </trkpt>
      <trkpt lat="47.545661" lon="7.930955">
        <ele>300.161389</ele>
        <time>2021-11-07T15:11:17.695Z</time>
      </trkpt>
      <trkpt lat="47.545696" lon="7.931497">
        <ele>299.711924</ele>
        <time>2021-11-07T15:11:21.663Z</time>
      </trkpt>
      <trkpt lat="47.545721" lon="7.931992">
        <ele>299.367573</ele>
        <time>2021-11-07T15:11:25.456Z</time>
      </trkpt>
      <trkpt lat="47.545724" lon="7.932758">
        <ele>298.836174</ele>
        <time>2021-11-07T15:11:31.665Z</time>
      </trkpt>
      <trkpt lat="47.545702" lon="7.933290">
        <ele>298.466422</ele>
        <time>2021-11-07T15:11:36.308Z</time>
      </trkpt>
      <trkpt lat="47.545674" lon="7.933625">
        <ele>298.232251</ele>
        <time>2021-11-07T15:11:39.509Z</time>
      </trkpt>
      <trkpt lat="47.545457" lon="7.935110">
        <ele>299.094728</ele>
        <time>2021-11-07T15:11:57.644Z</time>
      </trkpt>
      <trkpt lat="47.545074" lon="7.936484">
        <ele>300.254374</ele>
        <time>2021-11-07T15:12:19.171Z</time>
      </trkpt>
      <trkpt lat="47.544903" lon="7.936917">
        <ele>300.853120</ele>
        <time>2021-11-07T15:12:26.487Z</time>
      </trkpt>
      <trkpt lat="47.544705" lon="7.937395">
        <ele>301.522481</ele>
        <time>2021-11-07T15:12:34.671Z</time>
      </trkpt>
      <trkpt lat="47.544472" lon="7.937932">
        <ele>302.284396</ele>
        <time>2021-11-07T15:12:44.079Z</time>
      </trkpt>
      <trkpt lat="47.543826" lon="7.939433">
        <ele>304.330099</ele>
        <time>2021-11-07T15:13:10.960Z</time>
      </trkpt>
      <trkpt lat="47.543435" lon="7.940670">
        <ele>305.851230</ele>
        <time>2021-11-07T15:13:30.921Z</time>
      </trkpt>
      <trkpt lat="47.543161" lon="7.942213">
        <ele>306.488316</ele>
        <time>2021-11-07T15:13:51.770Z</time>
      </trkpt>
      <trkpt lat="47.543007" lon="7.943867">
        <ele>306.423340</ele>
        <time>2021-11-07T15:14:07.314Z</time>
      </trkpt>
      <trkpt lat="47.542913" lon="7.945267">
        <ele>304.591799</ele>
        <time>2021-11-07T15:14:18.080Z</time>
      </trkpt>
      <trkpt lat="47.542872" lon="7.945781">
        <ele>303.918008</ele>
        <time>2021-11-07T15:14:21.674Z</time>
      </trkpt>
      <trkpt lat="47.542875" lon="7.946089">
        <ele>303.517005</ele>
        <time>2021-11-07T15:14:23.801Z</time>
      </trkpt>
      <trkpt lat="47.542902" lon="7.946514">
        <ele>302.903463</ele>
        <time>2021-11-07T15:14:26.669Z</time>
      </trkpt>
      <trkpt lat="47.542943" lon="7.946806">
        <ele>302.454688</ele>
        <time>2021-11-07T15:14:28.691Z</time>
      </trkpt>
      <trkpt lat="47.542974" lon="7.946965">
        <ele>302.205662</ele>
        <time>2021-11-07T15:14:29.930Z</time>
      </trkpt>
      <trkpt lat="47.542979" lon="7.946989">
        <ele>302.167869</ele>
        <time>2021-11-07T15:14:30.086Z</time>
      </trkpt>
      <trkpt lat="47.543007" lon="7.947104">
        <ele>301.983917</ele>
        <time>2021-11-07T15:14:30.953Z</time>
      </trkpt>
      <trkpt lat="47.543087" lon="7.947317">
        <ele>301.617148</ele>
        <time>2021-11-07T15:14:32.652Z</time>
      </trkpt>
      <trkpt lat="47.543191" lon="7.947615">
        <ele>301.112369</ele>
        <time>2021-11-07T15:14:35.160Z</time>
      </trkpt>
      <trkpt lat="47.543191" lon="7.947615">
        <ele>301.112369</ele>
        <time>2021-11-07T15:14:35.166Z</time>
      </trkpt>
      <trkpt lat="47.543242" lon="7.947745">
        <ele>300.886125</ele>
        <time>2021-11-07T15:14:36.295Z</time>
      </trkpt>
      <trkpt lat="47.543273" lon="7.947816">
        <ele>300.758893</ele>
        <time>2021-11-07T15:14:36.930Z</time>
      </trkpt>
      <trkpt lat="47.543358" lon="7.947967">
        <ele>300.463052</ele>
        <time>2021-11-07T15:14:38.415Z</time>
      </trkpt>
      <trkpt lat="47.543455" lon="7.948127">
        <ele>300.139462</ele>
        <time>2021-11-07T15:14:40.025Z</time>
      </trkpt>
      <trkpt lat="47.543532" lon="7.948214">
        <ele>299.923601</ele>
        <time>2021-11-07T15:14:41.120Z</time>
      </trkpt>
      <trkpt lat="47.543579" lon="7.948287">
        <ele>299.771808</ele>
        <time>2021-11-07T15:14:41.910Z</time>
      </trkpt>
      <trkpt lat="47.543760" lon="7.948548">
        <ele>299.327545</ele>
        <time>2021-11-07T15:14:44.759Z</time>
      </trkpt>
      <trkpt lat="47.543864" lon="7.948694">
        <ele>299.340091</ele>
        <time>2021-11-07T15:14:46.502Z</time>
      </trkpt>
      <trkpt lat="47.544239" lon="7.949202">
        <ele>299.384587</ele>
        <time>2021-11-07T15:14:53.699Z</time>
      </trkpt>
      <trkpt lat="47.544521" lon="7.949558">
        <ele>299.417029</ele>
        <time>2021-11-07T15:14:59.872Z</time>
      </trkpt>
      <trkpt lat="47.544901" lon="7.950044">
        <ele>299.460988</ele>
        <time>2021-11-07T15:15:09.030Z</time>
      </trkpt>
      <trkpt lat="47.545166" lon="7.950366">
        <ele>299.492701</ele>
        <time>2021-11-07T15:15:15.360Z</time>
      </trkpt>
      <trkpt lat="47.545434" lon="7.950668">
        <ele>299.526988</ele>
        <time>2021-11-07T15:15:21.145Z</time>
      </trkpt>
      <trkpt lat="47.545542" lon="7.950842">
        <ele>299.543235</ele>
        <time>2021-11-07T15:15:23.628Z</time>
      </trkpt>
      <trkpt lat="47.545667" lon="7.950979">
        <ele>299.559068</ele>
        <time>2021-11-07T15:15:26.165Z</time>
      </trkpt>
      <trkpt lat="47.545737" lon="7.951055">
        <ele>299.567905</ele>
        <time>2021-11-07T15:15:27.437Z</time>
      </trkpt>
      <trkpt lat="47.545876" lon="7.951233">
        <ele>299.586614</ele>
        <time>2021-11-07T15:15:30.181Z</time>
      </trkpt>
      <trkpt lat="47.546112" lon="7.951485">
        <ele>299.616237</ele>
        <time>2021-11-07T15:15:34.313Z</time>
      </trkpt>
      <trkpt lat="47.546164" lon="7.951520">
        <ele>299.622053</ele>
        <time>2021-11-07T15:15:35.152Z</time>
      </trkpt>
      <trkpt lat="47.546212" lon="7.951535">
        <ele>299.627048</ele>
        <time>2021-11-07T15:15:35.867Z</time>
      </trkpt>
      <trkpt lat="47.546231" lon="7.951558">
        <ele>299.629547</ele>
        <time>2021-11-07T15:15:36.184Z</time>
      </trkpt>
      <trkpt lat="47.546421" lon="7.951793">
        <ele>299.654750</ele>
        <time>2021-11-07T15:15:39.488Z</time>
      </trkpt>
      <trkpt lat="47.546634" lon="7.952024">
        <ele>299.590297</ele>
        <time>2021-11-07T15:15:42.917Z</time>
      </trkpt>
      <trkpt lat="47.546695" lon="7.952091">
        <ele>299.558634</ele>
        <time>2021-11-07T15:15:43.881Z</time>
      </trkpt>
      <trkpt lat="47.546776" lon="7.952185">
        <ele>299.515731</ele>
        <time>2021-11-07T15:15:45.231Z</time>
      </trkpt>
      <trkpt lat="47.546935" lon="7.952372">
        <ele>299.431082</ele>
        <time>2021-11-07T15:15:47.879Z</time>
      </trkpt>
      <trkpt lat="47.547090" lon="7.952543">
        <ele>299.350500</ele>
        <time>2021-11-07T15:15:50.490Z</time>
      </trkpt>
      <trkpt lat="47.547400" lon="7.952910">
        <ele>299.185039</ele>
        <time>2021-11-07T15:15:55.893Z</time>
      </trkpt>
      <trkpt lat="47.547458" lon="7.952975">
        <ele>299.154714</ele>
        <time>2021-11-07T15:15:56.880Z</time>
      </trkpt>
      <trkpt lat="47.547550" lon="7.953078">
        <ele>299.106632</ele>
        <time>2021-11-07T15:15:58.489Z</time>
      </trkpt>
      <trkpt lat="47.547624" lon="7.953160">
        <ele>299.068100</ele>
        <time>2021-11-07T15:15:59.744Z</time>
      </trkpt>
      <trkpt lat="47.547797" lon="7.953355">
        <ele>298.977460</ele>
        <time>2021-11-07T15:16:02.749Z</time>
      </trkpt>
      <trkpt lat="47.547871" lon="7.953437">
        <ele>298.938928</ele>
        <time>2021-11-07T15:16:04.043Z</time>
      </trkpt>
      <trkpt lat="47.547994" lon="7.953584">
        <ele>298.834575</ele>
        <time>2021-11-07T15:16:06.223Z</time>
      </trkpt>
      <trkpt lat="47.548115" lon="7.953729">
        <ele>298.708347</ele>
        <time>2021-11-07T15:16:08.373Z</time>
      </trkpt>
      <trkpt lat="47.548251" lon="7.953895">
        <ele>298.565423</ele>
        <time>2021-11-07T15:16:10.773Z</time>
      </trkpt>
      <trkpt lat="47.548335" lon="7.953779">
        <ele>298.472284</ele>
        <time>2021-11-07T15:16:12.680Z</time>
      </trkpt>
      <trkpt lat="47.549296" lon="7.953268">
        <ele>297.644139</ele>
        <time>2021-11-07T15:16:30.995Z</time>
      </trkpt>
      <trkpt lat="47.549442" lon="7.953195">
        <ele>297.519157</ele>
        <time>2021-11-07T15:16:33.546Z</time>
      </trkpt>
      <trkpt lat="47.549640" lon="7.953086">
        <ele>297.198023</ele>
        <time>2021-11-07T15:16:37.260Z</time>
      </trkpt>
      <trkpt lat="47.549673" lon="7.953076">
        <ele>297.132458</ele>
        <time>2021-11-07T15:16:37.818Z</time>
      </trkpt>
      <trkpt lat="47.549687" lon="7.953071">
        <ele>297.104426</ele>
        <time>2021-11-07T15:16:38.010Z</time>
      </trkpt>
      <trkpt lat="47.550567" lon="7.953069">
        <ele>295.391483</ele>
        <time>2021-11-07T15:16:52.186Z</time>
      </trkpt>
      <trkpt lat="47.550656" lon="7.953072">
        <ele>295.218198</ele>
        <time>2021-11-07T15:16:53.503Z</time>
      </trkpt>
      <trkpt lat="47.550967" lon="7.953063">
        <ele>294.612714</ele>
        <time>2021-11-07T15:16:58.267Z</time>
      </trkpt>
      <trkpt lat="47.551254" lon="7.952986">
        <ele>294.044976</ele>
        <time>2021-11-07T15:17:02.656Z</time>
      </trkpt>
      <trkpt lat="47.551295" lon="7.952900">
        <ele>293.911971</ele>
        <time>2021-11-07T15:17:03.719Z</time>
      </trkpt>
      <trkpt lat="47.551334" lon="7.952777">
        <ele>293.753614</ele>
        <time>2021-11-07T15:17:06.394Z</time>
      </trkpt>
      <trkpt lat="47.551339" lon="7.952761">
        <ele>293.733068</ele>
        <time>2021-11-07T15:17:06.765Z</time>
      </trkpt>
      <trkpt lat="47.551381" lon="7.952341">
        <ele>293.238308</ele>
        <time>2021-11-07T15:17:15.546Z</time>
      </trkpt>
      <trkpt lat="47.551506" lon="7.950255">
        <ele>290.849348</ele>
        <time>2021-11-07T15:18:01.162Z</time>
      </trkpt>
      <trkpt lat="47.551525" lon="7.950027">
        <ele>290.854618</ele>
        <time>2021-11-07T15:18:06.575Z</time>
      </trkpt>
      <trkpt lat="47.551581" lon="7.949830">
        <ele>290.859523</ele>
        <time>2021-11-07T15:18:11.709Z</time>
      </trkpt>
      <trkpt lat="47.551673" lon="7.949634">
        <ele>290.865000</ele>
        <time>2021-11-07T15:18:17.858Z</time>
      </trkpt>
      <trkpt lat="47.551794" lon="7.949387">
        <ele>290.872002</ele>
        <time>2021-11-07T15:18:25.359Z</time>
      </trkpt>
      <trkpt lat="47.551827" lon="7.949333">
        <ele>290.873674</ele>
        <time>2021-11-07T15:18:27.418Z</time>
      </trkpt>
      <trkpt lat="47.552010" lon="7.949039">
        <ele>290.882849</ele>
        <time>2021-11-07T15:18:37.544Z</time>
      </trkpt>
      <trkpt lat="47.552049" lon="7.948982">
        <ele>290.884712</ele>
        <time>2021-11-07T15:18:39.703Z</time>
      </trkpt>
      <trkpt lat="47.552094" lon="7.948926">
        <ele>290.886709</ele>
        <time>2021-11-07T15:18:42.105Z</time>
      </trkpt>
      <trkpt lat="47.552202" lon="7.949003">
        <ele>290.890783</ele>
        <time>2021-11-07T15:18:46.727Z</time>
      </trkpt>
      <trkpt lat="47.552351" lon="7.949099">
        <ele>290.896307</ele>
        <time>2021-11-07T15:18:52.982Z</time>
      </trkpt>
      <trkpt lat="47.552382" lon="7.949119">
        <ele>290.897456</ele>
        <time>2021-11-07T15:18:54.473Z</time>
      </trkpt>
      <trkpt lat="47.552518" lon="7.949236">
        <ele>290.902802</ele>
        <time>2021-11-07T15:19:00.760Z</time>
      </trkpt>
      <trkpt lat="47.552574" lon="7.949176">
        <ele>290.905151</ele>
        <time>2021-11-07T15:19:03.514Z</time>
      </trkpt>
      <trkpt lat="47.552953" lon="7.948775">
        <ele>290.758949</ele>
        <time>2021-11-07T15:19:21.930Z</time>
      </trkpt>
      <trkpt lat="47.553006" lon="7.948724">
        <ele>290.730788</ele>
        <time>2021-11-07T15:19:24.451Z</time>
      </trkpt>
      <trkpt lat="47.553141" lon="7.948597">
        <ele>290.659529</ele>
        <time>2021-11-07T15:19:30.483Z</time>
      </trkpt>
      <trkpt lat="47.553197" lon="7.948543">
        <ele>290.629756</ele>
        <time>2021-11-07T15:19:32.847Z</time>
      </trkpt>
      <trkpt lat="47.553368" lon="7.948399">
        <ele>290.542109</ele>
        <time>2021-11-07T15:19:46.486Z</time>
      </trkpt>
      <trkpt lat="47.553561" lon="7.948836">
        <ele>290.385045</ele>
        <time>2021-11-07T15:19:58.614Z</time>
      </trkpt>
      <trkpt lat="47.553815" lon="7.949414">
        <ele>290.177614</ele>
        <time>2021-11-07T15:20:14.291Z</time>
      </trkpt>
      <trkpt lat="47.554192" lon="7.950296">
        <ele>289.543058</ele>
        <time>2021-11-07T15:20:37.490Z</time>
      </trkpt>
      <trkpt lat="47.554240" lon="7.950300">
        <ele>289.493530</ele>
        <time>2021-11-07T15:20:39.097Z</time>
      </trkpt>
      <trkpt lat="47.554303" lon="7.950312">
        <ele>289.428093</ele>
        <time>2021-11-07T15:20:39.848Z</time>
      </trkpt>
      <trkpt lat="47.554392" lon="7.950331">
        <ele>289.335459</ele>
        <time>2021-11-07T15:20:40.902Z</time>
      </trkpt>
      <trkpt lat="47.554652" lon="7.950448">
        <ele>289.055525</ele>
        <time>2021-11-07T15:20:44.197Z</time>
      </trkpt>
      <trkpt lat="47.554759" lon="7.950515">
        <ele>288.935855</ele>
        <time>2021-11-07T15:20:45.572Z</time>
      </trkpt>
      <trkpt lat="47.554954" lon="7.950665">
        <ele>288.709507</ele>
        <time>2021-11-07T15:20:48.278Z</time>
      </trkpt>
      <trkpt lat="47.555474" lon="7.951144">
        <ele>288.273782</ele>
        <time>2021-11-07T15:20:55.993Z</time>
      </trkpt>
      <trkpt lat="47.555687" lon="7.951449">
        <ele>288.306235</ele>
        <time>2021-11-07T15:21:00.083Z</time>
      </trkpt>
      <trkpt lat="47.556339" lon="7.952382">
        <ele>288.405542</ele>
        <time>2021-11-07T15:21:14.146Z</time>
      </trkpt>
      <trkpt lat="47.556386" lon="7.952449">
        <ele>288.412688</ele>
        <time>2021-11-07T15:21:15.315Z</time>
      </trkpt>
      <trkpt lat="47.556400" lon="7.952468">
        <ele>288.414768</ele>
        <time>2021-11-07T15:21:15.627Z</time>
      </trkpt>
      <trkpt lat="47.557120" lon="7.953536">
        <ele>288.839943</ele>
        <time>2021-11-07T15:21:33.654Z</time>
      </trkpt>
      <trkpt lat="47.557517" lon="7.954117">
        <ele>289.159100</ele>
        <time>2021-11-07T15:21:43.501Z</time>
      </trkpt>
      <trkpt lat="47.557687" lon="7.954371">
        <ele>289.297187</ele>
        <time>2021-11-07T15:21:47.614Z</time>
      </trkpt>
      <trkpt lat="47.557874" lon="7.954579">
        <ele>289.430929</ele>
        <time>2021-11-07T15:21:51.342Z</time>
      </trkpt>
      <trkpt lat="47.557899" lon="7.954581">
        <ele>289.445250</ele>
        <time>2021-11-07T15:21:51.839Z</time>
      </trkpt>
      <trkpt lat="47.557935" lon="7.954571">
        <ele>289.466200</ele>
        <time>2021-11-07T15:21:52.489Z</time>
      </trkpt>
      <trkpt lat="47.558070" lon="7.954468">
        <ele>289.468616</ele>
        <time>2021-11-07T15:21:54.858Z</time>
      </trkpt>
      <trkpt lat="47.558107" lon="7.954410">
        <ele>289.463374</ele>
        <time>2021-11-07T15:21:55.788Z</time>
      </trkpt>
      <trkpt lat="47.558161" lon="7.954466">
        <ele>289.456959</ele>
        <time>2021-11-07T15:21:56.779Z</time>
      </trkpt>
      <trkpt lat="47.558201" lon="7.954539">
        <ele>289.450784</ele>
        <time>2021-11-07T15:21:57.861Z</time>
      </trkpt>
      <trkpt lat="47.558360" lon="7.955074">
        <ele>289.412390</ele>
        <time>2021-11-07T15:22:04.066Z</time>
      </trkpt>
      <trkpt lat="47.558659" lon="7.956055">
        <ele>289.341696</ele>
        <time>2021-11-07T15:22:14.367Z</time>
      </trkpt>
      <trkpt lat="47.558756" lon="7.956469">
        <ele>289.312914</ele>
        <time>2021-11-07T15:22:18.260Z</time>
      </trkpt>
      <trkpt lat="47.559224" lon="7.958738">
        <ele>288.509797</ele>
        <time>2021-11-07T15:22:38.704Z</time>
      </trkpt>
      <trkpt lat="47.559324" lon="7.959601">
        <ele>288.513219</ele>
        <time>2021-11-07T15:22:47.061Z</time>
      </trkpt>
      <trkpt lat="47.559346" lon="7.959868">
        <ele>288.594771</ele>
        <time>2021-11-07T15:22:50.156Z</time>
      </trkpt>
      <trkpt lat="47.559406" lon="7.960730">
        <ele>288.857505</ele>
        <time>2021-11-07T15:22:59.639Z</time>
      </trkpt>
      <trkpt lat="47.559408" lon="7.961845">
        <ele>289.200178</ele>
        <time>2021-11-07T15:23:13.403Z</time>
      </trkpt>
      <trkpt lat="47.559368" lon="7.962709">
        <ele>289.528839</ele>
        <time>2021-11-07T15:23:24.645Z</time>
      </trkpt>
      <trkpt lat="47.559232" lon="7.963800">
        <ele>289.949882</ele>
        <time>2021-11-07T15:23:37.238Z</time>
      </trkpt>
      <trkpt lat="47.559029" lon="7.964894">
        <ele>290.146543</ele>
        <time>2021-11-07T15:23:48.941Z</time>
      </trkpt>
      <trkpt lat="47.558949" lon="7.965326">
        <ele>290.109160</ele>
        <time>2021-11-07T15:23:53.176Z</time>
      </trkpt>
      <trkpt lat="47.558732" lon="7.966356">
        <ele>290.019116</ele>
        <time>2021-11-07T15:24:03.119Z</time>
      </trkpt>
      <trkpt lat="47.558606" lon="7.966985">
        <ele>289.979814</ele>
        <time>2021-11-07T15:24:09.627Z</time>
      </trkpt>
      <trkpt lat="47.558448" lon="7.967701">
        <ele>290.420931</ele>
        <time>2021-11-07T15:24:17.247Z</time>
      </trkpt>
      <trkpt lat="47.558430" lon="7.967788">
        <ele>290.474217</ele>
        <time>2021-11-07T15:24:18.342Z</time>
      </trkpt>
      <trkpt lat="47.558327" lon="7.968108">
        <ele>290.681824</ele>
        <time>2021-11-07T15:24:22.589Z</time>
      </trkpt>
      <trkpt lat="47.558313" lon="7.968259">
        <ele>290.771077</ele>
        <time>2021-11-07T15:24:24.260Z</time>
      </trkpt>
      <trkpt lat="47.558366" lon="7.968291">
        <ele>290.820737</ele>
        <time>2021-11-07T15:24:25.612Z</time>
      </trkpt>
      <trkpt lat="47.558573" lon="7.968359">
        <ele>291.004717</ele>
        <time>2021-11-07T15:24:29.439Z</time>
      </trkpt>
      <trkpt lat="47.558617" lon="7.968374">
        <ele>291.043894</ele>
        <time>2021-11-07T15:24:30.241Z</time>
      </trkpt>
      <trkpt lat="47.558761" lon="7.968396">
        <ele>291.169509</ele>
        <time>2021-11-07T15:24:33.488Z</time>
      </trkpt>
      <trkpt lat="47.559255" lon="7.968471">
        <ele>291.738801</ele>
        <time>2021-11-07T15:24:43.441Z</time>
      </trkpt>
      <trkpt lat="47.559532" lon="7.968492">
        <ele>292.433308</ele>
        <time>2021-11-07T15:24:49.974Z</time>
      </trkpt>
      <trkpt lat="47.559774" lon="7.968514">
        <ele>293.040408</ele>
        <time>2021-11-07T15:24:56.027Z</time>
      </trkpt>
      <trkpt lat="47.559955" lon="7.968562">
        <ele>293.500827</ele>
        <time>2021-11-07T15:25:00.252Z</time>
      </trkpt>
      <trkpt lat="47.560859" lon="7.968941">
        <ele>295.853263</ele>
        <time>2021-11-07T15:25:23.665Z</time>
      </trkpt>
      <trkpt lat="47.561059" lon="7.969025">
        <ele>296.767008</ele>
        <time>2021-11-07T15:25:29.731Z</time>
      </trkpt>
      <trkpt lat="47.561113" lon="7.969048">
        <ele>297.068981</ele>
        <time>2021-11-07T15:25:31.409Z</time>
      </trkpt>
      <trkpt lat="47.561101" lon="7.969103">
        <ele>297.278618</ele>
        <time>2021-11-07T15:25:32.534Z</time>
      </trkpt>
      <trkpt lat="47.561075" lon="7.969222">
        <ele>297.732258</ele>
        <time>2021-11-07T15:25:34.920Z</time>
      </trkpt>
      <trkpt lat="47.561012" lon="7.969521">
        <ele>298.868284</ele>
        <time>2021-11-07T15:25:42.823Z</time>
      </trkpt>
      <trkpt lat="47.561077" lon="7.969584">
        <ele>299.285711</ele>
        <time>2021-11-07T15:25:45.152Z</time>
      </trkpt>
      <trkpt lat="47.561207" lon="7.969794">
        <ele>300.319256</ele>
        <time>2021-11-07T15:25:52.443Z</time>
      </trkpt>
      <trkpt lat="47.561250" lon="7.969992">
        <ele>301.073620</ele>
        <time>2021-11-07T15:25:57.395Z</time>
      </trkpt>
      <trkpt lat="47.561300" lon="7.970209">
        <ele>301.905232</ele>
        <time>2021-11-07T15:26:01.719Z</time>
      </trkpt>
      <trkpt lat="47.561319" lon="7.970293">
        <ele>302.226535</ele>
        <time>2021-11-07T15:26:05.278Z</time>
      </trkpt>
      <trkpt lat="47.561534" lon="7.970899">
        <ele>304.709575</ele>
        <time>2021-11-07T15:26:22.806Z</time>
      </trkpt>
      <trkpt lat="47.561682" lon="7.971192">
        <ele>306.290752</ele>
        <time>2021-11-07T15:26:33.221Z</time>
      </trkpt>
      <trkpt lat="47.561716" lon="7.971255">
        <ele>306.802150</ele>
        <time>2021-11-07T15:26:36.302Z</time>
      </trkpt>
      <trkpt lat="47.561856" lon="7.971566">
        <ele>309.172122</ele>
        <time>2021-11-07T15:26:47.294Z</time>
      </trkpt>
      <trkpt lat="47.561959" lon="7.971806">
        <ele>310.975197</ele>
        <time>2021-11-07T15:26:57.995Z</time>
      </trkpt>
      <trkpt lat="47.561984" lon="7.972078">
        <ele>312.715413</ele>
        <time>2021-11-07T15:27:07.806Z</time>
      </trkpt>
      <trkpt lat="47.562063" lon="7.972426">
        <ele>315.042986</ele>
        <time>2021-11-07T15:27:22.458Z</time>
      </trkpt>
      <trkpt lat="47.562247" lon="7.972843">
        <ele>318.201468</ele>
        <time>2021-11-07T15:27:40.814Z</time>
      </trkpt>
      <trkpt lat="47.562270" lon="7.972880">
        <ele>318.520377</ele>
        <time>2021-11-07T15:27:43.496Z</time>
      </trkpt>
      <trkpt lat="47.562391" lon="7.972987">
        <ele>319.844103</ele>
        <time>2021-11-07T15:27:51.118Z</time>
      </trkpt>
      <trkpt lat="47.562482" lon="7.973084">
        <ele>320.897175</ele>
        <time>2021-11-07T15:27:57.706Z</time>
      </trkpt>
      <trkpt lat="47.562624" lon="7.973211">
        <ele>322.455301</ele>
        <time>2021-11-07T15:28:06.695Z</time>
      </trkpt>
      <trkpt lat="47.562835" lon="7.973351">
        <ele>324.613127</ele>
        <time>2021-11-07T15:28:18.906Z</time>
      </trkpt>
      <trkpt lat="47.563057" lon="7.973484">
        <ele>326.847160</ele>
        <time>2021-11-07T15:28:31.955Z</time>
      </trkpt>
      <trkpt lat="47.563140" lon="7.973536">
        <ele>327.687879</ele>
        <time>2021-11-07T15:28:36.504Z</time>
      </trkpt>
      <trkpt lat="47.563511" lon="7.973794">
        <ele>331.511333</ele>
        <time>2021-11-07T15:28:58.338Z</time>
      </trkpt>
      <trkpt lat="47.564852" lon="7.975095">
        <ele>346.678579</ele>
        <time>2021-11-07T15:30:19.021Z</time>
      </trkpt>
      <trkpt lat="47.565200" lon="7.975372">
        <ele>350.475066</ele>
        <time>2021-11-07T15:30:41.308Z</time>
      </trkpt>
      <trkpt lat="47.565867" lon="7.975381">
        <ele>356.956306</ele>
        <time>2021-11-07T15:31:17.206Z</time>
      </trkpt>
      <trkpt lat="47.565964" lon="7.975378">
        <ele>358.182765</ele>
        <time>2021-11-07T15:31:24.333Z</time>
      </trkpt>
      <trkpt lat="47.566200" lon="7.975405">
        <ele>361.174953</ele>
        <time>2021-11-07T15:31:36.102Z</time>
      </trkpt>
      <trkpt lat="47.566542" lon="7.975527">
        <ele>365.621697</ele>
        <time>2021-11-07T15:31:55.874Z</time>
      </trkpt>
      <trkpt lat="47.566673" lon="7.975768">
        <ele>368.261345</ele>
        <time>2021-11-07T15:32:09.829Z</time>
      </trkpt>
      <trkpt lat="47.566852" lon="7.976458">
        <ele>374.566620</ele>
        <time>2021-11-07T15:32:46.759Z</time>
      </trkpt>
      <trkpt lat="47.566939" lon="7.976573">
        <ele>376.040267</ele>
        <time>2021-11-07T15:32:55.063Z</time>
      </trkpt>
      <trkpt lat="47.567134" lon="7.976669">
        <ele>378.637729</ele>
        <time>2021-11-07T15:33:12.404Z</time>
      </trkpt>
      <trkpt lat="47.567340" lon="7.976629">
        <ele>381.327144</ele>
        <time>2021-11-07T15:33:24.498Z</time>
      </trkpt>
      <trkpt lat="47.567627" lon="7.976382">
        <ele>385.664391</ele>
        <time>2021-11-07T15:33:49.282Z</time>
      </trkpt>
      <trkpt lat="47.567801" lon="7.976285">
        <ele>388.093899</ele>
        <time>2021-11-07T15:34:04.035Z</time>
      </trkpt>
      <trkpt lat="47.567987" lon="7.976370">
        <ele>390.637621</ele>
        <time>2021-11-07T15:34:15.473Z</time>
      </trkpt>
      <trkpt lat="47.568107" lon="7.976469">
        <ele>392.432465</ele>
        <time>2021-11-07T15:34:26.398Z</time>
      </trkpt>
      <trkpt lat="47.568316" lon="7.976569">
        <ele>395.302644</ele>
        <time>2021-11-07T15:34:38.522Z</time>
      </trkpt>
      <trkpt lat="47.568519" lon="7.976515">
        <ele>397.997998</ele>
        <time>2021-11-07T15:34:53.553Z</time>
      </trkpt>
      <trkpt lat="47.568748" lon="7.976336">
        <ele>401.381451</ele>
        <time>2021-11-07T15:35:08.933Z</time>
      </trkpt>
      <trkpt lat="47.568939" lon="7.976270">
        <ele>403.512077</ele>
        <time>2021-11-07T15:35:21.787Z</time>
      </trkpt>
      <trkpt lat="47.569048" lon="7.976403">
        <ele>404.589354</ele>
        <time>2021-11-07T15:35:29.719Z</time>
      </trkpt>
      <trkpt lat="47.568987" lon="7.976683">
        <ele>406.104108</ele>
        <time>2021-11-07T15:35:42.877Z</time>
      </trkpt>
      <trkpt lat="47.568704" lon="7.977054">
        <ele>408.986942</ele>
        <time>2021-11-07T15:36:01.482Z</time>
      </trkpt>
      <trkpt lat="47.568631" lon="7.977178">
        <ele>409.834156</ele>
        <time>2021-11-07T15:36:04.192Z</time>
      </trkpt>
      <trkpt lat="47.568567" lon="7.977498">
        <ele>411.552420</ele>
        <time>2021-11-07T15:36:14.300Z</time>
      </trkpt>
      <trkpt lat="47.568118" lon="7.978684">
        <ele>418.039233</ele>
        <time>2021-11-07T15:36:45.496Z</time>
      </trkpt>
      <trkpt lat="47.568061" lon="7.979013">
        <ele>419.320452</ele>
        <time>2021-11-07T15:36:53.701Z</time>
      </trkpt>
      <trkpt lat="47.567985" lon="7.980685">
        <ele>425.641400</ele>
        <time>2021-11-07T15:37:36.923Z</time>
      </trkpt>
      <trkpt lat="47.567933" lon="7.980942">
        <ele>426.653434</ele>
        <time>2021-11-07T15:37:43.802Z</time>
      </trkpt>
      <trkpt lat="47.567665" lon="7.981438">
        <ele>429.269607</ele>
        <time>2021-11-07T15:38:00.018Z</time>
      </trkpt>
      <trkpt lat="47.567624" lon="7.981800">
        <ele>430.782515</ele>
        <time>2021-11-07T15:38:09.398Z</time>
      </trkpt>
      <trkpt lat="47.567696" lon="7.982527">
        <ele>433.811051</ele>
        <time>2021-11-07T15:38:28.488Z</time>
      </trkpt>
      <trkpt lat="47.567683" lon="7.983121">
        <ele>436.260589</ele>
        <time>2021-11-07T15:38:44.487Z</time>
      </trkpt>
      <trkpt lat="47.567590" lon="7.984165">
        <ele>442.089429</ele>
        <time>2021-11-07T15:39:13.641Z</time>
      </trkpt>
      <trkpt lat="47.567629" lon="7.984321">
        <ele>443.123578</ele>
        <time>2021-11-07T15:39:18.426Z</time>
      </trkpt>
      <trkpt lat="47.568880" lon="7.985270">
        <ele>456.824824</ele>
        <time>2021-11-07T15:40:37.400Z</time>
      </trkpt>
      <trkpt lat="47.569224" lon="7.985557">
        <ele>461.961305</ele>
        <time>2021-11-07T15:41:04.144Z</time>
      </trkpt>
      <trkpt lat="47.569441" lon="7.985823">
        <ele>465.625421</ele>
        <time>2021-11-07T15:41:22.259Z</time>
      </trkpt>
      <trkpt lat="47.569544" lon="7.985948">
        <ele>467.357589</ele>
        <time>2021-11-07T15:41:33.754Z</time>
      </trkpt>
      <trkpt lat="47.569720" lon="7.986239">
        <ele>470.788456</ele>
        <time>2021-11-07T15:41:51.707Z</time>
      </trkpt>
      <trkpt lat="47.569899" lon="7.986324">
        <ele>473.234184</ele>
        <time>2021-11-07T15:42:04.256Z</time>
      </trkpt>
      <trkpt lat="47.570188" lon="7.985852">
        <ele>478.617777</ele>
        <time>2021-11-07T15:42:33.486Z</time>
      </trkpt>
      <trkpt lat="47.570598" lon="7.985658">
        <ele>483.214809</ele>
        <time>2021-11-07T15:43:04.323Z</time>
      </trkpt>
      <trkpt lat="47.570627" lon="7.985668">
        <ele>483.532836</ele>
        <time>2021-11-07T15:43:07.547Z</time>
      </trkpt>
      <trkpt lat="47.571104" lon="7.985841">
        <ele>488.778079</ele>
        <time>2021-11-07T15:43:38.580Z</time>
      </trkpt>
      <trkpt lat="47.571694" lon="7.985779">
        <ele>495.095801</ele>
        <time>2021-11-07T15:44:06.901Z</time>
      </trkpt>
      <trkpt lat="47.571967" lon="7.986077">
        <ele>497.344706</ele>
        <time>2021-11-07T15:44:20.414Z</time>
      </trkpt>
      <trkpt lat="47.572042" lon="7.986160">
        <ele>497.606457</ele>
        <time>2021-11-07T15:44:24.803Z</time>
      </trkpt>
      <trkpt lat="47.571904" lon="7.986414">
        <ele>498.221757</ele>
        <time>2021-11-07T15:44:31.135Z</time>
      </trkpt>
      <trkpt lat="47.571810" lon="7.986483">
        <ele>498.515101</ele>
        <time>2021-11-07T15:44:34.318Z</time>
      </trkpt>
      <trkpt lat="47.571515" lon="7.986697">
        <ele>499.433583</ele>
        <time>2021-11-07T15:44:43.058Z</time>
      </trkpt>
      <trkpt lat="47.571268" lon="7.987105">
        <ele>500.467848</ele>
        <time>2021-11-07T15:44:51.680Z</time>
      </trkpt>
      <trkpt lat="47.571168" lon="7.987874">
        <ele>501.873742</ele>
        <time>2021-11-07T15:45:00.353Z</time>
      </trkpt>
      <trkpt lat="47.571180" lon="7.987989">
        <ele>501.819834</ele>
        <time>2021-11-07T15:45:01.179Z</time>
      </trkpt>
      <trkpt lat="47.571208" lon="7.988246">
        <ele>501.699235</ele>
        <time>2021-11-07T15:45:03.174Z</time>
      </trkpt>
      <trkpt lat="47.571580" lon="7.989167">
        <ele>501.201961</ele>
        <time>2021-11-07T15:45:11.754Z</time>
      </trkpt>
      <trkpt lat="47.571711" lon="7.989669">
        <ele>500.952618</ele>
        <time>2021-11-07T15:45:16.213Z</time>
      </trkpt>
      <trkpt lat="47.571710" lon="7.989958">
        <ele>500.818737</ele>
        <time>2021-11-07T15:45:18.632Z</time>
      </trkpt>
      <trkpt lat="47.571712" lon="7.990384">
        <ele>500.667361</ele>
        <time>2021-11-07T15:45:22.527Z</time>
      </trkpt>
      <trkpt lat="47.571883" lon="7.992565">
        <ele>501.135895</ele>
        <time>2021-11-07T15:45:47.471Z</time>
      </trkpt>
      <trkpt lat="47.571990" lon="7.993258">
        <ele>501.180527</ele>
        <time>2021-11-07T15:45:55.535Z</time>
      </trkpt>
      <trkpt lat="47.572062" lon="7.993506">
        <ele>501.144455</ele>
        <time>2021-11-07T15:45:58.581Z</time>
      </trkpt>
      <trkpt lat="47.572207" lon="7.993915">
        <ele>501.082724</ele>
        <time>2021-11-07T15:46:03.261Z</time>
      </trkpt>
      <trkpt lat="47.572249" lon="7.994022">
        <ele>501.066185</ele>
        <time>2021-11-07T15:46:04.513Z</time>
      </trkpt>
      <trkpt lat="47.572368" lon="7.994372">
        <ele>501.013820</ele>
        <time>2021-11-07T15:46:08.228Z</time>
      </trkpt>
      <trkpt lat="47.572460" lon="7.995058">
        <ele>500.920373</ele>
        <time>2021-11-07T15:46:14.598Z</time>
      </trkpt>
      <trkpt lat="47.572468" lon="7.995163">
        <ele>500.906256</ele>
        <time>2021-11-07T15:46:15.508Z</time>
      </trkpt>
      <trkpt lat="47.572559" lon="7.996184">
        <ele>500.064801</ele>
        <time>2021-11-07T15:46:24.089Z</time>
      </trkpt>
      <trkpt lat="47.572807" lon="7.998270">
        <ele>497.659236</ele>
        <time>2021-11-07T15:46:40.014Z</time>
      </trkpt>
      <trkpt lat="47.572796" lon="7.998352">
        <ele>497.535369</ele>
        <time>2021-11-07T15:46:40.570Z</time>
      </trkpt>
      <trkpt lat="47.572763" lon="7.998535">
        <ele>497.254724</ele>
        <time>2021-11-07T15:46:41.829Z</time>
      </trkpt>
      <trkpt lat="47.572708" lon="7.998779">
        <ele>496.873577</ele>
        <time>2021-11-07T15:46:43.813Z</time>
      </trkpt>
      <trkpt lat="47.572664" lon="7.998959">
        <ele>496.589929</ele>
        <time>2021-11-07T15:46:45.087Z</time>
      </trkpt>
      <trkpt lat="47.572701" lon="7.999118">
        <ele>496.340740</ele>
        <time>2021-11-07T15:46:46.236Z</time>
      </trkpt>
      <trkpt lat="47.572737" lon="7.999234">
        <ele>496.151567</ele>
        <time>2021-11-07T15:46:47.336Z</time>
      </trkpt>
      <trkpt lat="47.572684" lon="7.999259">
        <ele>496.029425</ele>
        <time>2021-11-07T15:46:47.928Z</time>
      </trkpt>
      <trkpt lat="47.572623" lon="7.999326">
        <ele>495.862696</ele>
        <time>2021-11-07T15:46:48.695Z</time>
      </trkpt>
      <trkpt lat="47.572588" lon="7.999397">
        <ele>495.732416</ele>
        <time>2021-11-07T15:46:49.261Z</time>
      </trkpt>
      <trkpt lat="47.572560" lon="7.999471">
        <ele>495.606714</ele>
        <time>2021-11-07T15:46:49.861Z</time>
      </trkpt>
      <trkpt lat="47.572543" lon="7.999708">
        <ele>495.253601</ele>
        <time>2021-11-07T15:46:51.778Z</time>
      </trkpt>
      <trkpt lat="47.572611" lon="8.000059">
        <ele>494.712553</ele>
        <time>2021-11-07T15:46:54.352Z</time>
      </trkpt>
      <trkpt lat="47.572662" lon="8.000300">
        <ele>494.338341</ele>
        <time>2021-11-07T15:46:56.372Z</time>
      </trkpt>
      <trkpt lat="47.572747" lon="8.000534">
        <ele>493.970702</ele>
        <time>2021-11-07T15:46:58.257Z</time>
      </trkpt>
      <trkpt lat="47.572824" lon="8.000753">
        <ele>493.951438</ele>
        <time>2021-11-07T15:47:00.577Z</time>
      </trkpt>
      <trkpt lat="47.572887" lon="8.000996">
        <ele>493.931133</ele>
        <time>2021-11-07T15:47:02.471Z</time>
      </trkpt>
      <trkpt lat="47.572935" lon="8.001208">
        <ele>493.913690</ele>
        <time>2021-11-07T15:47:04.546Z</time>
      </trkpt>
      <trkpt lat="47.572943" lon="8.001367">
        <ele>493.901253</ele>
        <time>2021-11-07T15:47:05.758Z</time>
      </trkpt>
      <trkpt lat="47.572940" lon="8.001742">
        <ele>493.872000</ele>
        <time>2021-11-07T15:47:09.354Z</time>
      </trkpt>
      <trkpt lat="47.572938" lon="8.001919">
        <ele>493.858192</ele>
        <time>2021-11-07T15:47:10.748Z</time>
      </trkpt>
      <trkpt lat="47.573026" lon="8.001932">
        <ele>493.847967</ele>
        <time>2021-11-07T15:47:11.752Z</time>
      </trkpt>
      <trkpt lat="47.573126" lon="8.002031">
        <ele>493.834063</ele>
        <time>2021-11-07T15:47:14.100Z</time>
      </trkpt>
      <trkpt lat="47.573400" lon="8.002344">
        <ele>493.794068</ele>
        <time>2021-11-07T15:47:19.984Z</time>
      </trkpt>
      <trkpt lat="47.573502" lon="8.002634">
        <ele>493.768558</ele>
        <time>2021-11-07T15:47:24.481Z</time>
      </trkpt>
      <trkpt lat="47.573643" lon="8.002920">
        <ele>494.136915</ele>
        <time>2021-11-07T15:47:30.633Z</time>
      </trkpt>
      <trkpt lat="47.573679" lon="8.003065">
        <ele>494.329962</ele>
        <time>2021-11-07T15:47:32.834Z</time>
      </trkpt>
      <trkpt lat="47.573718" lon="8.003157">
        <ele>494.465719</ele>
        <time>2021-11-07T15:47:34.849Z</time>
      </trkpt>
      <trkpt lat="47.573800" lon="8.003256">
        <ele>494.661583</ele>
        <time>2021-11-07T15:47:38.087Z</time>
      </trkpt>
      <trkpt lat="47.574217" lon="8.003704">
        <ele>495.615382</ele>
        <time>2021-11-07T15:47:49.676Z</time>
      </trkpt>
      <trkpt lat="47.574305" lon="8.003732">
        <ele>495.782070</ele>
        <time>2021-11-07T15:47:51.947Z</time>
      </trkpt>
      <trkpt lat="47.574392" lon="8.003728">
        <ele>495.943271</ele>
        <time>2021-11-07T15:47:54.619Z</time>
      </trkpt>
      <trkpt lat="47.574686" lon="8.003684">
        <ele>496.490526</ele>
        <time>2021-11-07T15:48:00.735Z</time>
      </trkpt>
      <trkpt lat="47.574764" lon="8.003762">
        <ele>496.664781</ele>
        <time>2021-11-07T15:48:03.225Z</time>
      </trkpt>
      <trkpt lat="47.575168" lon="8.004892">
        <ele>496.190584</ele>
        <time>2021-11-07T15:48:19.016Z</time>
      </trkpt>
      <trkpt lat="47.575411" lon="8.005256">
        <ele>495.694726</ele>
        <time>2021-11-07T15:48:23.694Z</time>
      </trkpt>
      <trkpt lat="47.575508" lon="8.005404">
        <ele>495.494925</ele>
        <time>2021-11-07T15:48:25.248Z</time>
      </trkpt>
      <trkpt lat="47.575531" lon="8.005431">
        <ele>495.452815</ele>
        <time>2021-11-07T15:48:25.541Z</time>
      </trkpt>
      <trkpt lat="47.575756" lon="8.005585">
        <ele>495.097105</ele>
        <time>2021-11-07T15:48:28.087Z</time>
      </trkpt>
      <trkpt lat="47.575892" lon="8.005591">
        <ele>494.901817</ele>
        <time>2021-11-07T15:48:29.440Z</time>
      </trkpt>
      <trkpt lat="47.576902" lon="8.005070">
        <ele>490.398770</ele>
        <time>2021-11-07T15:48:39.511Z</time>
      </trkpt>
      <trkpt lat="47.577375" lon="8.004938">
        <ele>487.919927</ele>
        <time>2021-11-07T15:48:43.919Z</time>
      </trkpt>
      <trkpt lat="47.577792" lon="8.005044">
        <ele>485.740942</ele>
        <time>2021-11-07T15:48:47.819Z</time>
      </trkpt>
      <trkpt lat="47.578086" lon="8.005441">
        <ele>484.694726</ele>
        <time>2021-11-07T15:48:51.611Z</time>
      </trkpt>
      <trkpt lat="47.578325" lon="8.005530">
        <ele>484.242041</ele>
        <time>2021-11-07T15:48:54.054Z</time>
      </trkpt>
      <trkpt lat="47.578736" lon="8.005500">
        <ele>483.486118</ele>
        <time>2021-11-07T15:48:58.432Z</time>
      </trkpt>
      <trkpt lat="47.579228" lon="8.005324">
        <ele>482.556371</ele>
        <time>2021-11-07T15:49:05.038Z</time>
      </trkpt>
      <trkpt lat="47.579909" lon="8.004868">
        <ele>481.991154</ele>
        <time>2021-11-07T15:49:19.936Z</time>
      </trkpt>
      <trkpt lat="47.580305" lon="8.004384">
        <ele>482.046791</ele>
        <time>2021-11-07T15:49:31.460Z</time>
      </trkpt>
      <trkpt lat="47.580693" lon="8.003731">
        <ele>482.110424</ele>
        <time>2021-11-07T15:49:41.048Z</time>
      </trkpt>
      <trkpt lat="47.581433" lon="8.002768">
        <ele>477.762155</ele>
        <time>2021-11-07T15:49:51.029Z</time>
      </trkpt>
      <trkpt lat="47.581538" lon="8.002492">
        <ele>476.427582</ele>
        <time>2021-11-07T15:49:52.956Z</time>
      </trkpt>
      <trkpt lat="47.581587" lon="8.002199">
        <ele>475.156185</ele>
        <time>2021-11-07T15:49:54.808Z</time>
      </trkpt>
      <trkpt lat="47.581843" lon="8.001622">
        <ele>472.247464</ele>
        <time>2021-11-07T15:49:58.824Z</time>
      </trkpt>
      <trkpt lat="47.582003" lon="8.001392">
        <ele>470.861284</ele>
        <time>2021-11-07T15:50:00.739Z</time>
      </trkpt>
      <trkpt lat="47.582718" lon="8.001131">
        <ele>466.714115</ele>
        <time>2021-11-07T15:50:07.139Z</time>
      </trkpt>
      <trkpt lat="47.582884" lon="8.001201">
        <ele>465.742116</ele>
        <time>2021-11-07T15:50:08.850Z</time>
      </trkpt>
      <trkpt lat="47.583038" lon="8.001422">
        <ele>464.535001</ele>
        <time>2021-11-07T15:50:10.733Z</time>
      </trkpt>
      <trkpt lat="47.583129" lon="8.001600">
        <ele>463.686517</ele>
        <time>2021-11-07T15:50:14.151Z</time>
      </trkpt>
      <trkpt lat="47.583138" lon="8.001749">
        <ele>463.118214</ele>
        <time>2021-11-07T15:50:15.055Z</time>
      </trkpt>
      <trkpt lat="47.582770" lon="8.002301">
        <ele>461.162385</ele>
        <time>2021-11-07T15:50:20.728Z</time>
      </trkpt>
      <trkpt lat="47.582722" lon="8.002476">
        <ele>461.610846</ele>
        <time>2021-11-07T15:50:24.033Z</time>
      </trkpt>
      <trkpt lat="47.582735" lon="8.002783">
        <ele>462.341060</ele>
        <time>2021-11-07T15:50:26.211Z</time>
      </trkpt>
      <trkpt lat="47.582779" lon="8.003036">
        <ele>462.961291</ele>
        <time>2021-11-07T15:50:31.658Z</time>
      </trkpt>
      <trkpt lat="47.582789" lon="8.003167">
        <ele>463.274254</ele>
        <time>2021-11-07T15:50:32.586Z</time>
      </trkpt>
      <trkpt lat="47.582781" lon="8.003305">
        <ele>463.603056</ele>
        <time>2021-11-07T15:50:34.610Z</time>
      </trkpt>
      <trkpt lat="47.582727" lon="8.003464">
        <ele>464.025645</ele>
        <time>2021-11-07T15:50:40.909Z</time>
      </trkpt>
      <trkpt lat="47.582604" lon="8.004164">
        <ele>465.742816</ele>
        <time>2021-11-07T15:50:58.617Z</time>
      </trkpt>
      <trkpt lat="47.582510" lon="8.004377">
        <ele>466.347058</ele>
        <time>2021-11-07T15:51:05.907Z</time>
      </trkpt>
      <trkpt lat="47.582188" lon="8.004718">
        <ele>468.546677</ele>
        <time>2021-11-07T15:51:23.474Z</time>
      </trkpt>
      <trkpt lat="47.581764" lon="8.005054">
        <ele>472.409332</ele>
        <time>2021-11-07T15:51:45.277Z</time>
      </trkpt>
      <trkpt lat="47.581321" lon="8.006142">
        <ele>479.296600</ele>
        <time>2021-11-07T15:52:25.225Z</time>
      </trkpt>
      <trkpt lat="47.581140" lon="8.006991">
        <ele>484.110903</ele>
        <time>2021-11-07T15:52:57.259Z</time>
      </trkpt>
      <trkpt lat="47.580912" lon="8.007336">
        <ele>486.717020</ele>
        <time>2021-11-07T15:53:14.485Z</time>
      </trkpt>
      <trkpt lat="47.579923" lon="8.008040">
        <ele>495.493053</ele>
        <time>2021-11-07T15:54:05.543Z</time>
      </trkpt>
      <trkpt lat="47.579619" lon="8.008172">
        <ele>496.885868</ele>
        <time>2021-11-07T15:54:17.676Z</time>
      </trkpt>
      <trkpt lat="47.578864" lon="8.008842">
        <ele>500.058859</ele>
        <time>2021-11-07T15:54:44.611Z</time>
      </trkpt>
      <trkpt lat="47.578332" lon="8.009223">
        <ele>502.189344</ele>
        <time>2021-11-07T15:54:57.781Z</time>
      </trkpt>
      <trkpt lat="47.578269" lon="8.009376">
        <ele>502.471943</ele>
        <time>2021-11-07T15:55:00.216Z</time>
      </trkpt>
      <trkpt lat="47.578275" lon="8.009410">
        <ele>502.488524</ele>
        <time>2021-11-07T15:55:00.426Z</time>
      </trkpt>
      <trkpt lat="47.578339" lon="8.009582">
        <ele>502.581198</ele>
        <time>2021-11-07T15:55:03.413Z</time>
      </trkpt>
      <trkpt lat="47.578506" lon="8.009815">
        <ele>502.741589</ele>
        <time>2021-11-07T15:55:07.001Z</time>
      </trkpt>
      <trkpt lat="47.578802" lon="8.010247">
        <ele>503.032098</ele>
        <time>2021-11-07T15:55:14.355Z</time>
      </trkpt>
      <trkpt lat="47.578877" lon="8.010552">
        <ele>503.185255</ele>
        <time>2021-11-07T15:55:18.413Z</time>
      </trkpt>
      <trkpt lat="47.578994" lon="8.011565">
        <ele>503.670127</ele>
        <time>2021-11-07T15:55:29.647Z</time>
      </trkpt>
      <trkpt lat="47.579083" lon="8.012800">
        <ele>504.111416</ele>
        <time>2021-11-07T15:55:43.274Z</time>
      </trkpt>
      <trkpt lat="47.579303" lon="8.013994">
        <ele>504.545333</ele>
        <time>2021-11-07T15:55:58.018Z</time>
      </trkpt>
      <trkpt lat="47.579390" lon="8.014221">
        <ele>504.626505</ele>
        <time>2021-11-07T15:56:00.571Z</time>
      </trkpt>
      <trkpt lat="47.579476" lon="8.014445">
        <ele>504.614571</ele>
        <time>2021-11-07T15:56:04.118Z</time>
      </trkpt>
      <trkpt lat="47.579677" lon="8.015285">
        <ele>504.573305</ele>
        <time>2021-11-07T15:56:13.748Z</time>
      </trkpt>
      <trkpt lat="47.579693" lon="8.015395">
        <ele>504.568095</ele>
        <time>2021-11-07T15:56:15.412Z</time>
      </trkpt>
      <trkpt lat="47.579782" lon="8.016013">
        <ele>504.538836</ele>
        <time>2021-11-07T15:56:21.013Z</time>
      </trkpt>
      <trkpt lat="47.579807" lon="8.016479">
        <ele>504.517192</ele>
        <time>2021-11-07T15:56:24.816Z</time>
      </trkpt>
      <trkpt lat="47.579770" lon="8.017313">
        <ele>504.648935</ele>
        <time>2021-11-07T15:56:31.802Z</time>
      </trkpt>
      <trkpt lat="47.579800" lon="8.017631">
        <ele>504.732416</ele>
        <time>2021-11-07T15:56:36.503Z</time>
      </trkpt>
      <trkpt lat="47.579827" lon="8.017916">
        <ele>504.807240</ele>
        <time>2021-11-07T15:56:39.139Z</time>
      </trkpt>
      <trkpt lat="47.579890" lon="8.018812">
        <ele>505.041452</ele>
        <time>2021-11-07T15:56:50.848Z</time>
      </trkpt>
      <trkpt lat="47.579943" lon="8.018927">
        <ele>505.077663</ele>
        <time>2021-11-07T15:56:51.995Z</time>
      </trkpt>
      <trkpt lat="47.580093" lon="8.019071">
        <ele>505.146539</ele>
        <time>2021-11-07T15:56:55.981Z</time>
      </trkpt>
      <trkpt lat="47.580282" lon="8.019086">
        <ele>505.292395</ele>
        <time>2021-11-07T15:56:58.371Z</time>
      </trkpt>
      <trkpt lat="47.580628" lon="8.018939">
        <ele>505.890910</ele>
        <time>2021-11-07T15:57:04.664Z</time>
      </trkpt>
      <trkpt lat="47.580782" lon="8.018916">
        <ele>506.148289</ele>
        <time>2021-11-07T15:57:09.300Z</time>
      </trkpt>
      <trkpt lat="47.580830" lon="8.018918">
        <ele>506.228138</ele>
        <time>2021-11-07T15:57:10.802Z</time>
      </trkpt>
      <trkpt lat="47.580916" lon="8.019035">
        <ele>506.422237</ele>
        <time>2021-11-07T15:57:13.191Z</time>
      </trkpt>
      <trkpt lat="47.580948" lon="8.019213">
        <ele>506.628866</ele>
        <time>2021-11-07T15:57:17.135Z</time>
      </trkpt>
      <trkpt lat="47.580955" lon="8.019317">
        <ele>506.746101</ele>
        <time>2021-11-07T15:57:19.263Z</time>
      </trkpt>
      <trkpt lat="47.581039" lon="8.019934">
        <ele>507.452136</ele>
        <time>2021-11-07T15:57:39.464Z</time>
      </trkpt>
      <trkpt lat="47.581122" lon="8.020572">
        <ele>508.180958</ele>
        <time>2021-11-07T15:57:58.991Z</time>
      </trkpt>
      <trkpt lat="47.581460" lon="8.022287">
        <ele>510.491513</ele>
        <time>2021-11-07T15:58:50.859Z</time>
      </trkpt>
      <trkpt lat="47.581487" lon="8.022614">
        <ele>510.917753</ele>
        <time>2021-11-07T15:59:00.935Z</time>
      </trkpt>
      <trkpt lat="47.581513" lon="8.022860">
        <ele>511.239919</ele>
        <time>2021-11-07T15:59:06.014Z</time>
      </trkpt>
      <trkpt lat="47.581748" lon="8.024404">
        <ele>514.580804</ele>
        <time>2021-11-07T15:59:39.183Z</time>
      </trkpt>
      <trkpt lat="47.581899" lon="8.025089">
        <ele>516.244096</ele>
        <time>2021-11-07T15:59:56.471Z</time>
      </trkpt>
      <trkpt lat="47.582058" lon="8.025575">
        <ele>517.490776</ele>
        <time>2021-11-07T16:00:09.898Z</time>
      </trkpt>
      <trkpt lat="47.582102" lon="8.025700">
        <ele>517.827094</ele>
        <time>2021-11-07T16:00:14.297Z</time>
      </trkpt>
      <trkpt lat="47.582199" lon="8.025829">
        <ele>518.479925</ele>
        <time>2021-11-07T16:00:18.403Z</time>
      </trkpt>
      <trkpt lat="47.582289" lon="8.025933">
        <ele>519.051601</ele>
        <time>2021-11-07T16:00:22.052Z</time>
      </trkpt>
      <trkpt lat="47.582388" lon="8.025991">
        <ele>519.584899</ele>
        <time>2021-11-07T16:00:27.241Z</time>
      </trkpt>
      <trkpt lat="47.582723" lon="8.026030">
        <ele>521.268365</ele>
        <time>2021-11-07T16:00:40.124Z</time>
      </trkpt>
      <trkpt lat="47.582993" lon="8.025956">
        <ele>522.643944</ele>
        <time>2021-11-07T16:00:49.767Z</time>
      </trkpt>
      <trkpt lat="47.583073" lon="8.025933">
        <ele>523.052199</ele>
        <time>2021-11-07T16:00:53.749Z</time>
      </trkpt>
      <trkpt lat="47.583464" lon="8.025921">
        <ele>525.011469</ele>
        <time>2021-11-07T16:01:10.473Z</time>
      </trkpt>
      <trkpt lat="47.583871" lon="8.026235">
        <ele>527.331325</ele>
        <time>2021-11-07T16:01:30.583Z</time>
      </trkpt>
      <trkpt lat="47.583918" lon="8.026237">
        <ele>527.576787</ele>
        <time>2021-11-07T16:01:33.495Z</time>
      </trkpt>
      <trkpt lat="47.583982" lon="8.026498">
        <ele>528.554675</ele>
        <time>2021-11-07T16:01:40.753Z</time>
      </trkpt>
      <trkpt lat="47.584046" lon="8.026676">
        <ele>529.264942</ele>
        <time>2021-11-07T16:01:46.647Z</time>
      </trkpt>
      <trkpt lat="47.584080" lon="8.026751">
        <ele>529.583138</ele>
        <time>2021-11-07T16:01:49.847Z</time>
      </trkpt>
      <trkpt lat="47.584134" lon="8.026675">
        <ele>529.971836</ele>
        <time>2021-11-07T16:01:52.664Z</time>
      </trkpt>
      <trkpt lat="47.584228" lon="8.026533">
        <ele>530.672421</ele>
        <time>2021-11-07T16:01:57.843Z</time>
      </trkpt>
      <trkpt lat="47.584244" lon="8.026509">
        <ele>530.791243</ele>
        <time>2021-11-07T16:01:58.819Z</time>
      </trkpt>
      <trkpt lat="47.584323" lon="8.026391">
        <ele>531.376672</ele>
        <time>2021-11-07T16:02:04.412Z</time>
      </trkpt>
      <trkpt lat="47.585609" lon="8.024292">
        <ele>540.772602</ele>
        <time>2021-11-07T16:03:18.739Z</time>
      </trkpt>
      <trkpt lat="47.586233" lon="8.023109">
        <ele>545.377867</ele>
        <time>2021-11-07T16:03:57.981Z</time>
      </trkpt>
      <trkpt lat="47.586478" lon="8.022754">
        <ele>546.828022</ele>
        <time>2021-11-07T16:04:11.059Z</time>
      </trkpt>
      <trkpt lat="47.586795" lon="8.022396">
        <ele>548.514871</ele>
        <time>2021-11-07T16:04:25.846Z</time>
      </trkpt>
      <trkpt lat="47.587072" lon="8.021950">
        <ele>550.245892</ele>
        <time>2021-11-07T16:04:40.904Z</time>
      </trkpt>
      <trkpt lat="47.587257" lon="8.021642">
        <ele>551.423425</ele>
        <time>2021-11-07T16:04:51.069Z</time>
      </trkpt>
      <trkpt lat="47.587557" lon="8.021107">
        <ele>553.593234</ele>
        <time>2021-11-07T16:05:07.932Z</time>
      </trkpt>
      <trkpt lat="47.587801" lon="8.021555">
        <ele>555.472284</ele>
        <time>2021-11-07T16:05:21.107Z</time>
      </trkpt>
      <trkpt lat="47.587981" lon="8.021848">
        <ele>556.765568</ele>
        <time>2021-11-07T16:05:29.970Z</time>
      </trkpt>
      <trkpt lat="47.588224" lon="8.022086">
        <ele>558.174613</ele>
        <time>2021-11-07T16:05:42.798Z</time>
      </trkpt>
      <trkpt lat="47.588772" lon="8.022285">
        <ele>560.965751</ele>
        <time>2021-11-07T16:06:07.819Z</time>
      </trkpt>
      <trkpt lat="47.588947" lon="8.022297">
        <ele>562.507014</ele>
        <time>2021-11-07T16:06:16.275Z</time>
      </trkpt>
      <trkpt lat="47.589256" lon="8.022150">
        <ele>565.362041</ele>
        <time>2021-11-07T16:06:31.860Z</time>
      </trkpt>
      <trkpt lat="47.589392" lon="8.022010">
        <ele>566.818642</ele>
        <time>2021-11-07T16:06:38.760Z</time>
      </trkpt>
      <trkpt lat="47.589430" lon="8.021956">
        <ele>567.281711</ele>
        <time>2021-11-07T16:06:42.413Z</time>
      </trkpt>
      <trkpt lat="47.589615" lon="8.021880">
        <ele>568.970623</ele>
        <time>2021-11-07T16:06:52.417Z</time>
      </trkpt>
      <trkpt lat="47.589745" lon="8.021891">
        <ele>570.116200</ele>
        <time>2021-11-07T16:07:00.874Z</time>
      </trkpt>
      <trkpt lat="47.589748" lon="8.021891">
        <ele>570.142593</ele>
        <time>2021-11-07T16:07:01.270Z</time>
      </trkpt>
      <trkpt lat="47.590116" lon="8.022103">
        <ele>573.615972</ele>
        <time>2021-11-07T16:07:26.637Z</time>
      </trkpt>
      <trkpt lat="47.590395" lon="8.022117">
        <ele>576.071967</ele>
        <time>2021-11-07T16:07:42.292Z</time>
      </trkpt>
      <trkpt lat="47.590755" lon="8.022031">
        <ele>579.128862</ele>
        <time>2021-11-07T16:08:06.348Z</time>
      </trkpt>
      <trkpt lat="47.591072" lon="8.022076">
        <ele>581.769287</ele>
        <time>2021-11-07T16:08:25.688Z</time>
      </trkpt>
      <trkpt lat="47.591115" lon="8.022129">
        <ele>582.232918</ele>
        <time>2021-11-07T16:08:30.874Z</time>
      </trkpt>
      <trkpt lat="47.591140" lon="8.022229">
        <ele>582.829295</ele>
        <time>2021-11-07T16:08:36.275Z</time>
      </trkpt>
      <trkpt lat="47.591210" lon="8.023119">
        <ele>587.839838</ele>
        <time>2021-11-07T16:09:02.864Z</time>
      </trkpt>
      <trkpt lat="47.591205" lon="8.023265">
        <ele>588.657311</ele>
        <time>2021-11-07T16:09:10.605Z</time>
      </trkpt>
      <trkpt lat="47.591738" lon="8.023957">
        <ele>593.050430</ele>
        <time>2021-11-07T16:09:40.850Z</time>
      </trkpt>
      <trkpt lat="47.592067" lon="8.024331">
        <ele>594.770619</ele>
        <time>2021-11-07T16:09:54.533Z</time>
      </trkpt>
      <trkpt lat="47.592360" lon="8.024239">
        <ele>596.013364</ele>
        <time>2021-11-07T16:10:04.871Z</time>
      </trkpt>
      <trkpt lat="47.592875" lon="8.023855">
        <ele>598.405288</ele>
        <time>2021-11-07T16:10:22.092Z</time>
      </trkpt>
      <trkpt lat="47.593000" lon="8.023757">
        <ele>598.992003</ele>
        <time>2021-11-07T16:10:27.971Z</time>
      </trkpt>
      <trkpt lat="47.594098" lon="8.023267">
        <ele>604.489275</ele>
        <time>2021-11-07T16:11:14.998Z</time>
      </trkpt>
      <trkpt lat="47.594377" lon="8.023068">
        <ele>605.975170</ele>
        <time>2021-11-07T16:11:28.520Z</time>
      </trkpt>
      <trkpt lat="47.594831" lon="8.022718">
        <ele>608.067563</ele>
        <time>2021-11-07T16:11:48.310Z</time>
      </trkpt>
      <trkpt lat="47.595091" lon="8.022990">
        <ele>608.872338</ele>
        <time>2021-11-07T16:11:57.391Z</time>
      </trkpt>
      <trkpt lat="47.595671" lon="8.023213">
        <ele>610.387790</ele>
        <time>2021-11-07T16:12:12.819Z</time>
      </trkpt>
      <trkpt lat="47.596051" lon="8.023223">
        <ele>611.349044</ele>
        <time>2021-11-07T16:12:21.361Z</time>
      </trkpt>
      <trkpt lat="47.596148" lon="8.023345">
        <ele>611.670737</ele>
        <time>2021-11-07T16:12:23.713Z</time>
      </trkpt>
      <trkpt lat="47.596208" lon="8.023630">
        <ele>612.179965</ele>
        <time>2021-11-07T16:12:26.996Z</time>
      </trkpt>
      <trkpt lat="47.596116" lon="8.024152">
        <ele>612.643855</ele>
        <time>2021-11-07T16:12:32.904Z</time>
      </trkpt>
      <trkpt lat="47.596100" lon="8.024844">
        <ele>613.218179</ele>
        <time>2021-11-07T16:12:40.581Z</time>
      </trkpt>
      <trkpt lat="47.596129" lon="8.025134">
        <ele>613.461352</ele>
        <time>2021-11-07T16:12:44.244Z</time>
      </trkpt>
      <trkpt lat="47.596247" lon="8.025584">
        <ele>613.861834</ele>
        <time>2021-11-07T16:12:50.048Z</time>
      </trkpt>
      <trkpt lat="47.596374" lon="8.025833">
        <ele>614.120791</ele>
        <time>2021-11-07T16:12:54.763Z</time>
      </trkpt>
      <trkpt lat="47.596403" lon="8.026009">
        <ele>614.271070</ele>
        <time>2021-11-07T16:12:56.812Z</time>
      </trkpt>
      <trkpt lat="47.596391" lon="8.026066">
        <ele>614.320599</ele>
        <time>2021-11-07T16:12:58.183Z</time>
      </trkpt>
      <trkpt lat="47.596371" lon="8.026127">
        <ele>614.376859</ele>
        <time>2021-11-07T16:13:00.017Z</time>
      </trkpt>
      <trkpt lat="47.596351" lon="8.026188">
        <ele>614.455370</ele>
        <time>2021-11-07T16:13:01.513Z</time>
      </trkpt>
      <trkpt lat="47.596275" lon="8.026313">
        <ele>614.942401</ele>
        <time>2021-11-07T16:13:05.307Z</time>
      </trkpt>
      <trkpt lat="47.596214" lon="8.026449">
        <ele>615.415053</ele>
        <time>2021-11-07T16:13:08.708Z</time>
      </trkpt>
      <trkpt lat="47.596280" lon="8.026505">
        <ele>615.741353</ele>
        <time>2021-11-07T16:13:11.259Z</time>
      </trkpt>
      <trkpt lat="47.596433" lon="8.026770">
        <ele>616.750858</ele>
        <time>2021-11-07T16:13:18.171Z</time>
      </trkpt>
      <trkpt lat="47.596560" lon="8.027658">
        <ele>619.377647</ele>
        <time>2021-11-07T16:13:37.011Z</time>
      </trkpt>
      <trkpt lat="47.596702" lon="8.027901">
        <ele>620.308108</ele>
        <time>2021-11-07T16:13:43.857Z</time>
      </trkpt>
      <trkpt lat="47.596826" lon="8.027986">
        <ele>620.894310</ele>
        <time>2021-11-07T16:13:49.412Z</time>
      </trkpt>
      <trkpt lat="47.596954" lon="8.028045">
        <ele>621.469501</ele>
        <time>2021-11-07T16:13:53.989Z</time>
      </trkpt>
      <trkpt lat="47.597162" lon="8.027954">
        <ele>622.529129</ele>
        <time>2021-11-07T16:14:03.634Z</time>
      </trkpt>
      <trkpt lat="47.597667" lon="8.027380">
        <ele>626.626873</ele>
        <time>2021-11-07T16:14:29.116Z</time>
      </trkpt>
      <trkpt lat="47.597845" lon="8.027296">
        <ele>627.829873</ele>
        <time>2021-11-07T16:14:37.735Z</time>
      </trkpt>
      <trkpt lat="47.597967" lon="8.027239">
        <ele>628.653649</ele>
        <time>2021-11-07T16:14:42.094Z</time>
      </trkpt>
      <trkpt lat="47.598069" lon="8.027222">
        <ele>629.314685</ele>
        <time>2021-11-07T16:14:47.660Z</time>
      </trkpt>
      <trkpt lat="47.598361" lon="8.027263">
        <ele>631.203634</ele>
        <time>2021-11-07T16:14:59.474Z</time>
      </trkpt>
      <trkpt lat="47.598472" lon="8.027302">
        <ele>631.938286</ele>
        <time>2021-11-07T16:15:04.722Z</time>
      </trkpt>
      <trkpt lat="47.598821" lon="8.027385">
        <ele>634.224188</ele>
        <time>2021-11-07T16:15:18.178Z</time>
      </trkpt>
      <trkpt lat="47.599102" lon="8.027378">
        <ele>636.069534</ele>
        <time>2021-11-07T16:15:28.395Z</time>
      </trkpt>
      <trkpt lat="47.599389" lon="8.027316">
        <ele>637.973905</ele>
        <time>2021-11-07T16:15:38.798Z</time>
      </trkpt>
      <trkpt lat="47.599613" lon="8.027185">
        <ele>639.554955</ele>
        <time>2021-11-07T16:15:51.249Z</time>
      </trkpt>
      <trkpt lat="47.599844" lon="8.026999">
        <ele>641.280881</ele>
        <time>2021-11-07T16:16:01.129Z</time>
      </trkpt>
      <trkpt lat="47.600101" lon="8.026650">
        <ele>643.568971</ele>
        <time>2021-11-07T16:16:15.215Z</time>
      </trkpt>
      <trkpt lat="47.600516" lon="8.025753">
        <ele>648.535524</ele>
        <time>2021-11-07T16:16:45.975Z</time>
      </trkpt>
      <trkpt lat="47.600550" lon="8.025678">
        <ele>648.956737</ele>
        <time>2021-11-07T16:16:49.603Z</time>
      </trkpt>
      <trkpt lat="47.600581" lon="8.025609">
        <ele>649.343177</ele>
        <time>2021-11-07T16:16:53.322Z</time>
      </trkpt>
      <trkpt lat="47.601301" lon="8.024297">
        <ele>657.227291</ele>
        <time>2021-11-07T16:17:41.735Z</time>
      </trkpt>
      <trkpt lat="47.601427" lon="8.024003">
        <ele>658.576963</ele>
        <time>2021-11-07T16:17:51.273Z</time>
      </trkpt>
      <trkpt lat="47.601526" lon="8.023755">
        <ele>659.503177</ele>
        <time>2021-11-07T16:17:59.672Z</time>
      </trkpt>
      <trkpt lat="47.601889" lon="8.022433">
        <ele>664.090517</ele>
        <time>2021-11-07T16:18:30.078Z</time>
      </trkpt>
      <trkpt lat="47.602034" lon="8.021886">
        <ele>665.979395</ele>
        <time>2021-11-07T16:18:42.602Z</time>
      </trkpt>
      <trkpt lat="47.602462" lon="8.021174">
        <ele>668.691291</ele>
        <time>2021-11-07T16:19:02.064Z</time>
      </trkpt>
      <trkpt lat="47.602662" lon="8.020843">
        <ele>669.917934</ele>
        <time>2021-11-07T16:19:11.779Z</time>
      </trkpt>
      <trkpt lat="47.603104" lon="8.020091">
        <ele>672.671180</ele>
        <time>2021-11-07T16:19:33.916Z</time>
      </trkpt>
      <trkpt lat="47.603225" lon="8.019699">
        <ele>673.861011</ele>
        <time>2021-11-07T16:19:42.784Z</time>
      </trkpt>
      <trkpt lat="47.603538" lon="8.018606">
        <ele>675.635799</ele>
        <time>2021-11-07T16:20:05.160Z</time>
      </trkpt>
      <trkpt lat="47.603564" lon="8.018549">
        <ele>675.737514</ele>
        <time>2021-11-07T16:20:06.385Z</time>
      </trkpt>
      <trkpt lat="47.603949" lon="8.017906">
        <ele>677.008524</ele>
        <time>2021-11-07T16:20:19.666Z</time>
      </trkpt>
      <trkpt lat="47.604386" lon="8.017343">
        <ele>677.929769</ele>
        <time>2021-11-07T16:20:28.310Z</time>
      </trkpt>
      <trkpt lat="47.604931" lon="8.016761">
        <ele>678.215457</ele>
        <time>2021-11-07T16:20:38.067Z</time>
      </trkpt>
      <trkpt lat="47.605303" lon="8.016420">
        <ele>678.401491</ele>
        <time>2021-11-07T16:20:44.619Z</time>
      </trkpt>
      <trkpt lat="47.605349" lon="8.016390">
        <ele>678.422868</ele>
        <time>2021-11-07T16:20:45.396Z</time>
      </trkpt>
      <trkpt lat="47.605617" lon="8.016217">
        <ele>678.547205</ele>
        <time>2021-11-07T16:20:50.404Z</time>
      </trkpt>
      <trkpt lat="47.605788" lon="8.016160">
        <ele>678.648701</ele>
        <time>2021-11-07T16:20:53.808Z</time>
      </trkpt>
      <trkpt lat="47.607499" lon="8.015932">
        <ele>681.243851</ele>
        <time>2021-11-07T16:21:31.305Z</time>
      </trkpt>
      <trkpt lat="47.607936" lon="8.015773">
        <ele>681.026188</ele>
        <time>2021-11-07T16:21:40.079Z</time>
      </trkpt>
      <trkpt lat="47.607997" lon="8.015736">
        <ele>680.975651</ele>
        <time>2021-11-07T16:21:41.750Z</time>
      </trkpt>
      <trkpt lat="47.608546" lon="8.015408">
        <ele>680.521786</ele>
        <time>2021-11-07T16:21:51.449Z</time>
      </trkpt>
      <trkpt lat="47.608990" lon="8.015226">
        <ele>680.168547</ele>
        <time>2021-11-07T16:21:56.796Z</time>
      </trkpt>
      <trkpt lat="47.609093" lon="8.015216">
        <ele>680.089393</ele>
        <time>2021-11-07T16:21:57.845Z</time>
      </trkpt>
      <trkpt lat="47.609541" lon="8.015211">
        <ele>678.613541</ele>
        <time>2021-11-07T16:22:02.161Z</time>
      </trkpt>
      <trkpt lat="47.609987" lon="8.015356">
        <ele>676.312680</ele>
        <time>2021-11-07T16:22:06.332Z</time>
      </trkpt>
      <trkpt lat="47.610061" lon="8.015390">
        <ele>675.922295</ele>
        <time>2021-11-07T16:22:07.015Z</time>
      </trkpt>
      <trkpt lat="47.610254" lon="8.015477">
        <ele>674.905798</ele>
        <time>2021-11-07T16:22:08.869Z</time>
      </trkpt>
      <trkpt lat="47.611129" lon="8.015861">
        <ele>670.971979</ele>
        <time>2021-11-07T16:22:17.391Z</time>
      </trkpt>
      <trkpt lat="47.611516" lon="8.016031">
        <ele>671.277312</ele>
        <time>2021-11-07T16:22:21.463Z</time>
      </trkpt>
      <trkpt lat="47.611716" lon="8.016114">
        <ele>671.434421</ele>
        <time>2021-11-07T16:22:23.717Z</time>
      </trkpt>
      <trkpt lat="47.613333" lon="8.016808">
        <ele>675.239247</ele>
        <time>2021-11-07T16:23:14.593Z</time>
      </trkpt>
      <trkpt lat="47.613550" lon="8.016884">
        <ele>676.332252</ele>
        <time>2021-11-07T16:23:23.913Z</time>
      </trkpt>
      <trkpt lat="47.613763" lon="8.016931">
        <ele>677.387891</ele>
        <time>2021-11-07T16:23:32.449Z</time>
      </trkpt>
      <trkpt lat="47.614276" lon="8.016874">
        <ele>679.909719</ele>
        <time>2021-11-07T16:23:51.329Z</time>
      </trkpt>
      <trkpt lat="47.614450" lon="8.016786">
        <ele>680.810896</ele>
        <time>2021-11-07T16:23:57.767Z</time>
      </trkpt>
      <trkpt lat="47.614507" lon="8.016749">
        <ele>681.093385</ele>
        <time>2021-11-07T16:24:00.101Z</time>
      </trkpt>
      <trkpt lat="47.614952" lon="8.016327">
        <ele>682.579139</ele>
        <time>2021-11-07T16:24:16.707Z</time>
      </trkpt>
      <trkpt lat="47.615823" lon="8.015017">
        <ele>686.068343</ele>
        <time>2021-11-07T16:24:46.137Z</time>
      </trkpt>
      <trkpt lat="47.616313" lon="8.014507">
        <ele>686.948494</ele>
        <time>2021-11-07T16:24:56.976Z</time>
      </trkpt>
      <trkpt lat="47.616676" lon="8.014297">
        <ele>687.503919</ele>
        <time>2021-11-07T16:25:04.748Z</time>
      </trkpt>
      <trkpt lat="47.617120" lon="8.014238">
        <ele>688.139391</ele>
        <time>2021-11-07T16:25:13.935Z</time>
      </trkpt>
      <trkpt lat="47.617298" lon="8.014271">
        <ele>688.395110</ele>
        <time>2021-11-07T16:25:17.223Z</time>
      </trkpt>
      <trkpt lat="47.617593" lon="8.014382">
        <ele>688.984911</ele>
        <time>2021-11-07T16:25:23.670Z</time>
      </trkpt>
      <trkpt lat="47.617609" lon="8.014390">
        <ele>689.035391</ele>
        <time>2021-11-07T16:25:23.954Z</time>
      </trkpt>
      <trkpt lat="47.617879" lon="8.014526">
        <ele>689.887888</ele>
        <time>2021-11-07T16:25:30.375Z</time>
      </trkpt>
      <trkpt lat="47.618468" lon="8.014944">
        <ele>691.839975</ele>
        <time>2021-11-07T16:25:47.939Z</time>
      </trkpt>
      <trkpt lat="47.619151" lon="8.015995">
        <ele>694.628235</ele>
        <time>2021-11-07T16:26:17.891Z</time>
      </trkpt>
      <trkpt lat="47.619261" lon="8.016064">
        <ele>694.908764</ele>
        <time>2021-11-07T16:26:21.894Z</time>
      </trkpt>
      <trkpt lat="47.619394" lon="8.016117">
        <ele>695.232244</ele>
        <time>2021-11-07T16:26:25.748Z</time>
      </trkpt>
      <trkpt lat="47.619688" lon="8.016135">
        <ele>695.923415</ele>
        <time>2021-11-07T16:26:33.624Z</time>
      </trkpt>
      <trkpt lat="47.620051" lon="8.015912">
        <ele>696.846284</ele>
        <time>2021-11-07T16:26:43.302Z</time>
      </trkpt>
      <trkpt lat="47.620186" lon="8.015747">
        <ele>697.257139</ele>
        <time>2021-11-07T16:26:46.953Z</time>
      </trkpt>
      <trkpt lat="47.620186" lon="8.015747">
        <ele>697.257139</ele>
        <time>2021-11-07T16:26:47.067Z</time>
      </trkpt>
      <trkpt lat="47.620283" lon="8.015578">
        <ele>697.608578</ele>
        <time>2021-11-07T16:26:50.074Z</time>
      </trkpt>
      <trkpt lat="47.620364" lon="8.015366">
        <ele>697.994405</ele>
        <time>2021-11-07T16:26:52.990Z</time>
      </trkpt>
      <trkpt lat="47.620496" lon="8.014586">
        <ele>697.411930</ele>
        <time>2021-11-07T16:27:01.416Z</time>
      </trkpt>
      <trkpt lat="47.620546" lon="8.013967">
        <ele>696.526934</ele>
        <time>2021-11-07T16:27:06.134Z</time>
      </trkpt>
      <trkpt lat="47.620555" lon="8.012850">
        <ele>694.941170</ele>
        <time>2021-11-07T16:27:13.789Z</time>
      </trkpt>
      <trkpt lat="47.620492" lon="8.011288">
        <ele>691.204409</ele>
        <time>2021-11-07T16:27:23.906Z</time>
      </trkpt>
      <trkpt lat="47.620487" lon="8.010965">
        <ele>690.355588</ele>
        <time>2021-11-07T16:27:26.049Z</time>
      </trkpt>
      <trkpt lat="47.620490" lon="8.010580">
        <ele>689.344035</ele>
        <time>2021-11-07T16:27:28.584Z</time>
      </trkpt>
      <trkpt lat="47.620496" lon="8.010474">
        <ele>689.064567</ele>
        <time>2021-11-07T16:27:29.302Z</time>
      </trkpt>
      <trkpt lat="47.620507" lon="8.010219">
        <ele>688.393252</ele>
        <time>2021-11-07T16:27:30.987Z</time>
      </trkpt>
      <trkpt lat="47.620556" lon="8.009809">
        <ele>687.398627</ele>
        <time>2021-11-07T16:27:33.872Z</time>
      </trkpt>
      <trkpt lat="47.620573" lon="8.009731">
        <ele>687.295144</ele>
        <time>2021-11-07T16:27:34.396Z</time>
      </trkpt>
      <trkpt lat="47.620672" lon="8.009286">
        <ele>686.703592</ele>
        <time>2021-11-07T16:27:37.689Z</time>
      </trkpt>
      <trkpt lat="47.620681" lon="8.009249">
        <ele>686.653937</ele>
        <time>2021-11-07T16:27:37.938Z</time>
      </trkpt>
      <trkpt lat="47.620699" lon="8.009176">
        <ele>686.555813</ele>
        <time>2021-11-07T16:27:38.458Z</time>
      </trkpt>
      <trkpt lat="47.620734" lon="8.009059">
        <ele>686.394226</ele>
        <time>2021-11-07T16:27:39.376Z</time>
      </trkpt>
      <trkpt lat="47.620862" lon="8.008648">
        <ele>685.822699</ele>
        <time>2021-11-07T16:27:42.609Z</time>
      </trkpt>
      <trkpt lat="47.620954" lon="8.008357">
        <ele>685.416957</ele>
        <time>2021-11-07T16:27:45.184Z</time>
      </trkpt>
      <trkpt lat="47.621081" lon="8.008034">
        <ele>684.944919</ele>
        <time>2021-11-07T16:27:48.152Z</time>
      </trkpt>
      <trkpt lat="47.621140" lon="8.007875">
        <ele>684.715802</ele>
        <time>2021-11-07T16:27:49.865Z</time>
      </trkpt>
      <trkpt lat="47.621254" lon="8.007569">
        <ele>684.274452</ele>
        <time>2021-11-07T16:27:52.753Z</time>
      </trkpt>
      <trkpt lat="47.621308" lon="8.007429">
        <ele>684.124398</ele>
        <time>2021-11-07T16:27:54.336Z</time>
      </trkpt>
      <trkpt lat="47.621359" lon="8.007338">
        <ele>684.131478</ele>
        <time>2021-11-07T16:27:55.371Z</time>
      </trkpt>
      <trkpt lat="47.621433" lon="8.007225">
        <ele>684.140904</ele>
        <time>2021-11-07T16:27:56.788Z</time>
      </trkpt>
      <trkpt lat="47.621752" lon="8.006948">
        <ele>684.173712</ele>
        <time>2021-11-07T16:28:02.335Z</time>
      </trkpt>
      <trkpt lat="47.622835" lon="8.006672">
        <ele>684.271248</ele>
        <time>2021-11-07T16:28:19.372Z</time>
      </trkpt>
      <trkpt lat="47.622836" lon="8.006672">
        <ele>684.271337</ele>
        <time>2021-11-07T16:28:19.455Z</time>
      </trkpt>
      <trkpt lat="47.623040" lon="8.006578">
        <ele>684.308845</ele>
        <time>2021-11-07T16:28:23.237Z</time>
      </trkpt>
      <trkpt lat="47.623146" lon="8.006521">
        <ele>684.340253</ele>
        <time>2021-11-07T16:28:25.005Z</time>
      </trkpt>
      <trkpt lat="47.623316" lon="8.006410">
        <ele>684.391992</ele>
        <time>2021-11-07T16:28:28.510Z</time>
      </trkpt>
      <trkpt lat="47.623482" lon="8.006277">
        <ele>684.444546</ele>
        <time>2021-11-07T16:28:32.009Z</time>
      </trkpt>
      <trkpt lat="47.623496" lon="8.006267">
        <ele>684.448875</ele>
        <time>2021-11-07T16:28:32.414Z</time>
      </trkpt>
      <trkpt lat="47.624181" lon="8.005412">
        <ele>684.698237</ele>
        <time>2021-11-07T16:28:46.463Z</time>
      </trkpt>
      <trkpt lat="47.624476" lon="8.005261">
        <ele>684.794092</ele>
        <time>2021-11-07T16:28:50.686Z</time>
      </trkpt>
      <trkpt lat="47.624714" lon="8.005192">
        <ele>685.102816</ele>
        <time>2021-11-07T16:28:53.996Z</time>
      </trkpt>
      <trkpt lat="47.624772" lon="8.005176">
        <ele>685.177920</ele>
        <time>2021-11-07T16:28:54.842Z</time>
      </trkpt>
      <trkpt lat="47.624780" lon="8.005172">
        <ele>685.188667</ele>
        <time>2021-11-07T16:28:54.943Z</time>
      </trkpt>
      <trkpt lat="47.624929" lon="8.005099">
        <ele>685.388431</ele>
        <time>2021-11-07T16:28:57.234Z</time>
      </trkpt>
      <trkpt lat="47.625082" lon="8.004976">
        <ele>685.609967</ele>
        <time>2021-11-07T16:28:59.854Z</time>
      </trkpt>
      <trkpt lat="47.625170" lon="8.004881">
        <ele>685.748514</ele>
        <time>2021-11-07T16:29:01.630Z</time>
      </trkpt>
      <trkpt lat="47.625244" lon="8.004783">
        <ele>685.874791</ele>
        <time>2021-11-07T16:29:03.311Z</time>
      </trkpt>
      <trkpt lat="47.625294" lon="8.004699">
        <ele>685.970950</ele>
        <time>2021-11-07T16:29:05.150Z</time>
      </trkpt>
      <trkpt lat="47.625325" lon="8.004642">
        <ele>686.033795</ele>
        <time>2021-11-07T16:29:05.766Z</time>
      </trkpt>
      <trkpt lat="47.625384" lon="8.004531">
        <ele>686.155090</ele>
        <time>2021-11-07T16:29:07.455Z</time>
      </trkpt>
      <trkpt lat="47.625393" lon="8.004515">
        <ele>686.172972</ele>
        <time>2021-11-07T16:29:07.646Z</time>
      </trkpt>
      <trkpt lat="47.625461" lon="8.004337">
        <ele>686.348529</ele>
        <time>2021-11-07T16:29:10.191Z</time>
      </trkpt>
      <trkpt lat="47.625506" lon="8.004231">
        <ele>686.456019</ele>
        <time>2021-11-07T16:29:12.593Z</time>
      </trkpt>
      <trkpt lat="47.625525" lon="8.004123">
        <ele>686.551790</ele>
        <time>2021-11-07T16:29:14.152Z</time>
      </trkpt>
      <trkpt lat="47.625607" lon="8.003576">
        <ele>687.032598</ele>
        <time>2021-11-07T16:29:24.546Z</time>
      </trkpt>
      <trkpt lat="47.625654" lon="8.003373">
        <ele>687.857761</ele>
        <time>2021-11-07T16:29:27.900Z</time>
      </trkpt>
      <trkpt lat="47.625600" lon="8.003335">
        <ele>688.271882</ele>
        <time>2021-11-07T16:29:29.306Z</time>
      </trkpt>
      <trkpt lat="47.625584" lon="8.003324">
        <ele>688.394071</ele>
        <time>2021-11-07T16:29:30.152Z</time>
      </trkpt>
      <trkpt lat="47.625516" lon="8.003226">
        <ele>689.050930</ele>
        <time>2021-11-07T16:29:32.832Z</time>
      </trkpt>
      <trkpt lat="47.625460" lon="8.003067">
        <ele>689.888739</ele>
        <time>2021-11-07T16:29:37.870Z</time>
      </trkpt>
      <trkpt lat="47.625445" lon="8.003025">
        <ele>690.110717</ele>
        <time>2021-11-07T16:29:38.513Z</time>
      </trkpt>
      <trkpt lat="47.625434" lon="8.002984">
        <ele>690.316802</ele>
        <time>2021-11-07T16:29:39.153Z</time>
      </trkpt>
      <trkpt lat="47.625363" lon="8.002731">
        <ele>691.596652</ele>
        <time>2021-11-07T16:29:45.756Z</time>
      </trkpt>
      <trkpt lat="47.625298" lon="8.002451">
        <ele>692.979657</ele>
        <time>2021-11-07T16:29:54.307Z</time>
      </trkpt>
      <trkpt lat="47.625267" lon="8.002292">
        <ele>693.752639</ele>
        <time>2021-11-07T16:29:59.707Z</time>
      </trkpt>
      <trkpt lat="47.625257" lon="8.002056">
        <ele>694.856947</ele>
        <time>2021-11-07T16:30:08.252Z</time>
      </trkpt>
      <trkpt lat="47.625266" lon="8.001860">
        <ele>695.774398</ele>
        <time>2021-11-07T16:30:13.664Z</time>
      </trkpt>
      <trkpt lat="47.625264" lon="8.001765">
        <ele>696.218269</ele>
        <time>2021-11-07T16:30:17.290Z</time>
      </trkpt>
      <trkpt lat="47.625250" lon="8.001673">
        <ele>696.658729</ele>
        <time>2021-11-07T16:30:20.165Z</time>
      </trkpt>
      <trkpt lat="47.625243" lon="8.001627">
        <ele>696.878959</ele>
        <time>2021-11-07T16:30:23.480Z</time>
      </trkpt>
      <trkpt lat="47.625081" lon="8.000955">
        <ele>700.421351</ele>
        <time>2021-11-07T16:30:47.852Z</time>
      </trkpt>
      <trkpt lat="47.624825" lon="7.999740">
        <ele>708.206498</ele>
        <time>2021-11-07T16:31:34.421Z</time>
      </trkpt>
      <trkpt lat="47.624804" lon="7.999651">
        <ele>708.783184</ele>
        <time>2021-11-07T16:31:37.779Z</time>
      </trkpt>
      <trkpt lat="47.624766" lon="7.999435">
        <ele>710.148429</ele>
        <time>2021-11-07T16:31:45.993Z</time>
      </trkpt>
      <trkpt lat="47.624755" lon="7.999366">
        <ele>710.582054</ele>
        <time>2021-11-07T16:31:48.404Z</time>
      </trkpt>
      <trkpt lat="47.624735" lon="7.999119">
        <ele>712.103488</ele>
        <time>2021-11-07T16:31:57.025Z</time>
      </trkpt>
      <trkpt lat="47.624755" lon="7.998076">
        <ele>717.693734</ele>
        <time>2021-11-07T16:32:29.194Z</time>
      </trkpt>
      <trkpt lat="47.624920" lon="7.996906">
        <ele>722.804176</ele>
        <time>2021-11-07T16:33:03.471Z</time>
      </trkpt>
      <trkpt lat="47.624885" lon="7.996580">
        <ele>724.215497</ele>
        <time>2021-11-07T16:33:12.039Z</time>
      </trkpt>
      <trkpt lat="47.624698" lon="7.995870">
        <ele>727.398181</ele>
        <time>2021-11-07T16:33:28.827Z</time>
      </trkpt>
      <trkpt lat="47.624673" lon="7.995663">
        <ele>727.968693</ele>
        <time>2021-11-07T16:33:34.300Z</time>
      </trkpt>
      <trkpt lat="47.624628" lon="7.995481">
        <ele>728.494614</ele>
        <time>2021-11-07T16:33:38.086Z</time>
      </trkpt>
      <trkpt lat="47.624294" lon="7.994823">
        <ele>730.729324</ele>
        <time>2021-11-07T16:33:55.244Z</time>
      </trkpt>
      <trkpt lat="47.624185" lon="7.994374">
        <ele>732.024025</ele>
        <time>2021-11-07T16:34:04.535Z</time>
      </trkpt>
      <trkpt lat="47.624157" lon="7.994038">
        <ele>732.942503</ele>
        <time>2021-11-07T16:34:11.164Z</time>
      </trkpt>
      <trkpt lat="47.624143" lon="7.993701">
        <ele>733.858489</ele>
        <time>2021-11-07T16:34:18.435Z</time>
      </trkpt>
      <trkpt lat="47.624155" lon="7.993221">
        <ele>735.309721</ele>
        <time>2021-11-07T16:34:27.479Z</time>
      </trkpt>
      <trkpt lat="47.624186" lon="7.992743">
        <ele>736.906611</ele>
        <time>2021-11-07T16:34:37.781Z</time>
      </trkpt>
      <trkpt lat="47.624193" lon="7.992632">
        <ele>737.277344</ele>
        <time>2021-11-07T16:34:40.131Z</time>
      </trkpt>
      <trkpt lat="47.624211" lon="7.992346">
        <ele>738.232549</ele>
        <time>2021-11-07T16:34:46.993Z</time>
      </trkpt>
      <trkpt lat="47.624184" lon="7.991951">
        <ele>739.552825</ele>
        <time>2021-11-07T16:34:55.603Z</time>
      </trkpt>
      <trkpt lat="47.624171" lon="7.991894">
        <ele>739.752931</ele>
        <time>2021-11-07T16:34:57.539Z</time>
      </trkpt>
      <trkpt lat="47.624027" lon="7.991299">
        <ele>741.855249</ele>
        <time>2021-11-07T16:35:13.432Z</time>
      </trkpt>
      <trkpt lat="47.624009" lon="7.991173">
        <ele>742.283561</ele>
        <time>2021-11-07T16:35:16.212Z</time>
      </trkpt>
      <trkpt lat="47.623969" lon="7.990843">
        <ele>743.398414</ele>
        <time>2021-11-07T16:35:25.870Z</time>
      </trkpt>
      <trkpt lat="47.623887" lon="7.990149">
        <ele>745.723688</ele>
        <time>2021-11-07T16:35:44.165Z</time>
      </trkpt>
      <trkpt lat="47.623887" lon="7.990149">
        <ele>745.723688</ele>
        <time>2021-11-07T16:35:44.180Z</time>
      </trkpt>
      <trkpt lat="47.623887" lon="7.990149">
        <ele>745.723688</ele>
        <time>2021-11-07T16:35:44.180Z</time>
      </trkpt>
      <trkpt lat="47.623693" lon="7.989068">
        <ele>749.415526</ele>
        <time>2021-11-07T16:35:58.169Z</time>
      </trkpt>
      <trkpt lat="47.623561" lon="7.988865">
        <ele>750.346429</ele>
        <time>2021-11-07T16:36:04.932Z</time>
      </trkpt>
      <trkpt lat="47.623508" lon="7.988782">
        <ele>750.723761</ele>
        <time>2021-11-07T16:36:07.286Z</time>
      </trkpt>
      <trkpt lat="47.623303" lon="7.988291">
        <ele>752.317832</ele>
        <time>2021-11-07T16:36:17.781Z</time>
      </trkpt>
      <trkpt lat="47.623087" lon="7.987725">
        <ele>752.952453</ele>
        <time>2021-11-07T16:36:28.972Z</time>
      </trkpt>
      <trkpt lat="47.622073" lon="7.985033">
        <ele>754.166733</ele>
        <time>2021-11-07T16:37:04.928Z</time>
      </trkpt>
      <trkpt lat="47.622067" lon="7.985017">
        <ele>754.157214</ele>
        <time>2021-11-07T16:37:05.082Z</time>
      </trkpt>
      <trkpt lat="47.621842" lon="7.984392">
        <ele>753.788831</ele>
        <time>2021-11-07T16:37:10.840Z</time>
      </trkpt>
      <trkpt lat="47.621773" lon="7.984199">
        <ele>753.675248</ele>
        <time>2021-11-07T16:37:12.477Z</time>
      </trkpt>
      <trkpt lat="47.621590" lon="7.983680">
        <ele>753.227824</ele>
        <time>2021-11-07T16:37:16.700Z</time>
      </trkpt>
      <trkpt lat="47.621453" lon="7.983289">
        <ele>751.990779</ele>
        <time>2021-11-07T16:37:19.841Z</time>
      </trkpt>
      <trkpt lat="47.621414" lon="7.983181">
        <ele>751.646836</ele>
        <time>2021-11-07T16:37:20.652Z</time>
      </trkpt>
      <trkpt lat="47.621287" lon="7.982952">
        <ele>750.814364</ele>
        <time>2021-11-07T16:37:22.672Z</time>
      </trkpt>
      <trkpt lat="47.621148" lon="7.982684">
        <ele>749.865090</ele>
        <time>2021-11-07T16:37:24.875Z</time>
      </trkpt>
      <trkpt lat="47.620712" lon="7.982017">
        <ele>747.256803</ele>
        <time>2021-11-07T16:37:30.813Z</time>
      </trkpt>
      <trkpt lat="47.620533" lon="7.981699">
        <ele>746.093762</ele>
        <time>2021-11-07T16:37:33.367Z</time>
      </trkpt>
      <trkpt lat="47.620263" lon="7.981105">
        <ele>743.873411</ele>
        <time>2021-11-07T16:37:37.867Z</time>
      </trkpt>
      <trkpt lat="47.619965" lon="7.980295">
        <ele>740.986802</ele>
        <time>2021-11-07T16:37:43.749Z</time>
      </trkpt>
      <trkpt lat="47.619797" lon="7.980012">
        <ele>739.807167</ele>
        <time>2021-11-07T16:37:46.280Z</time>
      </trkpt>
      <trkpt lat="47.619731" lon="7.979949">
        <ele>739.442952</ele>
        <time>2021-11-07T16:37:46.977Z</time>
      </trkpt>
      <trkpt lat="47.619309" lon="7.979839">
        <ele>737.483279</ele>
        <time>2021-11-07T16:37:51.171Z</time>
      </trkpt>
      <trkpt lat="47.619073" lon="7.979702">
        <ele>736.612875</ele>
        <time>2021-11-07T16:37:53.740Z</time>
      </trkpt>
      <trkpt lat="47.618976" lon="7.979589">
        <ele>736.189283</ele>
        <time>2021-11-07T16:37:55.019Z</time>
      </trkpt>
      <trkpt lat="47.618419" lon="7.978768">
        <ele>733.492527</ele>
        <time>2021-11-07T16:38:03.028Z</time>
      </trkpt>
      <trkpt lat="47.617897" lon="7.977926">
        <ele>730.931781</ele>
        <time>2021-11-07T16:38:10.780Z</time>
      </trkpt>
      <trkpt lat="47.617863" lon="7.977860">
        <ele>730.770502</ele>
        <time>2021-11-07T16:38:11.243Z</time>
      </trkpt>
      <trkpt lat="47.617183" lon="7.976739">
        <ele>727.842481</ele>
        <time>2021-11-07T16:38:21.509Z</time>
      </trkpt>
      <trkpt lat="47.617143" lon="7.976643">
        <ele>727.623356</ele>
        <time>2021-11-07T16:38:22.162Z</time>
      </trkpt>
      <trkpt lat="47.617122" lon="7.976576">
        <ele>727.479896</ele>
        <time>2021-11-07T16:38:22.850Z</time>
      </trkpt>
      <trkpt lat="47.617087" lon="7.976456">
        <ele>727.226032</ele>
        <time>2021-11-07T16:38:23.930Z</time>
      </trkpt>
      <trkpt lat="47.617050" lon="7.976280">
        <ele>726.868081</ele>
        <time>2021-11-07T16:38:26.643Z</time>
      </trkpt>
      <trkpt lat="47.617035" lon="7.976194">
        <ele>726.695606</ele>
        <time>2021-11-07T16:38:27.175Z</time>
      </trkpt>
      <trkpt lat="47.616932" lon="7.975644">
        <ele>726.582635</ele>
        <time>2021-11-07T16:38:32.172Z</time>
      </trkpt>
      <trkpt lat="47.616823" lon="7.975315">
        <ele>727.014325</ele>
        <time>2021-11-07T16:38:37.287Z</time>
      </trkpt>
      <trkpt lat="47.616605" lon="7.975163">
        <ele>727.435125</ele>
        <time>2021-11-07T16:38:40.722Z</time>
      </trkpt>
      <trkpt lat="47.616374" lon="7.975153">
        <ele>727.838840</ele>
        <time>2021-11-07T16:38:45.242Z</time>
      </trkpt>
      <trkpt lat="47.615835" lon="7.975151">
        <ele>728.780443</ele>
        <time>2021-11-07T16:39:00.230Z</time>
      </trkpt>
      <trkpt lat="47.615388" lon="7.975207">
        <ele>729.831523</ele>
        <time>2021-11-07T16:39:14.519Z</time>
      </trkpt>
      <trkpt lat="47.615223" lon="7.975285">
        <ele>730.510120</ele>
        <time>2021-11-07T16:39:19.901Z</time>
      </trkpt>
      <trkpt lat="47.614735" lon="7.975625">
        <ele>732.622782</ele>
        <time>2021-11-07T16:39:36.507Z</time>
      </trkpt>
      <trkpt lat="47.614050" lon="7.976273">
        <ele>735.806336</ele>
        <time>2021-11-07T16:40:00.127Z</time>
      </trkpt>
      <trkpt lat="47.613802" lon="7.976286">
        <ele>736.848164</ele>
        <time>2021-11-07T16:40:07.345Z</time>
      </trkpt>
      <trkpt lat="47.613439" lon="7.976020">
        <ele>738.723246</ele>
        <time>2021-11-07T16:40:21.496Z</time>
      </trkpt>
      <trkpt lat="47.613266" lon="7.975808">
        <ele>739.762486</ele>
        <time>2021-11-07T16:40:29.375Z</time>
      </trkpt>
      <trkpt lat="47.613184" lon="7.975689">
        <ele>740.293761</ele>
        <time>2021-11-07T16:40:33.551Z</time>
      </trkpt>
      <trkpt lat="47.612962" lon="7.975399">
        <ele>741.663736</ele>
        <time>2021-11-07T16:40:43.491Z</time>
      </trkpt>
      <trkpt lat="47.612866" lon="7.975328">
        <ele>742.160533</ele>
        <time>2021-11-07T16:40:47.320Z</time>
      </trkpt>
      <trkpt lat="47.612866" lon="7.975328">
        <ele>742.160533</ele>
        <time>2021-11-07T16:40:47.551Z</time>
      </trkpt>
      <trkpt lat="47.612717" lon="7.975295">
        <ele>742.858240</ele>
        <time>2021-11-07T16:40:51.980Z</time>
      </trkpt>
      <trkpt lat="47.612535" lon="7.975326">
        <ele>743.706668</ele>
        <time>2021-11-07T16:40:57.727Z</time>
      </trkpt>
      <trkpt lat="47.612357" lon="7.975517">
        <ele>744.724106</ele>
        <time>2021-11-07T16:41:04.936Z</time>
      </trkpt>
      <trkpt lat="47.612223" lon="7.975718">
        <ele>744.986054</ele>
        <time>2021-11-07T16:41:12.354Z</time>
      </trkpt>
      <trkpt lat="47.612133" lon="7.975906">
        <ele>745.198025</ele>
        <time>2021-11-07T16:41:16.441Z</time>
      </trkpt>
      <trkpt lat="47.611876" lon="7.976376">
        <ele>745.754357</ele>
        <time>2021-11-07T16:41:28.640Z</time>
      </trkpt>
      <trkpt lat="47.611711" lon="7.976600">
        <ele>746.059366</ele>
        <time>2021-11-07T16:41:35.635Z</time>
      </trkpt>
      <trkpt lat="47.611588" lon="7.976702">
        <ele>746.251526</ele>
        <time>2021-11-07T16:41:38.940Z</time>
      </trkpt>
      <trkpt lat="47.611343" lon="7.976840">
        <ele>746.608896</ele>
        <time>2021-11-07T16:41:43.507Z</time>
      </trkpt>
      <trkpt lat="47.610048" lon="7.976910">
        <ele>741.598014</ele>
        <time>2021-11-07T16:41:56.033Z</time>
      </trkpt>
      <trkpt lat="47.609956" lon="7.976908">
        <ele>741.012558</ele>
        <time>2021-11-07T16:41:56.866Z</time>
      </trkpt>
      <trkpt lat="47.609734" lon="7.976902">
        <ele>739.599747</ele>
        <time>2021-11-07T16:41:58.843Z</time>
      </trkpt>
      <trkpt lat="47.609554" lon="7.976848">
        <ele>738.431224</ele>
        <time>2021-11-07T16:42:00.445Z</time>
      </trkpt>
      <trkpt lat="47.609405" lon="7.976774">
        <ele>737.431410</ele>
        <time>2021-11-07T16:42:01.850Z</time>
      </trkpt>
      <trkpt lat="47.609225" lon="7.976647">
        <ele>736.163104</ele>
        <time>2021-11-07T16:42:03.567Z</time>
      </trkpt>
      <trkpt lat="47.609083" lon="7.976509">
        <ele>734.879337</ele>
        <time>2021-11-07T16:42:05.041Z</time>
      </trkpt>
      <trkpt lat="47.609057" lon="7.976492">
        <ele>734.642108</ele>
        <time>2021-11-07T16:42:05.277Z</time>
      </trkpt>
      <trkpt lat="47.608829" lon="7.976172">
        <ele>732.021420</ele>
        <time>2021-11-07T16:42:08.021Z</time>
      </trkpt>
      <trkpt lat="47.608764" lon="7.976082">
        <ele>731.279027</ele>
        <time>2021-11-07T16:42:08.759Z</time>
      </trkpt>
      <trkpt lat="47.608361" lon="7.975503">
        <ele>726.594723</ele>
        <time>2021-11-07T16:42:13.646Z</time>
      </trkpt>
      <trkpt lat="47.608085" lon="7.975248">
        <ele>723.879907</ele>
        <time>2021-11-07T16:42:16.481Z</time>
      </trkpt>
      <trkpt lat="47.607949" lon="7.975198">
        <ele>722.710078</ele>
        <time>2021-11-07T16:42:17.708Z</time>
      </trkpt>
      <trkpt lat="47.607811" lon="7.975152">
        <ele>721.529175</ele>
        <time>2021-11-07T16:42:18.990Z</time>
      </trkpt>
      <trkpt lat="47.607703" lon="7.975163">
        <ele>720.690346</ele>
        <time>2021-11-07T16:42:20.027Z</time>
      </trkpt>
      <trkpt lat="47.607293" lon="7.975219">
        <ele>719.660563</ele>
        <time>2021-11-07T16:42:24.046Z</time>
      </trkpt>
      <trkpt lat="47.607002" lon="7.975117">
        <ele>718.912701</ele>
        <time>2021-11-07T16:42:27.395Z</time>
      </trkpt>
      <trkpt lat="47.606836" lon="7.974966">
        <ele>718.425660</ele>
        <time>2021-11-07T16:42:29.514Z</time>
      </trkpt>
      <trkpt lat="47.606683" lon="7.974772">
        <ele>717.922221</ele>
        <time>2021-11-07T16:42:31.815Z</time>
      </trkpt>
      <trkpt lat="47.606512" lon="7.974504">
        <ele>717.300009</ele>
        <time>2021-11-07T16:42:34.704Z</time>
      </trkpt>
      <trkpt lat="47.606402" lon="7.974261">
        <ele>716.806452</ele>
        <time>2021-11-07T16:42:37.030Z</time>
      </trkpt>
      <trkpt lat="47.606300" lon="7.973918">
        <ele>716.209948</ele>
        <time>2021-11-07T16:42:40.710Z</time>
      </trkpt>
      <trkpt lat="47.606116" lon="7.973296">
        <ele>715.966248</ele>
        <time>2021-11-07T16:42:46.432Z</time>
      </trkpt>
      <trkpt lat="47.606058" lon="7.973155">
        <ele>715.906988</ele>
        <time>2021-11-07T16:42:48.063Z</time>
      </trkpt>
      <trkpt lat="47.605981" lon="7.973005">
        <ele>715.839346</ele>
        <time>2021-11-07T16:42:49.909Z</time>
      </trkpt>
      <trkpt lat="47.605871" lon="7.972904">
        <ele>715.770501</ele>
        <time>2021-11-07T16:42:51.349Z</time>
      </trkpt>
      <trkpt lat="47.605644" lon="7.972831">
        <ele>715.646897</ele>
        <time>2021-11-07T16:42:54.885Z</time>
      </trkpt>
      <trkpt lat="47.605516" lon="7.972819">
        <ele>715.578647</ele>
        <time>2021-11-07T16:42:56.270Z</time>
      </trkpt>
      <trkpt lat="47.605454" lon="7.972717">
        <ele>715.529373</ele>
        <time>2021-11-07T16:42:57.746Z</time>
      </trkpt>
      <trkpt lat="47.605365" lon="7.972611">
        <ele>715.468632</ele>
        <time>2021-11-07T16:42:59.495Z</time>
      </trkpt>
      <trkpt lat="47.605224" lon="7.972488">
        <ele>715.381584</ele>
        <time>2021-11-07T16:43:01.483Z</time>
      </trkpt>
      <trkpt lat="47.605056" lon="7.972376">
        <ele>715.283567</ele>
        <time>2021-11-07T16:43:04.406Z</time>
      </trkpt>
      <trkpt lat="47.604922" lon="7.972287">
        <ele>715.398797</ele>
        <time>2021-11-07T16:43:06.168Z</time>
      </trkpt>
      <trkpt lat="47.604528" lon="7.971728">
        <ele>716.092796</ele>
        <time>2021-11-07T16:43:14.649Z</time>
      </trkpt>
      <trkpt lat="47.604419" lon="7.971600">
        <ele>716.269756</ele>
        <time>2021-11-07T16:43:16.681Z</time>
      </trkpt>
      <trkpt lat="47.604366" lon="7.971555">
        <ele>716.347488</ele>
        <time>2021-11-07T16:43:17.864Z</time>
      </trkpt>
      <trkpt lat="47.604294" lon="7.971507">
        <ele>716.447964</ele>
        <time>2021-11-07T16:43:19.510Z</time>
      </trkpt>
      <trkpt lat="47.604261" lon="7.971490">
        <ele>716.492429</ele>
        <time>2021-11-07T16:43:20.219Z</time>
      </trkpt>
      <trkpt lat="47.604163" lon="7.971460">
        <ele>716.619795</ele>
        <time>2021-11-07T16:43:22.027Z</time>
      </trkpt>
      <trkpt lat="47.604023" lon="7.971466">
        <ele>716.798065</ele>
        <time>2021-11-07T16:43:25.092Z</time>
      </trkpt>
      <trkpt lat="47.603588" lon="7.971607">
        <ele>717.364813</ele>
        <time>2021-11-07T16:43:35.195Z</time>
      </trkpt>
      <trkpt lat="47.603305" lon="7.971596">
        <ele>718.432484</ele>
        <time>2021-11-07T16:43:42.689Z</time>
      </trkpt>
      <trkpt lat="47.603054" lon="7.971469">
        <ele>720.147464</ele>
        <time>2021-11-07T16:43:50.741Z</time>
      </trkpt>
      <trkpt lat="47.602252" lon="7.970803">
        <ele>726.091343</ele>
        <time>2021-11-07T16:44:29.388Z</time>
      </trkpt>
      <trkpt lat="47.601859" lon="7.970629">
        <ele>728.743556</ele>
        <time>2021-11-07T16:44:49.909Z</time>
      </trkpt>
      <trkpt lat="47.601648" lon="7.970592">
        <ele>730.419845</ele>
        <time>2021-11-07T16:45:01.635Z</time>
      </trkpt>
      <trkpt lat="47.601402" lon="7.970556">
        <ele>732.535465</ele>
        <time>2021-11-07T16:45:14.638Z</time>
      </trkpt>
      <trkpt lat="47.601180" lon="7.970508">
        <ele>734.455542</ele>
        <time>2021-11-07T16:45:25.298Z</time>
      </trkpt>
      <trkpt lat="47.600971" lon="7.970428">
        <ele>736.302891</ele>
        <time>2021-11-07T16:45:37.454Z</time>
      </trkpt>
      <trkpt lat="47.600336" lon="7.970065">
        <ele>742.127318</ele>
        <time>2021-11-07T16:46:12.204Z</time>
      </trkpt>
      <trkpt lat="47.599718" lon="7.969767">
        <ele>745.783135</ele>
        <time>2021-11-07T16:46:40.003Z</time>
      </trkpt>
      <trkpt lat="47.599352" lon="7.969493">
        <ele>747.143316</ele>
        <time>2021-11-07T16:46:53.799Z</time>
      </trkpt>
      <trkpt lat="47.598765" lon="7.968887">
        <ele>749.516150</ele>
        <time>2021-11-07T16:47:09.742Z</time>
      </trkpt>
      <trkpt lat="47.598343" lon="7.968578">
        <ele>750.286221</ele>
        <time>2021-11-07T16:47:17.126Z</time>
      </trkpt>
      <trkpt lat="47.597978" lon="7.968440">
        <ele>749.683062</ele>
        <time>2021-11-07T16:47:21.988Z</time>
      </trkpt>
      <trkpt lat="47.597103" lon="7.968192">
        <ele>748.256590</ele>
        <time>2021-11-07T16:47:31.776Z</time>
      </trkpt>
      <trkpt lat="47.596111" lon="7.968029">
        <ele>745.868141</ele>
        <time>2021-11-07T16:47:41.925Z</time>
      </trkpt>
      <trkpt lat="47.595897" lon="7.967970">
        <ele>745.245607</ele>
        <time>2021-11-07T16:47:44.161Z</time>
      </trkpt>
      <trkpt lat="47.595731" lon="7.967840">
        <ele>744.708703</ele>
        <time>2021-11-07T16:47:46.115Z</time>
      </trkpt>
      <trkpt lat="47.595487" lon="7.967606">
        <ele>743.877636</ele>
        <time>2021-11-07T16:47:49.059Z</time>
      </trkpt>
      <trkpt lat="47.595222" lon="7.967319">
        <ele>742.939113</ele>
        <time>2021-11-07T16:47:52.414Z</time>
      </trkpt>
      <trkpt lat="47.594433" lon="7.966488">
        <ele>742.037823</ele>
        <time>2021-11-07T16:48:02.901Z</time>
      </trkpt>
      <trkpt lat="47.594369" lon="7.966419">
        <ele>741.991399</ele>
        <time>2021-11-07T16:48:03.795Z</time>
      </trkpt>
      <trkpt lat="47.593845" lon="7.965844">
        <ele>741.608945</ele>
        <time>2021-11-07T16:48:15.518Z</time>
      </trkpt>
      <trkpt lat="47.593572" lon="7.965514">
        <ele>741.671888</ele>
        <time>2021-11-07T16:48:22.703Z</time>
      </trkpt>
      <trkpt lat="47.593274" lon="7.965197">
        <ele>742.392670</ele>
        <time>2021-11-07T16:48:30.649Z</time>
      </trkpt>
      <trkpt lat="47.592819" lon="7.964868">
        <ele>743.387542</ele>
        <time>2021-11-07T16:48:43.018Z</time>
      </trkpt>
      <trkpt lat="47.592518" lon="7.964704">
        <ele>744.017774</ele>
        <time>2021-11-07T16:48:51.591Z</time>
      </trkpt>
      <trkpt lat="47.591169" lon="7.964077">
        <ele>744.247048</ele>
        <time>2021-11-07T16:49:21.927Z</time>
      </trkpt>
      <trkpt lat="47.590665" lon="7.963794">
        <ele>743.803737</ele>
        <time>2021-11-07T16:49:27.771Z</time>
      </trkpt>
      <trkpt lat="47.590624" lon="7.963772">
        <ele>743.767870</ele>
        <time>2021-11-07T16:49:28.228Z</time>
      </trkpt>
      <trkpt lat="47.590227" lon="7.963517">
        <ele>742.733497</ele>
        <time>2021-11-07T16:49:32.420Z</time>
      </trkpt>
      <trkpt lat="47.589112" lon="7.962950">
        <ele>735.653866</ele>
        <time>2021-11-07T16:49:43.192Z</time>
      </trkpt>
      <trkpt lat="47.588758" lon="7.962844">
        <ele>733.484806</ele>
        <time>2021-11-07T16:49:46.395Z</time>
      </trkpt>
      <trkpt lat="47.588243" lon="7.962855">
        <ele>730.238571</ele>
        <time>2021-11-07T16:49:51.075Z</time>
      </trkpt>
      <trkpt lat="47.587999" lon="7.962882">
        <ele>728.672463</ele>
        <time>2021-11-07T16:49:53.294Z</time>
      </trkpt>
      <trkpt lat="47.587762" lon="7.962890">
        <ele>727.155110</ele>
        <time>2021-11-07T16:49:55.440Z</time>
      </trkpt>
      <trkpt lat="47.587593" lon="7.962854">
        <ele>726.062288</ele>
        <time>2021-11-07T16:49:57.005Z</time>
      </trkpt>
      <trkpt lat="47.587527" lon="7.962835">
        <ele>725.631955</ele>
        <time>2021-11-07T16:49:57.624Z</time>
      </trkpt>
      <trkpt lat="47.587299" lon="7.962810">
        <ele>724.168615</ele>
        <time>2021-11-07T16:49:59.731Z</time>
      </trkpt>
      <trkpt lat="47.587114" lon="7.962708">
        <ele>722.905267</ele>
        <time>2021-11-07T16:50:01.559Z</time>
      </trkpt>
      <trkpt lat="47.586786" lon="7.962503">
        <ele>720.614165</ele>
        <time>2021-11-07T16:50:04.793Z</time>
      </trkpt>
      <trkpt lat="47.586624" lon="7.962373">
        <ele>719.409044</ele>
        <time>2021-11-07T16:50:06.450Z</time>
      </trkpt>
      <trkpt lat="47.586491" lon="7.962168">
        <ele>718.153909</ele>
        <time>2021-11-07T16:50:08.200Z</time>
      </trkpt>
      <trkpt lat="47.586296" lon="7.961772">
        <ele>715.990382</ele>
        <time>2021-11-07T16:50:11.186Z</time>
      </trkpt>
      <trkpt lat="47.586005" lon="7.961489">
        <ele>713.713580</ele>
        <time>2021-11-07T16:50:14.319Z</time>
      </trkpt>
      <trkpt lat="47.585805" lon="7.961386">
        <ele>712.328444</ele>
        <time>2021-11-07T16:50:16.207Z</time>
      </trkpt>
      <trkpt lat="47.585514" lon="7.961317">
        <ele>710.400463</ele>
        <time>2021-11-07T16:50:18.877Z</time>
      </trkpt>
      <trkpt lat="47.585281" lon="7.961295">
        <ele>708.984414</ele>
        <time>2021-11-07T16:50:21.056Z</time>
      </trkpt>
      <trkpt lat="47.585149" lon="7.961311">
        <ele>708.288993</ele>
        <time>2021-11-07T16:50:22.231Z</time>
      </trkpt>
      <trkpt lat="47.585078" lon="7.961320">
        <ele>707.914824</ele>
        <time>2021-11-07T16:50:22.902Z</time>
      </trkpt>
      <trkpt lat="47.584845" lon="7.961410">
        <ele>706.650541</ele>
        <time>2021-11-07T16:50:25.166Z</time>
      </trkpt>
      <trkpt lat="47.584506" lon="7.961629">
        <ele>704.708865</ele>
        <time>2021-11-07T16:50:28.562Z</time>
      </trkpt>
      <trkpt lat="47.583450" lon="7.962220">
        <ele>699.377677</ele>
        <time>2021-11-07T16:50:39.285Z</time>
      </trkpt>
      <trkpt lat="47.583243" lon="7.962307">
        <ele>698.803642</ele>
        <time>2021-11-07T16:50:41.421Z</time>
      </trkpt>
      <trkpt lat="47.583134" lon="7.962356">
        <ele>698.499758</ele>
        <time>2021-11-07T16:50:42.597Z</time>
      </trkpt>
      <trkpt lat="47.582968" lon="7.962415">
        <ele>698.044324</ele>
        <time>2021-11-07T16:50:44.373Z</time>
      </trkpt>
      <trkpt lat="47.582545" lon="7.962501">
        <ele>696.905206</ele>
        <time>2021-11-07T16:50:48.900Z</time>
      </trkpt>
      <trkpt lat="47.582180" lon="7.962548">
        <ele>695.927728</ele>
        <time>2021-11-07T16:50:52.920Z</time>
      </trkpt>
      <trkpt lat="47.581514" lon="7.962514">
        <ele>695.232114</ele>
        <time>2021-11-07T16:51:00.800Z</time>
      </trkpt>
      <trkpt lat="47.580893" lon="7.962449">
        <ele>695.292449</ele>
        <time>2021-11-07T16:51:10.097Z</time>
      </trkpt>
      <trkpt lat="47.580131" lon="7.962271">
        <ele>695.367210</ele>
        <time>2021-11-07T16:51:24.588Z</time>
      </trkpt>
      <trkpt lat="47.579759" lon="7.962106">
        <ele>695.772418</ele>
        <time>2021-11-07T16:51:32.475Z</time>
      </trkpt>
      <trkpt lat="47.579169" lon="7.961638">
        <ele>696.493094</ele>
        <time>2021-11-07T16:51:45.358Z</time>
      </trkpt>
      <trkpt lat="47.578838" lon="7.961180">
        <ele>696.980741</ele>
        <time>2021-11-07T16:51:54.109Z</time>
      </trkpt>
      <trkpt lat="47.578655" lon="7.960775">
        <ele>697.312686</ele>
        <time>2021-11-07T16:52:00.346Z</time>
      </trkpt>
      <trkpt lat="47.578614" lon="7.960661">
        <ele>697.335324</ele>
        <time>2021-11-07T16:52:01.811Z</time>
      </trkpt>
      <trkpt lat="47.578556" lon="7.960464">
        <ele>697.372989</ele>
        <time>2021-11-07T16:52:04.418Z</time>
      </trkpt>
      <trkpt lat="47.578451" lon="7.959921">
        <ele>697.471971</ele>
        <time>2021-11-07T16:52:10.977Z</time>
      </trkpt>
      <trkpt lat="47.578433" lon="7.959542">
        <ele>697.538548</ele>
        <time>2021-11-07T16:52:15.134Z</time>
      </trkpt>
      <trkpt lat="47.578428" lon="7.959421">
        <ele>697.559791</ele>
        <time>2021-11-07T16:52:16.468Z</time>
      </trkpt>
      <trkpt lat="47.578453" lon="7.959023">
        <ele>697.629835</ele>
        <time>2021-11-07T16:52:20.604Z</time>
      </trkpt>
      <trkpt lat="47.578554" lon="7.958491">
        <ele>697.726679</ele>
        <time>2021-11-07T16:52:26.070Z</time>
      </trkpt>
      <trkpt lat="47.578723" lon="7.958003">
        <ele>697.465815</ele>
        <time>2021-11-07T16:52:31.350Z</time>
      </trkpt>
      <trkpt lat="47.579019" lon="7.957379">
        <ele>696.644204</ele>
        <time>2021-11-07T16:52:37.646Z</time>
      </trkpt>
      <trkpt lat="47.579581" lon="7.956485">
        <ele>695.328038</ele>
        <time>2021-11-07T16:52:46.767Z</time>
      </trkpt>
      <trkpt lat="47.579879" lon="7.956035">
        <ele>694.327157</ele>
        <time>2021-11-07T16:52:51.187Z</time>
      </trkpt>
      <trkpt lat="47.580034" lon="7.955780">
        <ele>693.485906</ele>
        <time>2021-11-07T16:52:53.538Z</time>
      </trkpt>
      <trkpt lat="47.580265" lon="7.955293">
        <ele>692.026828</ele>
        <time>2021-11-07T16:52:57.628Z</time>
      </trkpt>
      <trkpt lat="47.580339" lon="7.955104">
        <ele>691.491255</ele>
        <time>2021-11-07T16:52:59.101Z</time>
      </trkpt>
      <trkpt lat="47.580388" lon="7.954967">
        <ele>691.111220</ele>
        <time>2021-11-07T16:53:00.058Z</time>
      </trkpt>
      <trkpt lat="47.580536" lon="7.954398">
        <ele>689.616643</ele>
        <time>2021-11-07T16:53:03.989Z</time>
      </trkpt>
      <trkpt lat="47.580783" lon="7.953015">
        <ele>684.984641</ele>
        <time>2021-11-07T16:53:13.514Z</time>
      </trkpt>
      <trkpt lat="47.580801" lon="7.952840">
        <ele>684.334285</ele>
        <time>2021-11-07T16:53:14.604Z</time>
      </trkpt>
      <trkpt lat="47.580789" lon="7.952623">
        <ele>683.534384</ele>
        <time>2021-11-07T16:53:16.195Z</time>
      </trkpt>
      <trkpt lat="47.580514" lon="7.951308">
        <ele>678.397613</ele>
        <time>2021-11-07T16:53:24.620Z</time>
      </trkpt>
      <trkpt lat="47.580578" lon="7.950534">
        <ele>673.124712</ele>
        <time>2021-11-07T16:53:29.255Z</time>
      </trkpt>
      <trkpt lat="47.580705" lon="7.949917">
        <ele>668.762700</ele>
        <time>2021-11-07T16:53:33.027Z</time>
      </trkpt>
      <trkpt lat="47.580743" lon="7.949656">
        <ele>666.957204</ele>
        <time>2021-11-07T16:53:34.551Z</time>
      </trkpt>
      <trkpt lat="47.580939" lon="7.948093">
        <ele>656.284838</ele>
        <time>2021-11-07T16:53:43.602Z</time>
      </trkpt>
      <trkpt lat="47.580865" lon="7.947817">
        <ele>654.312479</ele>
        <time>2021-11-07T16:53:45.309Z</time>
      </trkpt>
      <trkpt lat="47.580562" lon="7.947489">
        <ele>650.618839</ele>
        <time>2021-11-07T16:53:48.494Z</time>
      </trkpt>
      <trkpt lat="47.580077" lon="7.947070">
        <ele>645.092429</ele>
        <time>2021-11-07T16:53:53.424Z</time>
      </trkpt>
      <trkpt lat="47.579781" lon="7.947052">
        <ele>642.397189</ele>
        <time>2021-11-07T16:53:56.100Z</time>
      </trkpt>
      <trkpt lat="47.579396" lon="7.946888">
        <ele>639.782636</ele>
        <time>2021-11-07T16:53:59.792Z</time>
      </trkpt>
      <trkpt lat="47.578644" lon="7.947268">
        <ele>634.597060</ele>
        <time>2021-11-07T16:54:07.152Z</time>
      </trkpt>
      <trkpt lat="47.578396" lon="7.947244">
        <ele>632.974936</ele>
        <time>2021-11-07T16:54:09.365Z</time>
      </trkpt>
      <trkpt lat="47.578328" lon="7.947192">
        <ele>632.475531</ele>
        <time>2021-11-07T16:54:11.124Z</time>
      </trkpt>
      <trkpt lat="47.578220" lon="7.946989">
        <ele>631.337210</ele>
        <time>2021-11-07T16:54:12.627Z</time>
      </trkpt>
      <trkpt lat="47.578055" lon="7.946424">
        <ele>626.561074</ele>
        <time>2021-11-07T16:54:16.353Z</time>
      </trkpt>
      <trkpt lat="47.577848" lon="7.945352">
        <ele>617.540402</ele>
        <time>2021-11-07T16:54:22.763Z</time>
      </trkpt>
      <trkpt lat="47.577504" lon="7.944765">
        <ele>611.249945</ele>
        <time>2021-11-07T16:54:27.129Z</time>
      </trkpt>
      <trkpt lat="47.576917" lon="7.944153">
        <ele>598.390094</ele>
        <time>2021-11-07T16:54:33.029Z</time>
      </trkpt>
      <trkpt lat="47.576848" lon="7.944056">
        <ele>596.544554</ele>
        <time>2021-11-07T16:54:33.811Z</time>
      </trkpt>
      <trkpt lat="47.576803" lon="7.944012">
        <ele>595.498339</ele>
        <time>2021-11-07T16:54:34.263Z</time>
      </trkpt>
      <trkpt lat="47.576670" lon="7.943775">
        <ele>591.462192</ele>
        <time>2021-11-07T16:54:35.986Z</time>
      </trkpt>
      <trkpt lat="47.576415" lon="7.943598">
        <ele>585.997591</ele>
        <time>2021-11-07T16:54:38.283Z</time>
      </trkpt>
      <trkpt lat="47.575978" lon="7.943401">
        <ele>577.132995</ele>
        <time>2021-11-07T16:54:42.014Z</time>
      </trkpt>
      <trkpt lat="47.575613" lon="7.943320">
        <ele>569.951772</ele>
        <time>2021-11-07T16:54:45.023Z</time>
      </trkpt>
      <trkpt lat="47.574655" lon="7.943625">
        <ele>550.859478</ele>
        <time>2021-11-07T16:54:53.036Z</time>
      </trkpt>
      <trkpt lat="47.574394" lon="7.943856">
        <ele>544.936337</ele>
        <time>2021-11-07T16:54:55.524Z</time>
      </trkpt>
      <trkpt lat="47.574153" lon="7.944610">
        <ele>535.843216</ele>
        <time>2021-11-07T16:55:00.167Z</time>
      </trkpt>
      <trkpt lat="47.573532" lon="7.946081">
        <ele>520.667390</ele>
        <time>2021-11-07T16:55:09.978Z</time>
      </trkpt>
      <trkpt lat="47.573421" lon="7.946607">
        <ele>516.086101</ele>
        <time>2021-11-07T16:55:13.209Z</time>
      </trkpt>
      <trkpt lat="47.573457" lon="7.946845">
        <ele>515.208609</ele>
        <time>2021-11-07T16:55:14.676Z</time>
      </trkpt>
      <trkpt lat="47.573702" lon="7.947589">
        <ele>512.230145</ele>
        <time>2021-11-07T16:55:19.810Z</time>
      </trkpt>
      <trkpt lat="47.573779" lon="7.948382">
        <ele>509.347847</ele>
        <time>2021-11-07T16:55:25.059Z</time>
      </trkpt>
      <trkpt lat="47.573841" lon="7.949945">
        <ele>504.067208</ele>
        <time>2021-11-07T16:55:35.717Z</time>
      </trkpt>
      <trkpt lat="47.573833" lon="7.950164">
        <ele>503.372478</ele>
        <time>2021-11-07T16:55:37.270Z</time>
      </trkpt>
      <trkpt lat="47.573830" lon="7.950662">
        <ele>501.794928</ele>
        <time>2021-11-07T16:55:40.442Z</time>
      </trkpt>
      <trkpt lat="47.573809" lon="7.950963">
        <ele>500.836382</ele>
        <time>2021-11-07T16:55:42.391Z</time>
      </trkpt>
      <trkpt lat="47.573543" lon="7.952446">
        <ele>494.695939</ele>
        <time>2021-11-07T16:55:51.850Z</time>
      </trkpt>
      <trkpt lat="47.573526" lon="7.952563">
        <ele>494.100318</ele>
        <time>2021-11-07T16:55:52.548Z</time>
      </trkpt>
      <trkpt lat="47.573508" lon="7.952785">
        <ele>492.987545</ele>
        <time>2021-11-07T16:55:53.894Z</time>
      </trkpt>
      <trkpt lat="47.573460" lon="7.953097">
        <ele>491.394961</ele>
        <time>2021-11-07T16:55:55.854Z</time>
      </trkpt>
      <trkpt lat="47.573085" lon="7.954089">
        <ele>485.735887</ele>
        <time>2021-11-07T16:56:02.597Z</time>
      </trkpt>
      <trkpt lat="47.572895" lon="7.955000">
        <ele>481.140660</ele>
        <time>2021-11-07T16:56:08.272Z</time>
      </trkpt>
      <trkpt lat="47.572816" lon="7.955144">
        <ele>480.252043</ele>
        <time>2021-11-07T16:56:09.472Z</time>
      </trkpt>
      <trkpt lat="47.572732" lon="7.955226">
        <ele>479.538256</ele>
        <time>2021-11-07T16:56:10.349Z</time>
      </trkpt>
      <trkpt lat="47.572685" lon="7.955235">
        <ele>479.201942</ele>
        <time>2021-11-07T16:56:10.759Z</time>
      </trkpt>
      <trkpt lat="47.572561" lon="7.955012">
        <ele>477.818355</ele>
        <time>2021-11-07T16:56:12.647Z</time>
      </trkpt>
      <trkpt lat="47.572493" lon="7.953580">
        <ele>471.072200</ele>
        <time>2021-11-07T16:56:21.336Z</time>
      </trkpt>
      <trkpt lat="47.572431" lon="7.953273">
        <ele>469.695168</ele>
        <time>2021-11-07T16:56:23.292Z</time>
      </trkpt>
      <trkpt lat="47.572136" lon="7.952448">
        <ele>465.682939</ele>
        <time>2021-11-07T16:56:29.053Z</time>
      </trkpt>
      <trkpt lat="47.572063" lon="7.952158">
        <ele>464.352869</ele>
        <time>2021-11-07T16:56:31.018Z</time>
      </trkpt>
      <trkpt lat="47.572029" lon="7.952049">
        <ele>463.836848</ele>
        <time>2021-11-07T16:56:31.734Z</time>
      </trkpt>
      <trkpt lat="47.571881" lon="7.951642">
        <ele>461.850066</ele>
        <time>2021-11-07T16:56:34.611Z</time>
      </trkpt>
      <trkpt lat="47.571580" lon="7.951400">
        <ele>459.581791</ele>
        <time>2021-11-07T16:56:37.742Z</time>
      </trkpt>
      <trkpt lat="47.571432" lon="7.951352">
        <ele>458.537307</ele>
        <time>2021-11-07T16:56:39.078Z</time>
      </trkpt>
      <trkpt lat="47.571372" lon="7.951351">
        <ele>458.123628</ele>
        <time>2021-11-07T16:56:39.625Z</time>
      </trkpt>
      <trkpt lat="47.571274" lon="7.951357">
        <ele>457.447420</ele>
        <time>2021-11-07T16:56:40.541Z</time>
      </trkpt>
      <trkpt lat="47.571169" lon="7.951380">
        <ele>456.715666</ele>
        <time>2021-11-07T16:56:41.481Z</time>
      </trkpt>
      <trkpt lat="47.571014" lon="7.951483">
        <ele>455.544582</ele>
        <time>2021-11-07T16:56:42.995Z</time>
      </trkpt>
      <trkpt lat="47.570777" lon="7.951728">
        <ele>453.552505</ele>
        <time>2021-11-07T16:56:45.572Z</time>
      </trkpt>
      <trkpt lat="47.570624" lon="7.952436">
        <ele>450.094519</ele>
        <time>2021-11-07T16:56:50.165Z</time>
      </trkpt>
      <trkpt lat="47.570406" lon="7.952888">
        <ele>447.309106</ele>
        <time>2021-11-07T16:56:53.508Z</time>
      </trkpt>
      <trkpt lat="47.570258" lon="7.953004">
        <ele>445.871016</ele>
        <time>2021-11-07T16:56:54.999Z</time>
      </trkpt>
      <trkpt lat="47.569469" lon="7.953110">
        <ele>439.065908</ele>
        <time>2021-11-07T16:57:01.972Z</time>
      </trkpt>
      <trkpt lat="47.568801" lon="7.953205">
        <ele>433.301592</ele>
        <time>2021-11-07T16:57:07.786Z</time>
      </trkpt>
      <trkpt lat="47.568529" lon="7.953233">
        <ele>430.498099</ele>
        <time>2021-11-07T16:57:10.139Z</time>
      </trkpt>
      <trkpt lat="47.568322" lon="7.953261">
        <ele>428.283077</ele>
        <time>2021-11-07T16:57:11.922Z</time>
      </trkpt>
      <trkpt lat="47.568036" lon="7.953298">
        <ele>425.223788</ele>
        <time>2021-11-07T16:57:14.362Z</time>
      </trkpt>
      <trkpt lat="47.567660" lon="7.953207">
        <ele>421.163950</ele>
        <time>2021-11-07T16:57:17.610Z</time>
      </trkpt>
      <trkpt lat="47.567503" lon="7.953060">
        <ele>419.185019</ele>
        <time>2021-11-07T16:57:19.213Z</time>
      </trkpt>
      <trkpt lat="47.567451" lon="7.952996">
        <ele>418.464737</ele>
        <time>2021-11-07T16:57:19.771Z</time>
      </trkpt>
      <trkpt lat="47.567312" lon="7.952728">
        <ele>416.034285</ele>
        <time>2021-11-07T16:57:21.738Z</time>
      </trkpt>
      <trkpt lat="47.567222" lon="7.952062">
        <ele>411.434379</ele>
        <time>2021-11-07T16:57:25.637Z</time>
      </trkpt>
      <trkpt lat="47.567206" lon="7.950456">
        <ele>401.165949</ele>
        <time>2021-11-07T16:57:34.969Z</time>
      </trkpt>
      <trkpt lat="47.567150" lon="7.950174">
        <ele>399.286634</ele>
        <time>2021-11-07T16:57:36.714Z</time>
      </trkpt>
      <trkpt lat="47.566740" lon="7.949245">
        <ele>393.320934</ele>
        <time>2021-11-07T16:57:43.409Z</time>
      </trkpt>
      <trkpt lat="47.566807" lon="7.948128">
        <ele>387.962420</ele>
        <time>2021-11-07T16:57:50.299Z</time>
      </trkpt>
      <trkpt lat="47.566739" lon="7.947778">
        <ele>386.222029</ele>
        <time>2021-11-07T16:57:52.504Z</time>
      </trkpt>
      <trkpt lat="47.566559" lon="7.947459">
        <ele>384.234945</ele>
        <time>2021-11-07T16:57:54.975Z</time>
      </trkpt>
      <trkpt lat="47.566361" lon="7.947197">
        <ele>382.230752</ele>
        <time>2021-11-07T16:57:57.328Z</time>
      </trkpt>
      <trkpt lat="47.566181" lon="7.947137">
        <ele>380.820979</ele>
        <time>2021-11-07T16:57:59.016Z</time>
      </trkpt>
      <trkpt lat="47.566104" lon="7.947141">
        <ele>380.232245</ele>
        <time>2021-11-07T16:57:59.710Z</time>
      </trkpt>
      <trkpt lat="47.566041" lon="7.947154">
        <ele>379.746207</ele>
        <time>2021-11-07T16:58:00.261Z</time>
      </trkpt>
      <trkpt lat="47.566020" lon="7.947169">
        <ele>379.568077</ele>
        <time>2021-11-07T16:58:00.466Z</time>
      </trkpt>
      <trkpt lat="47.565946" lon="7.947239">
        <ele>378.897267</ele>
        <time>2021-11-07T16:58:01.271Z</time>
      </trkpt>
      <trkpt lat="47.565560" lon="7.947737">
        <ele>374.986746</ele>
        <time>2021-11-07T16:58:05.885Z</time>
      </trkpt>
      <trkpt lat="47.565487" lon="7.947832">
        <ele>374.244412</ele>
        <time>2021-11-07T16:58:06.726Z</time>
      </trkpt>
      <trkpt lat="47.565349" lon="7.947927">
        <ele>373.081721</ele>
        <time>2021-11-07T16:58:08.097Z</time>
      </trkpt>
      <trkpt lat="47.565219" lon="7.948009">
        <ele>372.002138</ele>
        <time>2021-11-07T16:58:09.342Z</time>
      </trkpt>
      <trkpt lat="47.565100" lon="7.948048">
        <ele>371.070868</ele>
        <time>2021-11-07T16:58:10.414Z</time>
      </trkpt>
      <trkpt lat="47.565021" lon="7.948043">
        <ele>370.466664</ele>
        <time>2021-11-07T16:58:11.107Z</time>
      </trkpt>
      <trkpt lat="47.564900" lon="7.948021">
        <ele>369.421993</ele>
        <time>2021-11-07T16:58:12.174Z</time>
      </trkpt>
      <trkpt lat="47.564785" lon="7.947966">
        <ele>368.338282</ele>
        <time>2021-11-07T16:58:13.205Z</time>
      </trkpt>
      <trkpt lat="47.564750" lon="7.947944">
        <ele>367.997332</ele>
        <time>2021-11-07T16:58:13.543Z</time>
      </trkpt>
      <trkpt lat="47.564704" lon="7.947878">
        <ele>367.423140</ele>
        <time>2021-11-07T16:58:14.106Z</time>
      </trkpt>
      <trkpt lat="47.564636" lon="7.947804">
        <ele>366.666555</ele>
        <time>2021-11-07T16:58:14.842Z</time>
      </trkpt>
      <trkpt lat="47.564602" lon="7.947749">
        <ele>366.215172</ele>
        <time>2021-11-07T16:58:15.276Z</time>
      </trkpt>
      <trkpt lat="47.564466" lon="7.947344">
        <ele>363.477657</ele>
        <time>2021-11-07T16:58:17.924Z</time>
      </trkpt>
      <trkpt lat="47.564404" lon="7.946994">
        <ele>361.287911</ele>
        <time>2021-11-07T16:58:20.042Z</time>
      </trkpt>
      <trkpt lat="47.564365" lon="7.946824">
        <ele>360.201347</ele>
        <time>2021-11-07T16:58:21.101Z</time>
      </trkpt>
      <trkpt lat="47.564271" lon="7.946559">
        <ele>358.389653</ele>
        <time>2021-11-07T16:58:22.867Z</time>
      </trkpt>
      <trkpt lat="47.564141" lon="7.946291">
        <ele>356.392312</ele>
        <time>2021-11-07T16:58:24.820Z</time>
      </trkpt>
      <trkpt lat="47.564119" lon="7.946229">
        <ele>355.968411</ele>
        <time>2021-11-07T16:58:25.223Z</time>
      </trkpt>
      <trkpt lat="47.564025" lon="7.945964">
        <ele>354.156710</ele>
        <time>2021-11-07T16:58:27.033Z</time>
      </trkpt>
      <trkpt lat="47.563874" lon="7.945541">
        <ele>351.449387</ele>
        <time>2021-11-07T16:58:29.813Z</time>
      </trkpt>
      <trkpt lat="47.563855" lon="7.945417">
        <ele>350.731812</ele>
        <time>2021-11-07T16:58:30.554Z</time>
      </trkpt>
      <trkpt lat="47.563798" lon="7.945261">
        <ele>349.730686</ele>
        <time>2021-11-07T16:58:31.567Z</time>
      </trkpt>
      <trkpt lat="47.563725" lon="7.945071">
        <ele>348.496841</ele>
        <time>2021-11-07T16:58:32.878Z</time>
      </trkpt>
      <trkpt lat="47.563643" lon="7.944887">
        <ele>347.252459</ele>
        <time>2021-11-07T16:58:34.168Z</time>
      </trkpt>
      <trkpt lat="47.563617" lon="7.944825">
        <ele>346.840514</ele>
        <time>2021-11-07T16:58:34.582Z</time>
      </trkpt>
      <trkpt lat="47.563376" lon="7.944323">
        <ele>343.363759</ele>
        <time>2021-11-07T16:58:38.228Z</time>
      </trkpt>
      <trkpt lat="47.563250" lon="7.944210">
        <ele>342.132065</ele>
        <time>2021-11-07T16:58:39.587Z</time>
      </trkpt>
      <trkpt lat="47.563121" lon="7.944175">
        <ele>341.035278</ele>
        <time>2021-11-07T16:58:40.731Z</time>
      </trkpt>
      <trkpt lat="47.562993" lon="7.944148">
        <ele>339.953997</ele>
        <time>2021-11-07T16:58:41.894Z</time>
      </trkpt>
      <trkpt lat="47.562431" lon="7.944285">
        <ele>336.031705</ele>
        <time>2021-11-07T16:58:47.104Z</time>
      </trkpt>
      <trkpt lat="47.562104" lon="7.944442">
        <ele>333.789366</ele>
        <time>2021-11-07T16:58:50.260Z</time>
      </trkpt>
      <trkpt lat="47.561884" lon="7.944575">
        <ele>332.239376</ele>
        <time>2021-11-07T16:58:52.458Z</time>
      </trkpt>
      <trkpt lat="47.561590" lon="7.944808">
        <ele>330.064439</ele>
        <time>2021-11-07T16:58:55.450Z</time>
      </trkpt>
      <trkpt lat="47.561549" lon="7.944844">
        <ele>329.753553</ele>
        <time>2021-11-07T16:58:55.922Z</time>
      </trkpt>
      <trkpt lat="47.561253" lon="7.945105">
        <ele>327.506641</ele>
        <time>2021-11-07T16:58:59.040Z</time>
      </trkpt>
      <trkpt lat="47.561051" lon="7.945242">
        <ele>325.753489</ele>
        <time>2021-11-07T16:59:01.016Z</time>
      </trkpt>
      <trkpt lat="47.560884" lon="7.945275">
        <ele>324.381249</ele>
        <time>2021-11-07T16:59:02.524Z</time>
      </trkpt>
      <trkpt lat="47.560748" lon="7.945268">
        <ele>323.272873</ele>
        <time>2021-11-07T16:59:03.746Z</time>
      </trkpt>
      <trkpt lat="47.560632" lon="7.945223">
        <ele>322.296227</ele>
        <time>2021-11-07T16:59:04.790Z</time>
      </trkpt>
      <trkpt lat="47.560464" lon="7.945085">
        <ele>320.731724</ele>
        <time>2021-11-07T16:59:06.496Z</time>
      </trkpt>
      <trkpt lat="47.560288" lon="7.944850">
        <ele>318.802154</ele>
        <time>2021-11-07T16:59:08.565Z</time>
      </trkpt>
      <trkpt lat="47.560144" lon="7.944665">
        <ele>317.249887</ele>
        <time>2021-11-07T16:59:10.215Z</time>
      </trkpt>
      <trkpt lat="47.560106" lon="7.944624">
        <ele>316.867033</ele>
        <time>2021-11-07T16:59:10.612Z</time>
      </trkpt>
      <trkpt lat="47.559855" lon="7.944533">
        <ele>314.762365</ele>
        <time>2021-11-07T16:59:12.874Z</time>
      </trkpt>
      <trkpt lat="47.559774" lon="7.944500">
        <ele>314.078149</ele>
        <time>2021-11-07T16:59:13.603Z</time>
      </trkpt>
      <trkpt lat="47.559609" lon="7.944534">
        <ele>312.721307</ele>
        <time>2021-11-07T16:59:15.079Z</time>
      </trkpt>
      <trkpt lat="47.559263" lon="7.944710">
        <ele>310.475462</ele>
        <time>2021-11-07T16:59:18.287Z</time>
      </trkpt>
      <trkpt lat="47.559249" lon="7.944727">
        <ele>310.365482</ele>
        <time>2021-11-07T16:59:18.437Z</time>
      </trkpt>
      <trkpt lat="47.558967" lon="7.945068">
        <ele>308.153874</ele>
        <time>2021-11-07T16:59:21.710Z</time>
      </trkpt>
      <trkpt lat="47.558781" lon="7.945419">
        <ele>306.323903</ele>
        <time>2021-11-07T16:59:24.508Z</time>
      </trkpt>
      <trkpt lat="47.558676" lon="7.945591">
        <ele>305.372864</ele>
        <time>2021-11-07T16:59:25.949Z</time>
      </trkpt>
      <trkpt lat="47.558644" lon="7.945668">
        <ele>305.002059</ele>
        <time>2021-11-07T16:59:26.539Z</time>
      </trkpt>
      <trkpt lat="47.558608" lon="7.945765">
        <ele>304.548129</ele>
        <time>2021-11-07T16:59:27.256Z</time>
      </trkpt>
      <trkpt lat="47.558540" lon="7.945722">
        <ele>304.098895</ele>
        <time>2021-11-07T16:59:27.965Z</time>
      </trkpt>
      <trkpt lat="47.558415" lon="7.945666">
        <ele>303.305409</ele>
        <time>2021-11-07T16:59:29.179Z</time>
      </trkpt>
      <trkpt lat="47.558161" lon="7.945614">
        <ele>301.747378</ele>
        <time>2021-11-07T16:59:31.811Z</time>
      </trkpt>
      <trkpt lat="47.558102" lon="7.945615">
        <ele>301.557070</ele>
        <time>2021-11-07T16:59:32.332Z</time>
      </trkpt>
      <trkpt lat="47.558009" lon="7.945617">
        <ele>301.295948</ele>
        <time>2021-11-07T16:59:33.265Z</time>
      </trkpt>
      <trkpt lat="47.557910" lon="7.945625">
        <ele>301.017596</ele>
        <time>2021-11-07T16:59:34.275Z</time>
      </trkpt>
      <trkpt lat="47.557744" lon="7.945674">
        <ele>300.542401</ele>
        <time>2021-11-07T16:59:35.994Z</time>
      </trkpt>
      <trkpt lat="47.557613" lon="7.945697">
        <ele>300.172051</ele>
        <time>2021-11-07T16:59:37.379Z</time>
      </trkpt>
      <trkpt lat="47.557529" lon="7.945747">
        <ele>299.917909</ele>
        <time>2021-11-07T16:59:38.328Z</time>
      </trkpt>
      <trkpt lat="47.557446" lon="7.945795">
        <ele>299.667772</ele>
        <time>2021-11-07T16:59:39.277Z</time>
      </trkpt>
      <trkpt lat="47.557361" lon="7.945867">
        <ele>299.392899</ele>
        <time>2021-11-07T16:59:40.310Z</time>
      </trkpt>
      <trkpt lat="47.557315" lon="7.945902">
        <ele>299.247726</ele>
        <time>2021-11-07T16:59:40.842Z</time>
      </trkpt>
      <trkpt lat="47.557212" lon="7.946010">
        <ele>298.893484</ele>
        <time>2021-11-07T16:59:42.170Z</time>
      </trkpt>
      <trkpt lat="47.557111" lon="7.946129">
        <ele>298.531220</ele>
        <time>2021-11-07T16:59:43.559Z</time>
      </trkpt>
      <trkpt lat="47.557079" lon="7.946167">
        <ele>298.416092</ele>
        <time>2021-11-07T16:59:44.008Z</time>
      </trkpt>
      <trkpt lat="47.557026" lon="7.946287">
        <ele>298.144373</ele>
        <time>2021-11-07T16:59:45.016Z</time>
      </trkpt>
      <trkpt lat="47.556890" lon="7.946422">
        <ele>297.684804</ele>
        <time>2021-11-07T16:59:46.780Z</time>
      </trkpt>
      <trkpt lat="47.556716" lon="7.946585">
        <ele>297.106872</ele>
        <time>2021-11-07T16:59:48.954Z</time>
      </trkpt>
      <trkpt lat="47.556160" lon="7.947027">
        <ele>295.693577</ele>
        <time>2021-11-07T16:59:55.792Z</time>
      </trkpt>
      <trkpt lat="47.556050" lon="7.947125">
        <ele>295.431257</ele>
        <time>2021-11-07T16:59:57.119Z</time>
      </trkpt>
      <trkpt lat="47.556009" lon="7.947161">
        <ele>295.333856</ele>
        <time>2021-11-07T16:59:57.637Z</time>
      </trkpt>
      <trkpt lat="47.555912" lon="7.947254">
        <ele>295.097731</ele>
        <time>2021-11-07T16:59:58.940Z</time>
      </trkpt>
      <trkpt lat="47.555846" lon="7.947320">
        <ele>294.934999</ele>
        <time>2021-11-07T16:59:59.828Z</time>
      </trkpt>
      <trkpt lat="47.555751" lon="7.947427">
        <ele>294.691119</ele>
        <time>2021-11-07T17:00:01.054Z</time>
      </trkpt>
      <trkpt lat="47.555636" lon="7.947544">
        <ele>294.406018</ele>
        <time>2021-11-07T17:00:02.592Z</time>
      </trkpt>
      <trkpt lat="47.555582" lon="7.947589">
        <ele>294.279398</ele>
        <time>2021-11-07T17:00:03.285Z</time>
      </trkpt>
      <trkpt lat="47.555417" lon="7.947683">
        <ele>293.918112</ele>
        <time>2021-11-07T17:00:05.145Z</time>
      </trkpt>
      <trkpt lat="47.555379" lon="7.947702">
        <ele>293.836147</ele>
        <time>2021-11-07T17:00:05.598Z</time>
      </trkpt>
      <trkpt lat="47.555306" lon="7.947738">
        <ele>293.678906</ele>
        <time>2021-11-07T17:00:06.475Z</time>
      </trkpt>
      <trkpt lat="47.555286" lon="7.947750">
        <ele>293.634807</ele>
        <time>2021-11-07T17:00:06.720Z</time>
      </trkpt>
      <trkpt lat="47.554903" lon="7.947916">
        <ele>292.915659</ele>
        <time>2021-11-07T17:00:11.218Z</time>
      </trkpt>
      <trkpt lat="47.554810" lon="7.947963">
        <ele>292.838420</ele>
        <time>2021-11-07T17:00:12.341Z</time>
      </trkpt>
      <trkpt lat="47.554749" lon="7.947993">
        <ele>292.787897</ele>
        <time>2021-11-07T17:00:13.043Z</time>
      </trkpt>
      <trkpt lat="47.554731" lon="7.947945">
        <ele>292.758766</ele>
        <time>2021-11-07T17:00:13.478Z</time>
      </trkpt>
      <trkpt lat="47.554614" lon="7.947707">
        <ele>292.602560</ele>
        <time>2021-11-07T17:00:15.974Z</time>
      </trkpt>
      <trkpt lat="47.554563" lon="7.947632">
        <ele>292.546078</ele>
        <time>2021-11-07T17:00:16.897Z</time>
      </trkpt>
      <trkpt lat="47.554517" lon="7.947576">
        <ele>292.499280</ele>
        <time>2021-11-07T17:00:17.627Z</time>
      </trkpt>
      <trkpt lat="47.554475" lon="7.947529">
        <ele>292.457907</ele>
        <time>2021-11-07T17:00:18.310Z</time>
      </trkpt>
      <trkpt lat="47.554446" lon="7.947485">
        <ele>292.425280</ele>
        <time>2021-11-07T17:00:18.858Z</time>
      </trkpt>
      <trkpt lat="47.554411" lon="7.947434">
        <ele>292.386693</ele>
        <time>2021-11-07T17:00:19.509Z</time>
      </trkpt>
      <trkpt lat="47.554372" lon="7.947483">
        <ele>292.346499</ele>
        <time>2021-11-07T17:00:21.339Z</time>
      </trkpt>
      <trkpt lat="47.554282" lon="7.947594">
        <ele>292.254452</ele>
        <time>2021-11-07T17:00:25.522Z</time>
      </trkpt>
      <trkpt lat="47.554138" lon="7.947710">
        <ele>292.125611</ele>
        <time>2021-11-07T17:00:31.315Z</time>
      </trkpt>
      <trkpt lat="47.553919" lon="7.947905">
        <ele>291.924770</ele>
        <time>2021-11-07T17:00:40.418Z</time>
      </trkpt>
      <trkpt lat="47.553758" lon="7.948048">
        <ele>291.777216</ele>
        <time>2021-11-07T17:00:47.174Z</time>
      </trkpt>
      <trkpt lat="47.553637" lon="7.948167">
        <ele>291.663057</ele>
        <time>2021-11-07T17:00:52.269Z</time>
      </trkpt>
      <trkpt lat="47.553368" lon="7.948399">
        <ele>291.460779</ele>
        <time>2021-11-07T17:01:13.902Z</time>
      </trkpt>
      <trkpt lat="47.553197" lon="7.948543">
        <ele>291.351784</ele>
        <time>2021-11-07T17:01:27.541Z</time>
      </trkpt>
      <trkpt lat="47.553141" lon="7.948597">
        <ele>291.314758</ele>
        <time>2021-11-07T17:01:29.953Z</time>
      </trkpt>
      <trkpt lat="47.553006" lon="7.948724">
        <ele>291.226143</ele>
        <time>2021-11-07T17:01:35.545Z</time>
      </trkpt>
      <trkpt lat="47.552953" lon="7.948775">
        <ele>291.191123</ele>
        <time>2021-11-07T17:01:37.656Z</time>
      </trkpt>
      <trkpt lat="47.552518" lon="7.949236">
        <ele>290.894752</ele>
        <time>2021-11-07T17:01:56.056Z</time>
      </trkpt>
      <trkpt lat="47.552382" lon="7.949119">
        <ele>290.807605</ele>
        <time>2021-11-07T17:02:01.482Z</time>
      </trkpt>
      <trkpt lat="47.552351" lon="7.949099">
        <ele>290.788869</ele>
        <time>2021-11-07T17:02:02.569Z</time>
      </trkpt>
      <trkpt lat="47.552202" lon="7.949003">
        <ele>290.698831</ele>
        <time>2021-11-07T17:02:08.408Z</time>
      </trkpt>
      <trkpt lat="47.552094" lon="7.948926">
        <ele>290.632414</ele>
        <time>2021-11-07T17:02:12.676Z</time>
      </trkpt>
      <trkpt lat="47.552049" lon="7.948982">
        <ele>290.599849</ele>
        <time>2021-11-07T17:02:14.682Z</time>
      </trkpt>
      <trkpt lat="47.552010" lon="7.949039">
        <ele>290.569492</ele>
        <time>2021-11-07T17:02:16.617Z</time>
      </trkpt>
      <trkpt lat="47.551827" lon="7.949333">
        <ele>290.753961</ele>
        <time>2021-11-07T17:02:26.501Z</time>
      </trkpt>
      <trkpt lat="47.551794" lon="7.949387">
        <ele>290.789298</ele>
        <time>2021-11-07T17:02:28.147Z</time>
      </trkpt>
      <trkpt lat="47.551673" lon="7.949634">
        <ele>290.937350</ele>
        <time>2021-11-07T17:02:35.950Z</time>
      </trkpt>
      <trkpt lat="47.551581" lon="7.949830">
        <ele>291.053161</ele>
        <time>2021-11-07T17:02:41.702Z</time>
      </trkpt>
      <trkpt lat="47.551525" lon="7.950027">
        <ele>291.156855</ele>
        <time>2021-11-07T17:02:47.350Z</time>
      </trkpt>
      <trkpt lat="47.551506" lon="7.950255">
        <ele>291.268296</ele>
        <time>2021-11-07T17:02:53.496Z</time>
      </trkpt>
      <trkpt lat="47.551381" lon="7.952341">
        <ele>293.136745</ele>
        <time>2021-11-07T17:03:55.012Z</time>
      </trkpt>
      <trkpt lat="47.551339" lon="7.952761">
        <ele>293.754815</ele>
        <time>2021-11-07T17:04:08.408Z</time>
      </trkpt>
      <trkpt lat="47.551334" lon="7.952777">
        <ele>293.780482</ele>
        <time>2021-11-07T17:04:09.021Z</time>
      </trkpt>
      <trkpt lat="47.551295" lon="7.952900">
        <ele>293.978308</ele>
        <time>2021-11-07T17:04:13.658Z</time>
      </trkpt>
      <trkpt lat="47.551254" lon="7.952986">
        <ele>294.131580</ele>
        <time>2021-11-07T17:04:15.898Z</time>
      </trkpt>
      <trkpt lat="47.550967" lon="7.953063">
        <ele>294.760656</ele>
        <time>2021-11-07T17:04:24.895Z</time>
      </trkpt>
      <trkpt lat="47.550656" lon="7.953072">
        <ele>295.431557</ele>
        <time>2021-11-07T17:04:34.074Z</time>
      </trkpt>
      <trkpt lat="47.550567" lon="7.953069">
        <ele>295.623564</ele>
        <time>2021-11-07T17:04:36.941Z</time>
      </trkpt>
      <trkpt lat="47.549687" lon="7.953071">
        <ele>296.923591</ele>
        <time>2021-11-07T17:05:00.811Z</time>
      </trkpt>
      <trkpt lat="47.549673" lon="7.953076">
        <ele>296.944241</ele>
        <time>2021-11-07T17:05:01.547Z</time>
      </trkpt>
      <trkpt lat="47.549640" lon="7.953086">
        <ele>296.992540</ele>
        <time>2021-11-07T17:05:02.414Z</time>
      </trkpt>
      <trkpt lat="47.549442" lon="7.953195">
        <ele>297.295423</ele>
        <time>2021-11-07T17:05:07.460Z</time>
      </trkpt>
      <trkpt lat="47.549296" lon="7.953268">
        <ele>297.516377</ele>
        <time>2021-11-07T17:05:11.427Z</time>
      </trkpt>
      <trkpt lat="47.548335" lon="7.953779">
        <ele>298.550202</ele>
        <time>2021-11-07T17:05:35.071Z</time>
      </trkpt>
      <trkpt lat="47.548251" lon="7.953895">
        <ele>298.608149</ele>
        <time>2021-11-07T17:05:38.036Z</time>
      </trkpt>
      <trkpt lat="47.548115" lon="7.953729">
        <ele>298.697070</ele>
        <time>2021-11-07T17:05:40.876Z</time>
      </trkpt>
      <trkpt lat="47.547994" lon="7.953584">
        <ele>298.775604</ele>
        <time>2021-11-07T17:05:43.400Z</time>
      </trkpt>
      <trkpt lat="47.547871" lon="7.953437">
        <ele>298.855352</ele>
        <time>2021-11-07T17:05:45.916Z</time>
      </trkpt>
      <trkpt lat="47.547797" lon="7.953355">
        <ele>298.901984</ele>
        <time>2021-11-07T17:05:47.367Z</time>
      </trkpt>
      <trkpt lat="47.547624" lon="7.953160">
        <ele>299.011679</ele>
        <time>2021-11-07T17:05:50.840Z</time>
      </trkpt>
      <trkpt lat="47.547550" lon="7.953078">
        <ele>299.058312</ele>
        <time>2021-11-07T17:05:52.348Z</time>
      </trkpt>
      <trkpt lat="47.547458" lon="7.952975">
        <ele>299.116503</ele>
        <time>2021-11-07T17:05:54.190Z</time>
      </trkpt>
      <trkpt lat="47.547400" lon="7.952910">
        <ele>299.153202</ele>
        <time>2021-11-07T17:05:55.371Z</time>
      </trkpt>
      <trkpt lat="47.547090" lon="7.952543">
        <ele>299.310614</ele>
        <time>2021-11-07T17:06:01.793Z</time>
      </trkpt>
      <trkpt lat="47.546935" lon="7.952372">
        <ele>299.375812</ele>
        <time>2021-11-07T17:06:04.950Z</time>
      </trkpt>
      <trkpt lat="47.546776" lon="7.952185">
        <ele>299.444301</ele>
        <time>2021-11-07T17:06:08.393Z</time>
      </trkpt>
      <trkpt lat="47.546695" lon="7.952091">
        <ele>299.479013</ele>
        <time>2021-11-07T17:06:10.168Z</time>
      </trkpt>
      <trkpt lat="47.546634" lon="7.952024">
        <ele>299.504631</ele>
        <time>2021-11-07T17:06:11.491Z</time>
      </trkpt>
      <trkpt lat="47.546421" lon="7.951793">
        <ele>299.593686</ele>
        <time>2021-11-07T17:06:16.054Z</time>
      </trkpt>
      <trkpt lat="47.546231" lon="7.951558">
        <ele>299.677188</ele>
        <time>2021-11-07T17:06:20.212Z</time>
      </trkpt>
      <trkpt lat="47.546212" lon="7.951535">
        <ele>299.685466</ele>
        <time>2021-11-07T17:06:20.622Z</time>
      </trkpt>
      <trkpt lat="47.546135" lon="7.951406">
        <ele>299.724680</ele>
        <time>2021-11-07T17:06:22.385Z</time>
      </trkpt>
      <trkpt lat="47.545886" lon="7.951110">
        <ele>299.829074</ele>
        <time>2021-11-07T17:06:27.251Z</time>
      </trkpt>
      <trkpt lat="47.545824" lon="7.951061">
        <ele>299.795222</ele>
        <time>2021-11-07T17:06:28.300Z</time>
      </trkpt>
      <trkpt lat="47.545759" lon="7.950982">
        <ele>299.754720</ele>
        <time>2021-11-07T17:06:29.572Z</time>
      </trkpt>
      <trkpt lat="47.545727" lon="7.950947">
        <ele>299.735558</ele>
        <time>2021-11-07T17:06:30.308Z</time>
      </trkpt>
      <trkpt lat="47.545625" lon="7.950829">
        <ele>299.673214</ele>
        <time>2021-11-07T17:06:32.002Z</time>
      </trkpt>
      <trkpt lat="47.545567" lon="7.950765">
        <ele>299.638374</ele>
        <time>2021-11-07T17:06:33.004Z</time>
      </trkpt>
      <trkpt lat="47.545494" lon="7.950684">
        <ele>299.594436</ele>
        <time>2021-11-07T17:06:34.246Z</time>
      </trkpt>
      <trkpt lat="47.545434" lon="7.950668">
        <ele>299.565067</ele>
        <time>2021-11-07T17:06:35.234Z</time>
      </trkpt>
      <trkpt lat="47.545166" lon="7.950366">
        <ele>299.402856</ele>
        <time>2021-11-07T17:06:39.595Z</time>
      </trkpt>
      <trkpt lat="47.544901" lon="7.950044">
        <ele>299.237746</ele>
        <time>2021-11-07T17:06:43.830Z</time>
      </trkpt>
      <trkpt lat="47.544521" lon="7.949558">
        <ele>298.995903</ele>
        <time>2021-11-07T17:06:50.019Z</time>
      </trkpt>
      <trkpt lat="47.544239" lon="7.949202">
        <ele>299.205448</ele>
        <time>2021-11-07T17:06:54.927Z</time>
      </trkpt>
      <trkpt lat="47.543864" lon="7.948694">
        <ele>299.606294</ele>
        <time>2021-11-07T17:07:02.891Z</time>
      </trkpt>
      <trkpt lat="47.543760" lon="7.948548">
        <ele>299.719318</ele>
        <time>2021-11-07T17:07:05.133Z</time>
      </trkpt>
      <trkpt lat="47.543579" lon="7.948287">
        <ele>299.918570</ele>
        <time>2021-11-07T17:07:10.850Z</time>
      </trkpt>
      <trkpt lat="47.543532" lon="7.948214">
        <ele>299.972288</ele>
        <time>2021-11-07T17:07:11.976Z</time>
      </trkpt>
      <trkpt lat="47.543435" lon="7.948000">
        <ele>300.109547</ele>
        <time>2021-11-07T17:07:15.038Z</time>
      </trkpt>
      <trkpt lat="47.543407" lon="7.947938">
        <ele>300.149269</ele>
        <time>2021-11-07T17:07:16.896Z</time>
      </trkpt>
      <trkpt lat="47.543280" lon="7.947656">
        <ele>300.329783</ele>
        <time>2021-11-07T17:07:21.382Z</time>
      </trkpt>
      <trkpt lat="47.543142" lon="7.947250">
        <ele>301.027160</ele>
        <time>2021-11-07T17:07:28.846Z</time>
      </trkpt>
      <trkpt lat="47.543086" lon="7.947052">
        <ele>301.417663</ele>
        <time>2021-11-07T17:07:32.276Z</time>
      </trkpt>
      <trkpt lat="47.543056" lon="7.946935">
        <ele>301.645327</ele>
        <time>2021-11-07T17:07:35.117Z</time>
      </trkpt>
      <trkpt lat="47.543045" lon="7.946881">
        <ele>301.747930</ele>
        <time>2021-11-07T17:07:36.274Z</time>
      </trkpt>
      <trkpt lat="47.542982" lon="7.946547">
        <ele>302.378760</ele>
        <time>2021-11-07T17:07:41.674Z</time>
      </trkpt>
      <trkpt lat="47.542974" lon="7.946495">
        <ele>302.475776</ele>
        <time>2021-11-07T17:07:43.314Z</time>
      </trkpt>
      <trkpt lat="47.542960" lon="7.946400">
        <ele>302.652654</ele>
        <time>2021-11-07T17:07:45.380Z</time>
      </trkpt>
      <trkpt lat="47.542916" lon="7.945730">
        <ele>303.877163</ele>
        <time>2021-11-07T17:07:58.045Z</time>
      </trkpt>
      <trkpt lat="47.542913" lon="7.945267">
        <ele>304.719417</ele>
        <time>2021-11-07T17:08:06.541Z</time>
      </trkpt>
      <trkpt lat="47.543007" lon="7.943867">
        <ele>305.960887</ele>
        <time>2021-11-07T17:08:27.708Z</time>
      </trkpt>
      <trkpt lat="47.543161" lon="7.942213">
        <ele>306.859242</ele>
        <time>2021-11-07T17:08:46.114Z</time>
      </trkpt>
      <trkpt lat="47.543435" lon="7.940670">
        <ele>305.645507</ele>
        <time>2021-11-07T17:08:59.062Z</time>
      </trkpt>
      <trkpt lat="47.543826" lon="7.939433">
        <ele>304.411795</ele>
        <time>2021-11-07T17:09:09.463Z</time>
      </trkpt>
      <trkpt lat="47.544472" lon="7.937932">
        <ele>302.248282</ele>
        <time>2021-11-07T17:09:22.787Z</time>
      </trkpt>
      <trkpt lat="47.544705" lon="7.937395">
        <ele>301.498503</ele>
        <time>2021-11-07T17:09:27.627Z</time>
      </trkpt>
      <trkpt lat="47.544903" lon="7.936917">
        <ele>300.897215</ele>
        <time>2021-11-07T17:09:31.887Z</time>
      </trkpt>
      <trkpt lat="47.545074" lon="7.936484">
        <ele>300.359361</ele>
        <time>2021-11-07T17:09:35.718Z</time>
      </trkpt>
      <trkpt lat="47.545457" lon="7.935110">
        <ele>298.826596</ele>
        <time>2021-11-07T17:09:47.087Z</time>
      </trkpt>
      <trkpt lat="47.545674" lon="7.933625">
        <ele>298.592693</ele>
        <time>2021-11-07T17:10:00.167Z</time>
      </trkpt>
      <trkpt lat="47.545702" lon="7.933290">
        <ele>298.540728</ele>
        <time>2021-11-07T17:10:03.747Z</time>
      </trkpt>
      <trkpt lat="47.545724" lon="7.932758">
        <ele>298.458677</ele>
        <time>2021-11-07T17:10:10.013Z</time>
      </trkpt>
      <trkpt lat="47.545721" lon="7.931992">
        <ele>299.123734</ele>
        <time>2021-11-07T17:10:20.053Z</time>
      </trkpt>
      <trkpt lat="47.545696" lon="7.931497">
        <ele>299.744116</ele>
        <time>2021-11-07T17:10:27.259Z</time>
      </trkpt>
      <trkpt lat="47.545661" lon="7.930955">
        <ele>300.424603</ele>
        <time>2021-11-07T17:10:35.953Z</time>
      </trkpt>
      <trkpt lat="47.545563" lon="7.929641">
        <ele>301.790837</ele>
        <time>2021-11-07T17:10:58.293Z</time>
      </trkpt>
      <trkpt lat="47.545475" lon="7.928419">
        <ele>301.953710</ele>
        <time>2021-11-07T17:11:14.596Z</time>
      </trkpt>
      <trkpt lat="47.545421" lon="7.927686">
        <ele>302.051434</ele>
        <time>2021-11-07T17:11:20.699Z</time>
      </trkpt>
      <trkpt lat="47.545406" lon="7.927306">
        <ele>302.101882</ele>
        <time>2021-11-07T17:11:23.603Z</time>
      </trkpt>
      <trkpt lat="47.545407" lon="7.927001">
        <ele>301.552738</ele>
        <time>2021-11-07T17:11:25.890Z</time>
      </trkpt>
      <trkpt lat="47.545409" lon="7.926773">
        <ele>301.030390</ele>
        <time>2021-11-07T17:11:27.519Z</time>
      </trkpt>
      <trkpt lat="47.545417" lon="7.925848">
        <ele>298.911222</ele>
        <time>2021-11-07T17:11:33.854Z</time>
      </trkpt>
      <trkpt lat="47.545446" lon="7.925350">
        <ele>297.766165</ele>
        <time>2021-11-07T17:11:37.146Z</time>
      </trkpt>
      <trkpt lat="47.545466" lon="7.924880">
        <ele>296.687351</ele>
        <time>2021-11-07T17:11:40.199Z</time>
      </trkpt>
      <trkpt lat="47.545481" lon="7.924396">
        <ele>295.653927</ele>
        <time>2021-11-07T17:11:43.283Z</time>
      </trkpt>
      <trkpt lat="47.545521" lon="7.923709">
        <ele>294.356304</ele>
        <time>2021-11-07T17:11:47.808Z</time>
      </trkpt>
      <trkpt lat="47.545536" lon="7.923407">
        <ele>293.786453</ele>
        <time>2021-11-07T17:11:49.956Z</time>
      </trkpt>
      <trkpt lat="47.545553" lon="7.923142">
        <ele>293.285519</ele>
        <time>2021-11-07T17:11:51.787Z</time>
      </trkpt>
      <trkpt lat="47.545587" lon="7.922895">
        <ele>292.811139</ele>
        <time>2021-11-07T17:11:53.721Z</time>
      </trkpt>
      <trkpt lat="47.545641" lon="7.922610">
        <ele>292.254088</ele>
        <time>2021-11-07T17:11:55.866Z</time>
      </trkpt>
      <trkpt lat="47.545690" lon="7.922369">
        <ele>291.780439</ele>
        <time>2021-11-07T17:11:57.873Z</time>
      </trkpt>
      <trkpt lat="47.545699" lon="7.922325">
        <ele>291.693921</ele>
        <time>2021-11-07T17:11:58.167Z</time>
      </trkpt>
      <trkpt lat="47.545714" lon="7.922249">
        <ele>291.544913</ele>
        <time>2021-11-07T17:11:58.757Z</time>
      </trkpt>
      <trkpt lat="47.545778" lon="7.921947">
        <ele>290.982864</ele>
        <time>2021-11-07T17:12:01.459Z</time>
      </trkpt>
      <trkpt lat="47.545810" lon="7.921755">
        <ele>290.906876</ele>
        <time>2021-11-07T17:12:02.940Z</time>
      </trkpt>
      <trkpt lat="47.545881" lon="7.921096">
        <ele>290.650464</ele>
        <time>2021-11-07T17:12:08.402Z</time>
      </trkpt>
      <trkpt lat="47.545913" lon="7.920765">
        <ele>290.521987</ele>
        <time>2021-11-07T17:12:11.295Z</time>
      </trkpt>
      <trkpt lat="47.545973" lon="7.920313">
        <ele>290.344989</ele>
        <time>2021-11-07T17:12:15.765Z</time>
      </trkpt>
      <trkpt lat="47.546128" lon="7.919617">
        <ele>290.063387</ele>
        <time>2021-11-07T17:12:23.006Z</time>
      </trkpt>
      <trkpt lat="47.546262" lon="7.919081">
        <ele>289.861175</ele>
        <time>2021-11-07T17:12:29.054Z</time>
      </trkpt>
      <trkpt lat="47.546821" lon="7.916867">
        <ele>289.083637</ele>
        <time>2021-11-07T17:12:49.722Z</time>
      </trkpt>
      <trkpt lat="47.547032" lon="7.916218">
        <ele>288.949243</ele>
        <time>2021-11-07T17:12:56.029Z</time>
      </trkpt>
      <trkpt lat="47.547091" lon="7.916039">
        <ele>288.912079</ele>
        <time>2021-11-07T17:12:57.803Z</time>
      </trkpt>
      <trkpt lat="47.547113" lon="7.915971">
        <ele>288.898011</ele>
        <time>2021-11-07T17:12:58.394Z</time>
      </trkpt>
      <trkpt lat="47.547423" lon="7.915080">
        <ele>288.710998</ele>
        <time>2021-11-07T17:13:07.881Z</time>
      </trkpt>
      <trkpt lat="47.547994" lon="7.913433">
        <ele>289.123621</ele>
        <time>2021-11-07T17:13:27.585Z</time>
      </trkpt>
      <trkpt lat="47.548027" lon="7.913334">
        <ele>289.172439</ele>
        <time>2021-11-07T17:13:28.944Z</time>
      </trkpt>
      <trkpt lat="47.548412" lon="7.912168">
        <ele>289.746351</ele>
        <time>2021-11-07T17:13:45.347Z</time>
      </trkpt>
      <trkpt lat="47.549012" lon="7.910340">
        <ele>291.306862</ele>
        <time>2021-11-07T17:14:12.273Z</time>
      </trkpt>
      <trkpt lat="47.549102" lon="7.910058">
        <ele>291.548928</ele>
        <time>2021-11-07T17:14:16.378Z</time>
      </trkpt>
      <trkpt lat="47.549195" lon="7.909756">
        <ele>291.806523</ele>
        <time>2021-11-07T17:14:20.701Z</time>
      </trkpt>
      <trkpt lat="47.549290" lon="7.909440">
        <ele>292.200563</ele>
        <time>2021-11-07T17:14:25.160Z</time>
      </trkpt>
      <trkpt lat="47.549411" lon="7.909039">
        <ele>292.721057</ele>
        <time>2021-11-07T17:14:30.834Z</time>
      </trkpt>
      <trkpt lat="47.549520" lon="7.908678">
        <ele>293.189680</ele>
        <time>2021-11-07T17:14:35.986Z</time>
      </trkpt>
      <trkpt lat="47.549539" lon="7.908625">
        <ele>293.260792</ele>
        <time>2021-11-07T17:14:36.715Z</time>
      </trkpt>
      <trkpt lat="47.550497" lon="7.905558">
        <ele>298.590966</ele>
        <time>2021-11-07T17:15:31.645Z</time>
      </trkpt>
      <trkpt lat="47.550283" lon="7.905413">
        <ele>299.245245</ele>
        <time>2021-11-07T17:15:39.810Z</time>
      </trkpt>
      <trkpt lat="47.550067" lon="7.905245">
        <ele>299.923540</ele>
        <time>2021-11-07T17:15:48.496Z</time>
      </trkpt>
      <trkpt lat="47.549867" lon="7.905155">
        <ele>300.698891</ele>
        <time>2021-11-07T17:15:56.126Z</time>
      </trkpt>
      <trkpt lat="47.549868" lon="7.905010">
        <ele>301.074764</ele>
        <time>2021-11-07T17:15:59.531Z</time>
      </trkpt>
      <trkpt lat="47.550025" lon="7.904774">
        <ele>301.933697</ele>
        <time>2021-11-07T17:16:07.682Z</time>
      </trkpt>
      <trkpt lat="47.550302" lon="7.904164">
        <ele>303.839417</ele>
        <time>2021-11-07T17:16:25.980Z</time>
      </trkpt>
      <trkpt lat="47.550498" lon="7.903445">
        <ele>305.849384</ele>
        <time>2021-11-07T17:16:45.553Z</time>
      </trkpt>
      <trkpt lat="47.550688" lon="7.902451">
        <ele>308.522966</ele>
        <time>2021-11-07T17:17:08.101Z</time>
      </trkpt>
      <trkpt lat="47.550757" lon="7.901591">
        <ele>310.761941</ele>
        <time>2021-11-07T17:17:27.897Z</time>
      </trkpt>
      <trkpt lat="47.550769" lon="7.901362">
        <ele>311.355746</ele>
        <time>2021-11-07T17:17:33.805Z</time>
      </trkpt>
      <trkpt lat="47.550801" lon="7.900244">
        <ele>314.274148</ele>
        <time>2021-11-07T17:17:58.203Z</time>
      </trkpt>
      <trkpt lat="47.550819" lon="7.898109">
        <ele>320.102478</ele>
        <time>2021-11-07T17:18:45.243Z</time>
      </trkpt>
      <trkpt lat="47.550648" lon="7.896481">
        <ele>322.684561</ele>
        <time>2021-11-07T17:19:12.898Z</time>
      </trkpt>
      <trkpt lat="47.550639" lon="7.896345">
        <ele>322.855363</ele>
        <time>2021-11-07T17:19:15.273Z</time>
      </trkpt>
      <trkpt lat="47.550660" lon="7.896255">
        <ele>322.974388</ele>
        <time>2021-11-07T17:19:16.074Z</time>
      </trkpt>
      <trkpt lat="47.550838" lon="7.895509">
        <ele>323.963368</ele>
        <time>2021-11-07T17:19:26.242Z</time>
      </trkpt>
      <trkpt lat="47.550878" lon="7.895158">
        <ele>324.408179</ele>
        <time>2021-11-07T17:19:30.304Z</time>
      </trkpt>
      <trkpt lat="47.550908" lon="7.894308">
        <ele>325.460647</ele>
        <time>2021-11-07T17:19:40.776Z</time>
      </trkpt>
      <trkpt lat="47.550892" lon="7.893176">
        <ele>326.860682</ele>
        <time>2021-11-07T17:19:55.494Z</time>
      </trkpt>
      <trkpt lat="47.550904" lon="7.891725">
        <ele>330.497950</ele>
        <time>2021-11-07T17:20:25.256Z</time>
      </trkpt>
      <trkpt lat="47.550915" lon="7.890600">
        <ele>334.553951</ele>
        <time>2021-11-07T17:20:54.096Z</time>
      </trkpt>
      <trkpt lat="47.550833" lon="7.889069">
        <ele>340.529892</ele>
        <time>2021-11-07T17:21:36.730Z</time>
      </trkpt>
      <trkpt lat="47.550831" lon="7.888611">
        <ele>342.440961</ele>
        <time>2021-11-07T17:21:49.300Z</time>
      </trkpt>
      <trkpt lat="47.550789" lon="7.887816">
        <ele>345.768288</ele>
        <time>2021-11-07T17:22:09.912Z</time>
      </trkpt>
      <trkpt lat="47.550758" lon="7.887295">
        <ele>347.950621</ele>
        <time>2021-11-07T17:22:23.733Z</time>
      </trkpt>
      <trkpt lat="47.550677" lon="7.886476">
        <ele>350.965588</ele>
        <time>2021-11-07T17:22:45.222Z</time>
      </trkpt>
      <trkpt lat="47.550548" lon="7.885799">
        <ele>353.469328</ele>
        <time>2021-11-07T17:23:02.425Z</time>
      </trkpt>
      <trkpt lat="47.550391" lon="7.885109">
        <ele>356.060959</ele>
        <time>2021-11-07T17:23:20.062Z</time>
      </trkpt>
      <trkpt lat="47.550332" lon="7.884727">
        <ele>357.455712</ele>
        <time>2021-11-07T17:23:28.753Z</time>
      </trkpt>
      <trkpt lat="47.550234" lon="7.883221">
        <ele>361.440403</ele>
        <time>2021-11-07T17:24:01.584Z</time>
      </trkpt>
      <trkpt lat="47.549927" lon="7.881490">
        <ele>366.070767</ele>
        <time>2021-11-07T17:24:33.848Z</time>
      </trkpt>
      <trkpt lat="47.549726" lon="7.880786">
        <ele>368.119952</ele>
        <time>2021-11-07T17:24:49.825Z</time>
      </trkpt>
      <trkpt lat="47.549327" lon="7.879547">
        <ele>371.800164</ele>
        <time>2021-11-07T17:25:19.609Z</time>
      </trkpt>
      <trkpt lat="47.549318" lon="7.879398">
        <ele>372.155759</ele>
        <time>2021-11-07T17:25:22.797Z</time>
      </trkpt>
      <trkpt lat="47.549140" lon="7.879391">
        <ele>372.773431</ele>
        <time>2021-11-07T17:25:29.667Z</time>
      </trkpt>
      <trkpt lat="47.548718" lon="7.879258">
        <ele>374.270037</ele>
        <time>2021-11-07T17:25:43.338Z</time>
      </trkpt>
      <trkpt lat="47.548422" lon="7.878959">
        <ele>375.512759</ele>
        <time>2021-11-07T17:25:53.985Z</time>
      </trkpt>
      <trkpt lat="47.548234" lon="7.878638">
        <ele>376.507825</ele>
        <time>2021-11-07T17:26:02.417Z</time>
      </trkpt>
      <trkpt lat="47.547992" lon="7.877974">
        <ele>378.032634</ele>
        <time>2021-11-07T17:26:15.514Z</time>
      </trkpt>
      <trkpt lat="47.547574" lon="7.876801">
        <ele>377.245213</ele>
        <time>2021-11-07T17:26:29.277Z</time>
      </trkpt>
      <trkpt lat="47.547126" lon="7.875801">
        <ele>376.532714</ele>
        <time>2021-11-07T17:26:38.060Z</time>
      </trkpt>
      <trkpt lat="47.546309" lon="7.874154">
        <ele>369.837053</ele>
        <time>2021-11-07T17:26:51.248Z</time>
      </trkpt>
      <trkpt lat="47.546135" lon="7.873859">
        <ele>368.524290</ele>
        <time>2021-11-07T17:26:53.630Z</time>
      </trkpt>
      <trkpt lat="47.546077" lon="7.873763">
        <ele>368.092558</ele>
        <time>2021-11-07T17:26:54.441Z</time>
      </trkpt>
      <trkpt lat="47.545934" lon="7.873549">
        <ele>366.900871</ele>
        <time>2021-11-07T17:26:56.246Z</time>
      </trkpt>
      <trkpt lat="47.545746" lon="7.873302">
        <ele>365.185648</ele>
        <time>2021-11-07T17:26:58.534Z</time>
      </trkpt>
      <trkpt lat="47.545515" lon="7.873015">
        <ele>363.127750</ele>
        <time>2021-11-07T17:27:01.233Z</time>
      </trkpt>
      <trkpt lat="47.545478" lon="7.872968">
        <ele>362.795060</ele>
        <time>2021-11-07T17:27:01.675Z</time>
      </trkpt>
      <trkpt lat="47.545375" lon="7.872836">
        <ele>361.865426</ele>
        <time>2021-11-07T17:27:02.868Z</time>
      </trkpt>
      <trkpt lat="47.545131" lon="7.872664">
        <ele>360.020956</ele>
        <time>2021-11-07T17:27:05.327Z</time>
      </trkpt>
      <trkpt lat="47.544883" lon="7.872555">
        <ele>358.255187</ele>
        <time>2021-11-07T17:27:07.650Z</time>
      </trkpt>
      <trkpt lat="47.544390" lon="7.872423">
        <ele>355.293034</ele>
        <time>2021-11-07T17:27:12.148Z</time>
      </trkpt>
      <trkpt lat="47.543332" lon="7.872237">
        <ele>355.293034</ele>
        <time>2021-11-07T17:27:21.870Z</time>
      </trkpt>
      <trkpt lat="47.543251" lon="7.872152">
        <ele>355.293034</ele>
        <time>2021-11-07T17:27:22.824Z</time>
      </trkpt>
      <trkpt lat="47.543233" lon="7.872082">
        <ele>355.293034</ele>
        <time>2021-11-07T17:27:23.245Z</time>
      </trkpt>
      <trkpt lat="47.543081" lon="7.872152">
        <ele>355.293034</ele>
        <time>2021-11-07T17:27:24.821Z</time>
      </trkpt>
      <trkpt lat="47.543081" lon="7.872152">
        <ele>355.293034</ele>
        <time>2021-11-07T17:27:24.864Z</time>
      </trkpt>
      <trkpt lat="47.543081" lon="7.872152">
        <ele>355.293034</ele>
        <time>2021-11-07T17:27:24.864Z</time>
      </trkpt>
      <trkpt lat="47.542389" lon="7.872326">
        <ele>355.293034</ele>
        <time>2021-11-07T17:27:37.888Z</time>
      </trkpt>
    </trkseg>
  </trk>
</gpx>